Home > Products > Valid Products > OSO

000
SXUS55 KMSO 241723
OSOMSO
MONTANA AWOS SUMMARY
NATIONAL WEATHER SERVICE MISSOULA MT
1122 AM MDT SUN MAY 24 2015

Montana AWOS Reports

TWIN BRIDGES|K7S1 241715Z AUTO 33015G23KT 40SM 14/03 A3001 RMK AO1 T01390033
MALTA       |KM75 241715Z AUTO 00000KT 40SM 19/08 A3001 RMK AO1 T01890078
PLAINS      |KS34 241655Z AUTO 00000KT 40SM 18/06 A3001 RMK AO1 T01830056






000
SXUS55 KMSO 241703
OSOMSO
MONTANA AWOS SUMMARY
NATIONAL WEATHER SERVICE MISSOULA MT
1102 AM MDT SUN MAY 24 2015

Montana AWOS Reports

LAUREL      |K6S8 241655Z AUTO 34004KT 40SM 11/07 A3002 RMK AO1 T01060067
TWIN BRIDGES|K7S1 241655Z AUTO 34012G20KT 40SM 13/03 A3002 RMK AO1 T01330033
ROUNDUP     |KRPX 241655Z AUTO 00000KT 40SM 11/08 A2996 RMK AO1 T01060083
EKALAKA     |K97M 241655Z AUTO 05009KT 7SM 11/09 A2998 RMK AO1 T01060094
MALTA       |KM75 241655Z AUTO 00000KT 40SM 17/08 A3002 RMK AO1 T01720078
SCOBEY      |K9S2 241655Z AUTO 04010G18KT 40SM 23/03 A3002 RMK AO1 T02280033






000
SXUS55 KMSO 241643
OSOMSO
MONTANA AWOS SUMMARY
NATIONAL WEATHER SERVICE MISSOULA MT
1043 AM MDT SUN MAY 24 2015

Montana AWOS Reports

TWIN BRIDGES|K7S1 241635Z AUTO 34012G22KT 40SM 13/04 A3002 RMK AO1 T01280039
MALTA       |KM75 241635Z AUTO 00000KT 40SM 16/08 A3002 RMK AO1 T01610078
LAUREL      |K6S8 241635Z AUTO 34005KT 40SM 11/07 A3002 RMK AO1 T01060067
ROUNDUP     |KRPX 241635Z AUTO 01005KT 15SM 10/08 A2997 RMK AO1 T01000078






000
SXUS55 KMSO 241623
OSOMSO
MONTANA AWOS SUMMARY
NATIONAL WEATHER SERVICE MISSOULA MT
1022 AM MDT SUN MAY 24 2015

Montana AWOS Reports

TWIN BRIDGES|K7S1 241615Z AUTO 34014G19KT 40SM 13/04 A3002 RMK AO1 T01330039
MALTA       |KM75 241615Z AUTO 00000KT 40SM 15/08 A3003 RMK AO1 T01500078
LAUREL      |K6S8 241615Z AUTO 34004KT 40SM 11/07 A3002 RMK AO1 T01110072
ROUNDUP     |KRPX 241615Z AUTO 00000KT 10SM 10/08 A2997 RMK AO1 T01000078






000
SXUS55 KMSO 241603
OSOMSO
MONTANA AWOS SUMMARY
NATIONAL WEATHER SERVICE MISSOULA MT
1002 AM MDT SUN MAY 24 2015

Montana AWOS Reports

TWIN BRIDGES|K7S1 241555Z AUTO 32016G21KT 40SM 13/04 A3002 RMK AO1 T01330044
ROUNDUP     |KRPX 241555Z AUTO 36005KT 25SM 10/08 A2997 RMK AO1 T01000078
MALTA       |KM75 241555Z AUTO 00000KT 40SM 14/07 A3003 RMK AO1 T01440072
PLAINS      |KS34 241555Z AUTO 00000KT 40SM 16/06 A3003 RMK AO1 T01560061
LAUREL      |K6S8 241555Z AUTO 34006KT 40SM 11/07 A3003 RMK AO1 T01060072
SCOBEY      |K9S2 241555Z AUTO 05011G15KT 40SM 21/03 A3004 RMK AO1 T02110033
EKALAKA     |K97M 241555Z AUTO 06008KT 5SM BR 10/09 A2999 RMK AO1 T01000089






000
SXUS55 KMSO 241603
OSOMSO
MONTANA AWOS SUMMARY
NATIONAL WEATHER SERVICE MISSOULA MT
1002 AM MDT SUN MAY 24 2015

Montana AWOS Reports

TWIN BRIDGES|K7S1 241555Z AUTO 32016G21KT 40SM 13/04 A3002 RMK AO1 T01330044
ROUNDUP     |KRPX 241555Z AUTO 36005KT 25SM 10/08 A2997 RMK AO1 T01000078
MALTA       |KM75 241555Z AUTO 00000KT 40SM 14/07 A3003 RMK AO1 T01440072
PLAINS      |KS34 241555Z AUTO 00000KT 40SM 16/06 A3003 RMK AO1 T01560061
LAUREL      |K6S8 241555Z AUTO 34006KT 40SM 11/07 A3003 RMK AO1 T01060072
SCOBEY      |K9S2 241555Z AUTO 05011G15KT 40SM 21/03 A3004 RMK AO1 T02110033
EKALAKA     |K97M 241555Z AUTO 06008KT 5SM BR 10/09 A2999 RMK AO1 T01000089






000
SXUS55 KMSO 241554
OSOMSO
MONTANA AWOS SUMMARY
NATIONAL WEATHER SERVICE MISSOULA MT
953 AM MDT SUN MAY 24 2015

Montana AWOS Reports

EKALAKA     |K97M 241455Z AUTO 06007KT 1SM BR 09/08 A3000 RMK AO1 T00940083






000
SXUS55 KMSO 241543
OSOMSO
MONTANA AWOS SUMMARY
NATIONAL WEATHER SERVICE MISSOULA MT
943 AM MDT SUN MAY 24 2015

Montana AWOS Reports

TWIN BRIDGES|K7S1 241535Z AUTO 34015G20KT 40SM 12/04 A3003 RMK AO1 T01220039
MALTA       |KM75 241535Z AUTO 00000KT 1SM HZ 14/07 A3003 RMK AO1 T01390072






000
SXUS55 KMSO 241534
OSOMSO
MONTANA AWOS SUMMARY
NATIONAL WEATHER SERVICE MISSOULA MT
933 AM MDT SUN MAY 24 2015

Montana AWOS Reports

LAUREL      |K6S8 241515Z AUTO 34004KT 25SM 10/07 A3003 RMK AO1 T01000067
ROUNDUP     |KRPX 241515Z AUTO 36008KT 5SM BR 10/08 A2998 RMK AO1 T01000078






000
SXUS55 KMSO 241523
OSOMSO
MONTANA AWOS SUMMARY
NATIONAL WEATHER SERVICE MISSOULA MT
923 AM MDT SUN MAY 24 2015

Montana AWOS Reports

TWIN BRIDGES|K7S1 241515Z AUTO 33015G20KT 40SM 13/04 A3003 RMK AO1 T01280044
MALTA       |KM75 241515Z AUTO 00000KT 15SM 13/07 A3004 RMK AO1 T01330072






000
SXUS55 KMSO 241504
OSOMSO
MONTANA AWOS SUMMARY
NATIONAL WEATHER SERVICE MISSOULA MT
903 AM MDT SUN MAY 24 2015

Montana AWOS Reports

TWIN BRIDGES|K7S1 241455Z AUTO 34016KT 40SM 12/04 A3003 RMK AO1 T01220044
MALTA       |KM75 241455Z AUTO 00000KT 40SM 13/07 A3004 RMK AO1 T01280072
SCOBEY      |K9S2 241455Z AUTO 06004KT 40SM 16/05 A3005 RMK AO1 T01610050
PLAINS      |KS34 241455Z AUTO 00000KT 40SM 12/06 A3004 RMK AO1 T01220056
LAUREL      |K6S8 241455Z AUTO 34005KT 1 1/4SM HZ 10/07 A3003 RMK AO1 T01000067
ROUNDUP     |KRPX 241455Z AUTO 34005KT 7SM 09/07 A2998 RMK AO1 T00940072






000
SXUS55 KMSO 241453
OSOMSO
MONTANA AWOS SUMMARY
NATIONAL WEATHER SERVICE MISSOULA MT
853 AM MDT SUN MAY 24 2015

Montana AWOS Reports

LAUREL      |K6S8 241435Z AUTO 00000KT 2 1/2SM HZ 10/06 A3004 RMK AO1 T01000061
ROUNDUP     |KRPX 241435Z AUTO 36006KT 5SM BR 09/07 A2998 RMK AO1 T00940072






000
SXUS55 KMSO 241443
OSOMSO
MONTANA AWOS SUMMARY
NATIONAL WEATHER SERVICE MISSOULA MT
842 AM MDT SUN MAY 24 2015

Montana AWOS Reports

TWIN BRIDGES|K7S1 241435Z AUTO 34012G19KT 40SM 12/05 A3003 RMK AO1 T01170050
MALTA       |KM75 241435Z AUTO 00000KT 40SM 12/07 A3004 RMK AO1 T01220067






000
SXUS55 KMSO 241423
OSOMSO
MONTANA AWOS SUMMARY
NATIONAL WEATHER SERVICE MISSOULA MT
823 AM MDT SUN MAY 24 2015

Montana AWOS Reports

TWIN BRIDGES|K7S1 241415Z AUTO 34012G16KT 40SM 11/05 A3003 RMK AO1 T01110050
MALTA       |KM75 241415Z AUTO 00000KT 40SM 11/07 A3004 RMK AO1 T01110067
LAUREL      |K6S8 241415Z AUTO 00000KT 3SM HZ 10/06 A3004 RMK AO1 T01000061
ROUNDUP     |KRPX 241415Z AUTO 35005KT 4SM BR 09/07 A2998 RMK AO1 T00940072






000
SXUS55 KMSO 241403
OSOMSO
MONTANA AWOS SUMMARY
NATIONAL WEATHER SERVICE MISSOULA MT
803 AM MDT SUN MAY 24 2015

Montana AWOS Reports

LAUREL      |K6S8 241355Z AUTO 00000KT 15SM 10/06 A3004 RMK AO1 T01000056
TWIN BRIDGES|K7S1 241355Z AUTO 34006KT 40SM 10/06 A3003 RMK AO1 T01000056
ROUNDUP     |KRPX 241355Z AUTO 34006KT 25SM 09/07 A2998 RMK AO1 T00940072
SCOBEY      |K9S2 241355Z AUTO 08004KT 25SM 10/03 A3006 RMK AO1 T01000033
EKALAKA     |K97M 241355Z AUTO 06004KT 7SM 09/08 A3001 RMK AO1 T00940083






000
SXUS55 KMSO 241403
OSOMSO
MONTANA AWOS SUMMARY
NATIONAL WEATHER SERVICE MISSOULA MT
803 AM MDT SUN MAY 24 2015

Montana AWOS Reports

LAUREL      |K6S8 241355Z AUTO 00000KT 15SM 10/06 A3004 RMK AO1 T01000056
TWIN BRIDGES|K7S1 241355Z AUTO 34006KT 40SM 10/06 A3003 RMK AO1 T01000056
ROUNDUP     |KRPX 241355Z AUTO 34006KT 25SM 09/07 A2998 RMK AO1 T00940072
SCOBEY      |K9S2 241355Z AUTO 08004KT 25SM 10/03 A3006 RMK AO1 T01000033
EKALAKA     |K97M 241355Z AUTO 06004KT 7SM 09/08 A3001 RMK AO1 T00940083






000
SXUS55 KMSO 241343
OSOMSO
MONTANA AWOS SUMMARY
NATIONAL WEATHER SERVICE MISSOULA MT
743 AM MDT SUN MAY 24 2015

Montana AWOS Reports

LAUREL      |K6S8 241335Z AUTO 34004KT 40SM 10/06 A3004 RMK AO1 T01000056
TWIN BRIDGES|K7S1 241335Z AUTO 34011KT 40SM 09/05 A3003 RMK AO1 T00940050
ROUNDUP     |KRPX 241335Z AUTO 34004KT 40SM 09/07 A2998 RMK AO1 T00940072






000
SXUS55 KMSO 241323
OSOMSO
MONTANA AWOS SUMMARY
NATIONAL WEATHER SERVICE MISSOULA MT
723 AM MDT SUN MAY 24 2015

Montana AWOS Reports

MALTA       |KM75 241315Z AUTO 00000KT 40SM 08/06 A3005 RMK AO1 T00780056
LAUREL      |K6S8 241315Z AUTO 33004KT 40SM 09/06 A3004 RMK AO1 T00940056
TWIN BRIDGES|K7S1 241315Z AUTO 36009KT 40SM 09/05 A3002 RMK AO1 T00890050
ROUNDUP     |KRPX 241315Z AUTO 36005KT 40SM 09/07 A2998 RMK AO1 T00940072






000
SXUS55 KMSO 241323
OSOMSO
MONTANA AWOS SUMMARY
NATIONAL WEATHER SERVICE MISSOULA MT
723 AM MDT SUN MAY 24 2015

Montana AWOS Reports

MALTA       |KM75 241315Z AUTO 00000KT 40SM 08/06 A3005 RMK AO1 T00780056
LAUREL      |K6S8 241315Z AUTO 33004KT 40SM 09/06 A3004 RMK AO1 T00940056
TWIN BRIDGES|K7S1 241315Z AUTO 36009KT 40SM 09/05 A3002 RMK AO1 T00890050
ROUNDUP     |KRPX 241315Z AUTO 36005KT 40SM 09/07 A2998 RMK AO1 T00940072






000
SXUS55 KMSO 241313
OSOMSO
MONTANA AWOS SUMMARY
NATIONAL WEATHER SERVICE MISSOULA MT
713 AM MDT SUN MAY 24 2015

Montana AWOS Reports

LAUREL      |K6S8 241255Z AUTO 00000KT 40SM 09/06 A3004 RMK AO1 T00940056
ROUNDUP     |KRPX 241255Z AUTO 34004KT 7SM 09/07 A2998 RMK AO1 T00890067
EKALAKA     |K97M 241255Z AUTO 06005KT 3 1/2SM BR 09/08 A3001 RMK AO1 T00890078






000
SXUS55 KMSO 241303
OSOMSO
MONTANA AWOS SUMMARY
NATIONAL WEATHER SERVICE MISSOULA MT
703 AM MDT SUN MAY 24 2015

Montana AWOS Reports

TWIN BRIDGES|K7S1 241255Z AUTO 01007KT 40SM 09/05 A3003 RMK AO1 T00890050
MALTA       |KM75 241255Z AUTO 00000KT 40SM 07/04 A3005 RMK AO1 T00670044






000
SXUS55 KMSO 241303
OSOMSO
MONTANA AWOS SUMMARY
NATIONAL WEATHER SERVICE MISSOULA MT
703 AM MDT SUN MAY 24 2015

Montana AWOS Reports

TWIN BRIDGES|K7S1 241255Z AUTO 01007KT 40SM 09/05 A3003 RMK AO1 T00890050
MALTA       |KM75 241255Z AUTO 00000KT 40SM 07/04 A3005 RMK AO1 T00670044






000
SXUS55 KMSO 241244
OSOMSO
MONTANA AWOS SUMMARY
NATIONAL WEATHER SERVICE MISSOULA MT
643 AM MDT SUN MAY 24 2015

Montana AWOS Reports

LAUREL      |K6S8 241235Z AUTO 00000KT 40SM 09/05 A3004 RMK AO1 T00890050
TWIN BRIDGES|K7S1 241235Z AUTO 36007KT 40SM 09/05 A3003 RMK AO1 T00890050
ROUNDUP     |KRPX 241235Z AUTO 34005KT 5SM BR 09/07 A2998 RMK AO1 T00940072






000
SXUS55 KMSO 241244
OSOMSO
MONTANA AWOS SUMMARY
NATIONAL WEATHER SERVICE MISSOULA MT
643 AM MDT SUN MAY 24 2015

Montana AWOS Reports

LAUREL      |K6S8 241235Z AUTO 00000KT 40SM 09/05 A3004 RMK AO1 T00890050
TWIN BRIDGES|K7S1 241235Z AUTO 36007KT 40SM 09/05 A3003 RMK AO1 T00890050
ROUNDUP     |KRPX 241235Z AUTO 34005KT 5SM BR 09/07 A2998 RMK AO1 T00940072






000
SXUS55 KMSO 241223
OSOMSO
MONTANA AWOS SUMMARY
NATIONAL WEATHER SERVICE MISSOULA MT
623 AM MDT SUN MAY 24 2015

Montana AWOS Reports

MALTA       |KM75 241215Z AUTO 00000KT 40SM 04/02 A3006 RMK AO1 T00440017
LAUREL      |K6S8 241215Z AUTO 00000KT 40SM 09/05 A3004 RMK AO1 T00890050
ROUNDUP     |KRPX 241215Z AUTO 00000KT 10SM 09/07 A2998 RMK AO1 T00940067






000
SXUS55 KMSO 241223
OSOMSO
MONTANA AWOS SUMMARY
NATIONAL WEATHER SERVICE MISSOULA MT
623 AM MDT SUN MAY 24 2015

Montana AWOS Reports

MALTA       |KM75 241215Z AUTO 00000KT 40SM 04/02 A3006 RMK AO1 T00440017
LAUREL      |K6S8 241215Z AUTO 00000KT 40SM 09/05 A3004 RMK AO1 T00890050
ROUNDUP     |KRPX 241215Z AUTO 00000KT 10SM 09/07 A2998 RMK AO1 T00940067






000
SXUS55 KMSO 241213
OSOMSO
MONTANA AWOS SUMMARY
NATIONAL WEATHER SERVICE MISSOULA MT
613 AM MDT SUN MAY 24 2015

Montana AWOS Reports

LAUREL      |K6S8 241155Z AUTO 00000KT 40SM 08/04 A3004 RMK AO1 T00830044
ROUNDUP     |KRPX 241155Z AUTO 00000KT 5SM BR 09/07 A2998 RMK AO1 T00940072
SCOBEY      |K9S2 241155Z AUTO 00000KT 25SM 03/M01 A3007 RMK AO1 T00331010
EKALAKA     |K97M 241155Z AUTO 06005KT 7SM 08/07 A3001 RMK AO1 T00830067






000
SXUS55 KMSO 241213
OSOMSO
MONTANA AWOS SUMMARY
NATIONAL WEATHER SERVICE MISSOULA MT
613 AM MDT SUN MAY 24 2015

Montana AWOS Reports

LAUREL      |K6S8 241155Z AUTO 00000KT 40SM 08/04 A3004 RMK AO1 T00830044
ROUNDUP     |KRPX 241155Z AUTO 00000KT 5SM BR 09/07 A2998 RMK AO1 T00940072
SCOBEY      |K9S2 241155Z AUTO 00000KT 25SM 03/M01 A3007 RMK AO1 T00331010
EKALAKA     |K97M 241155Z AUTO 06005KT 7SM 08/07 A3001 RMK AO1 T00830067






000
SXUS55 KMSO 241203
OSOMSO
MONTANA AWOS SUMMARY
NATIONAL WEATHER SERVICE MISSOULA MT
603 AM MDT SUN MAY 24 2015

Montana AWOS Reports

TWIN BRIDGES|K7S1 241155Z AUTO 36007KT 40SM 09/05 A3003 RMK AO1 T00890050
MALTA       |KM75 241155Z AUTO 00000KT 40SM 04/02 A3006 RMK AO1 T00440017






000
SXUS55 KMSO 241203
OSOMSO
MONTANA AWOS SUMMARY
NATIONAL WEATHER SERVICE MISSOULA MT
603 AM MDT SUN MAY 24 2015

Montana AWOS Reports

TWIN BRIDGES|K7S1 241155Z AUTO 36007KT 40SM 09/05 A3003 RMK AO1 T00890050
MALTA       |KM75 241155Z AUTO 00000KT 40SM 04/02 A3006 RMK AO1 T00440017






000
SXUS55 KMSO 241143
OSOMSO
MONTANA AWOS SUMMARY
NATIONAL WEATHER SERVICE MISSOULA MT
542 AM MDT SUN MAY 24 2015

Montana AWOS Reports

TWIN BRIDGES|K7S1 241135Z AUTO 16007KT 070V250 40SM 09/05 A3003 RMK AO1 T00890050
MALTA       |KM75 241135Z AUTO 00000KT 40SM 04/02 A3006 RMK AO1 T00440017
LAUREL      |K6S8 241135Z AUTO 40SM 08/04 A3003 RMK AO1 T00830044
ROUNDUP     |KRPX 241135Z AUTO 00000KT 15SM 09/07 A2998 RMK AO1 T00940072






000
SXUS55 KMSO 241143
OSOMSO
MONTANA AWOS SUMMARY
NATIONAL WEATHER SERVICE MISSOULA MT
542 AM MDT SUN MAY 24 2015

Montana AWOS Reports

TWIN BRIDGES|K7S1 241135Z AUTO 16007KT 070V250 40SM 09/05 A3003 RMK AO1 T00890050
MALTA       |KM75 241135Z AUTO 00000KT 40SM 04/02 A3006 RMK AO1 T00440017
LAUREL      |K6S8 241135Z AUTO 40SM 08/04 A3003 RMK AO1 T00830044
ROUNDUP     |KRPX 241135Z AUTO 00000KT 15SM 09/07 A2998 RMK AO1 T00940072






000
SXUS55 KMSO 241123
OSOMSO
MONTANA AWOS SUMMARY
NATIONAL WEATHER SERVICE MISSOULA MT
523 AM MDT SUN MAY 24 2015

Montana AWOS Reports

TWIN BRIDGES|K7S1 241115Z AUTO 16011G15KT 070V250 40SM 09/05 A3002 RMK AO1 T00890050
MALTA       |KM75 241115Z AUTO 00000KT 40SM 04/02 A3005 RMK AO1 T00440017
LAUREL      |K6S8 241115Z AUTO 40SM 09/05 A3003 RMK AO1 T00890050
ROUNDUP     |KRPX 241115Z AUTO 00000KT 40SM 09/07 A2998 RMK AO1 T00940072






000
SXUS55 KMSO 241113
OSOMSO
MONTANA AWOS SUMMARY
NATIONAL WEATHER SERVICE MISSOULA MT
512 AM MDT SUN MAY 24 2015

Montana AWOS Reports

SCOBEY      |K9S2 241055Z AUTO 00000KT 25SM 03/M01 A3007 RMK AO1 T00331010






000
SXUS55 KMSO 241113
OSOMSO
MONTANA AWOS SUMMARY
NATIONAL WEATHER SERVICE MISSOULA MT
512 AM MDT SUN MAY 24 2015

Montana AWOS Reports

SCOBEY      |K9S2 241055Z AUTO 00000KT 25SM 03/M01 A3007 RMK AO1 T00331010






000
SXUS55 KMSO 241103
OSOMSO
MONTANA AWOS SUMMARY
NATIONAL WEATHER SERVICE MISSOULA MT
503 AM MDT SUN MAY 24 2015

Montana AWOS Reports

TWIN BRIDGES|K7S1 241055Z AUTO 34012KT 40SM 09/05 A3002 RMK AO1 T00890050
ROUNDUP     |KRPX 241055Z AUTO 00000KT 40SM 09/07 A2998 RMK AO1 T00940067
MALTA       |KM75 241055Z AUTO 00000KT 40SM 04/02 A3006 RMK AO1 T00440017
EKALAKA     |K97M 241055Z AUTO 09004KT 15SM 08/06 A3001 RMK AO1 T00780061
TWIN BRIDGES|K7S1 241055Z AUTO 34012KT 40SM 09/05 A3002 RMK AO1 T00890050
LAUREL      |K6S8 241055Z AUTO 00000KT 40SM 09/05 A3003 RMK AO1 T00890050






000
SXUS55 KMSO 241103
OSOMSO
MONTANA AWOS SUMMARY
NATIONAL WEATHER SERVICE MISSOULA MT
503 AM MDT SUN MAY 24 2015

Montana AWOS Reports

TWIN BRIDGES|K7S1 241055Z AUTO 34012KT 40SM 09/05 A3002 RMK AO1 T00890050
ROUNDUP     |KRPX 241055Z AUTO 00000KT 40SM 09/07 A2998 RMK AO1 T00940067
MALTA       |KM75 241055Z AUTO 00000KT 40SM 04/02 A3006 RMK AO1 T00440017
EKALAKA     |K97M 241055Z AUTO 09004KT 15SM 08/06 A3001 RMK AO1 T00780061
TWIN BRIDGES|K7S1 241055Z AUTO 34012KT 40SM 09/05 A3002 RMK AO1 T00890050
LAUREL      |K6S8 241055Z AUTO 00000KT 40SM 09/05 A3003 RMK AO1 T00890050






000
SXUS55 KMSO 241053
OSOMSO
MONTANA AWOS SUMMARY
NATIONAL WEATHER SERVICE MISSOULA MT
452 AM MDT SUN MAY 24 2015

Montana AWOS Reports

LAUREL      |K6S8 241035Z AUTO 10SM 09/05 A3003 RMK AO1 T00890050
ROUNDUP     |KRPX 241035Z AUTO 00000KT 7SM 09/06 A2998 RMK AO1 T00890061






000
SXUS55 KMSO 241053
OSOMSO
MONTANA AWOS SUMMARY
NATIONAL WEATHER SERVICE MISSOULA MT
452 AM MDT SUN MAY 24 2015

Montana AWOS Reports

LAUREL      |K6S8 241035Z AUTO 10SM 09/05 A3003 RMK AO1 T00890050
ROUNDUP     |KRPX 241035Z AUTO 00000KT 7SM 09/06 A2998 RMK AO1 T00890061






000
SXUS55 KMSO 241043
OSOMSO
MONTANA AWOS SUMMARY
NATIONAL WEATHER SERVICE MISSOULA MT
442 AM MDT SUN MAY 24 2015

Montana AWOS Reports

TWIN BRIDGES|K7S1 241035Z AUTO 34010KT 40SM 09/05 A3003 RMK AO1 T00940050
MALTA       |KM75 241035Z AUTO 00000KT 40SM 05/02 A3005 RMK AO1 T00500022






000
SXUS55 KMSO 241033
OSOMSO
MONTANA AWOS SUMMARY
NATIONAL WEATHER SERVICE MISSOULA MT
433 AM MDT SUN MAY 24 2015

Montana AWOS Reports

LAUREL      |K6S8 241015Z AUTO 40SM 09/05 A3003 RMK AO1 T00890050
ROUNDUP     |KRPX 241015Z AUTO 00000KT 25SM 09/06 A2998 RMK AO1 T00890061






000
SXUS55 KMSO 241023
OSOMSO
MONTANA AWOS SUMMARY
NATIONAL WEATHER SERVICE MISSOULA MT
423 AM MDT SUN MAY 24 2015

Montana AWOS Reports

TWIN BRIDGES|K7S1 241015Z AUTO 35011G15KT 40SM 09/05 A3003 RMK AO1 T00940050
MALTA       |KM75 241015Z AUTO 00000KT 40SM 05/02 A3005 RMK AO1 T00500022






000
SXUS55 KMSO 241003
OSOMSO
MONTANA AWOS SUMMARY
NATIONAL WEATHER SERVICE MISSOULA MT
403 AM MDT SUN MAY 24 2015

Montana AWOS Reports

TWIN BRIDGES|K7S1 240955Z AUTO 34009KT 40SM 09/05 A3003 RMK AO1 T00940050
MALTA       |KM75 240955Z AUTO 00000KT 40SM 06/03 A3005 RMK AO1 T00560028
LAUREL      |K6S8 240955Z AUTO 00000KT 25SM 09/04 A3004 RMK AO1 T00890044
ROUNDUP     |KRPX 240955Z AUTO 00000KT 25SM 09/06 A2998 RMK AO1 T00890061
EKALAKA     |K97M 240955Z AUTO 00000KT 15SM 08/07 A3002 RMK AO1 T00830067
SCOBEY      |K9S2 240955Z AUTO 00000KT 25SM 04/M01 A3007 RMK AO1 T00441005






000
SXUS55 KMSO 240953
OSOMSO
MONTANA AWOS SUMMARY
NATIONAL WEATHER SERVICE MISSOULA MT
353 AM MDT SUN MAY 24 2015

Montana AWOS Reports

LAUREL      |K6S8 240935Z AUTO 34004KT 15SM 09/05 A3004 RMK AO1 T00940050
ROUNDUP     |KRPX 240935Z AUTO 00000KT 25SM 09/06 A2999 RMK AO1 T00890061






000
SXUS55 KMSO 240953
OSOMSO
MONTANA AWOS SUMMARY
NATIONAL WEATHER SERVICE MISSOULA MT
353 AM MDT SUN MAY 24 2015

Montana AWOS Reports

LAUREL      |K6S8 240935Z AUTO 34004KT 15SM 09/05 A3004 RMK AO1 T00940050
ROUNDUP     |KRPX 240935Z AUTO 00000KT 25SM 09/06 A2999 RMK AO1 T00890061






000
SXUS55 KMSO 240943
OSOMSO
MONTANA AWOS SUMMARY
NATIONAL WEATHER SERVICE MISSOULA MT
342 AM MDT SUN MAY 24 2015

Montana AWOS Reports

TWIN BRIDGES|K7S1 240935Z AUTO 34012KT 40SM 09/04 A3003 RMK AO1 T00940044
MALTA       |KM75 240935Z AUTO 00000KT 40SM 06/02 A3006 RMK AO1 T00560022






000
SXUS55 KMSO 240923
OSOMSO
MONTANA AWOS SUMMARY
NATIONAL WEATHER SERVICE MISSOULA MT
323 AM MDT SUN MAY 24 2015

Montana AWOS Reports

LAUREL      |K6S8 240915Z AUTO 34005KT 40SM 09/04 A3004 RMK AO1 T00940044
TWIN BRIDGES|K7S1 240915Z AUTO 34010KT 40SM 09/05 A3004 RMK AO1 T00940050
ROUNDUP     |KRPX 240915Z AUTO 00000KT 25SM 09/07 A2998 RMK AO1 T00940067






000
SXUS55 KMSO 240913
OSOMSO
MONTANA AWOS SUMMARY
NATIONAL WEATHER SERVICE MISSOULA MT
312 AM MDT SUN MAY 24 2015

Montana AWOS Reports

LAUREL      |K6S8 240855Z AUTO 36005KT 40SM 10/06 A3004 RMK AO1 T01000056
ROUNDUP     |KRPX 240855Z AUTO 00000KT 10SM 09/06 A2998 RMK AO1 T00940061
EKALAKA     |K97M 240855Z AUTO 08005KT 25SM 08/07 A3003 RMK AO1 T00830067
SCOBEY      |K9S2 240855Z AUTO 00000KT 25SM 04/M02 A3008 RMK AO1 T00391016






000
SXUS55 KMSO 240903
OSOMSO
MONTANA AWOS SUMMARY
NATIONAL WEATHER SERVICE MISSOULA MT
303 AM MDT SUN MAY 24 2015

Montana AWOS Reports

TWIN BRIDGES|K7S1 240855Z AUTO 34010G15KT 40SM 09/05 A3004 RMK AO1 T00940050
MALTA       |KM75 240855Z AUTO 00000KT 40SM 06/02 A3006 RMK AO1 T00560022






000
SXUS55 KMSO 240844
OSOMSO
MONTANA AWOS SUMMARY
NATIONAL WEATHER SERVICE MISSOULA MT
243 AM MDT SUN MAY 24 2015

Montana AWOS Reports

LAUREL      |K6S8 240835Z AUTO 00000KT 40SM 09/05 A3004 RMK AO1 T00940050
TWIN BRIDGES|K7S1 240835Z AUTO 34009G13KT 40SM 09/05 A3004 RMK AO1 T00940050
ROUNDUP     |KRPX 240835Z AUTO 00000KT 15SM 09/06 A2998 RMK AO1 T00890056
MALTA       |KM75 240835Z AUTO 00000KT 40SM 06/03 A3006 RMK AO1 T00610028






000
SXUS55 KMSO 240823
OSOMSO
MONTANA AWOS SUMMARY
NATIONAL WEATHER SERVICE MISSOULA MT
223 AM MDT SUN MAY 24 2015

Montana AWOS Reports

TWIN BRIDGES|K7S1 240815Z AUTO 34011KT 40SM 09/05 A3004 RMK AO1 T00940050
MALTA       |KM75 240815Z AUTO 00000KT 40SM 07/03 A3006 RMK AO1 T00670028
LAUREL      |K6S8 240815Z AUTO 00000KT 40SM 09/05 A3004 RMK AO1 T00940050
ROUNDUP     |KRPX 240815Z AUTO 00000KT 40SM 09/05 A2999 RMK AO1 T00890050






000
SXUS55 KMSO 240813
OSOMSO
MONTANA AWOS SUMMARY
NATIONAL WEATHER SERVICE MISSOULA MT
213 AM MDT SUN MAY 24 2015

Montana AWOS Reports

LAUREL      |K6S8 240755Z AUTO 00000KT 40SM 09/05 A3004 RMK AO1 T00890050
TWIN BRIDGES|K7S1 240755Z AUTO 34011G16KT 40SM 09/05 A3004 RMK AO1 T00940050
ROUNDUP     |KRPX 240755Z AUTO 00000KT 40SM 09/05 A2999 RMK AO1 T00890050
EKALAKA     |K97M 240755Z AUTO 00000KT 25SM 08/07 A3003 RMK AO1 T00830067
SCOBEY      |K9S2 240755Z AUTO 00000KT 25SM 06/M01 A3009 RMK AO1 T00561010






000
SXUS55 KMSO 240803
OSOMSO
MONTANA AWOS SUMMARY
NATIONAL WEATHER SERVICE MISSOULA MT
202 AM MDT SUN MAY 24 2015

Montana AWOS Reports

MALTA       |KM75 240755Z AUTO 00000KT 40SM 07/03 A3006 RMK AO1 T00720033






000
SXUS55 KMSO 240743
OSOMSO
MONTANA AWOS SUMMARY
NATIONAL WEATHER SERVICE MISSOULA MT
143 AM MDT SUN MAY 24 2015

Montana AWOS Reports

TWIN BRIDGES|K7S1 240735Z AUTO 35011KT 40SM 09/05 A3004 RMK AO1 T00940050
MALTA       |KM75 240735Z AUTO 00000KT 40SM 07/03 A3006 RMK AO1 T00720033
LAUREL      |K6S8 240735Z AUTO 00000KT 40SM 09/04 A3004 RMK AO1 T00890044
ROUNDUP     |KRPX 240735Z AUTO 00000KT 40SM 09/06 A3000 RMK AO1 T00940056






000
SXUS55 KMSO 240723
OSOMSO
MONTANA AWOS SUMMARY
NATIONAL WEATHER SERVICE MISSOULA MT
122 AM MDT SUN MAY 24 2015

Montana AWOS Reports

MALTA       |KM75 240715Z AUTO 00000KT 40SM 07/03 A3007 RMK AO1 T00720033
LAUREL      |K6S8 240715Z AUTO 00000KT 40SM 09/05 A3004 RMK AO1 T00940050
ROUNDUP     |KRPX 240715Z AUTO 00000KT 40SM 09/05 A3000 RMK AO1 T00890050






000
SXUS55 KMSO 240713
OSOMSO
MONTANA AWOS SUMMARY
NATIONAL WEATHER SERVICE MISSOULA MT
113 AM MDT SUN MAY 24 2015

Montana AWOS Reports

LAUREL      |K6S8 240655Z AUTO 00000KT 40SM 10/06 A3005 RMK AO1 T01000056
TWIN BRIDGES|K7S1 240655Z AUTO 34009G14KT 40SM 09/05 A3004 RMK AO1 T00940050
ROUNDUP     |KRPX 240655Z AUTO 00000KT 40SM 09/05 A3000 RMK AO1 T00940050
EKALAKA     |K97M 240655Z AUTO 13006KT 40SM 09/07 A3004 RMK AO1 T00890067
SCOBEY      |K9S2 240655Z AUTO 00000KT 25SM 07/00 A3010 RMK AO1 T00670000






000
SXUS55 KMSO 240703
OSOMSO
MONTANA AWOS SUMMARY
NATIONAL WEATHER SERVICE MISSOULA MT
102 AM MDT SUN MAY 24 2015

Montana AWOS Reports

MALTA       |KM75 240655Z AUTO 00000KT 40SM 08/03 A3006 RMK AO1 T00780033






000
SXUS55 KMSO 240703
OSOMSO
MONTANA AWOS SUMMARY
NATIONAL WEATHER SERVICE MISSOULA MT
102 AM MDT SUN MAY 24 2015

Montana AWOS Reports

MALTA       |KM75 240655Z AUTO 00000KT 40SM 08/03 A3006 RMK AO1 T00780033






000
SXUS55 KMSO 240643
OSOMSO
MONTANA AWOS SUMMARY
NATIONAL WEATHER SERVICE MISSOULA MT
1243 AM MDT SUN MAY 24 2015

Montana AWOS Reports

TWIN BRIDGES|K7S1 240635Z AUTO 34010G16KT 40SM 10/06 A3005 RMK AO1 T01000056
MALTA       |KM75 240635Z AUTO 00000KT 40SM 08/04 A3007 RMK AO1 T00830039
LAUREL      |K6S8 240635Z AUTO 00000KT 40SM 11/06 A3005 RMK AO1 T01060056
ROUNDUP     |KRPX 240635Z AUTO 00000KT 40SM 10/06 A3000 RMK AO1 T01000056






000
SXUS55 KMSO 240623
OSOMSO
MONTANA AWOS SUMMARY
NATIONAL WEATHER SERVICE MISSOULA MT
1222 AM MDT SUN MAY 24 2015

Montana AWOS Reports

LAUREL      |K6S8 240615Z AUTO 00000KT 40SM 11/06 A3005 RMK AO1 T01110061
ROUNDUP     |KRPX 240615Z AUTO 00000KT 40SM 10/06 A3001 RMK AO1 T01000056
MALTA       |KM75 240615Z AUTO 00000KT 40SM 09/04 A3007 RMK AO1 T00890039
TWIN BRIDGES|K7S1 240615Z AUTO 34012G17KT 40SM 10/06 A3005 RMK AO1 T01000056






000
SXUS55 KMSO 240603
OSOMSO
MONTANA AWOS SUMMARY
NATIONAL WEATHER SERVICE MISSOULA MT
1202 AM MDT SUN MAY 24 2015

Montana AWOS Reports

ROUNDUP     |KRPX 240555Z AUTO 00000KT 40SM 11/06 A3001 RMK AO1 T01060056
LAUREL      |K6S8 240555Z AUTO 36004KT 40SM 11/06 A3005 RMK AO1 T01110061
TWIN BRIDGES|K7S1 240555Z AUTO 34013G19KT 40SM 10/06 A3004 RMK AO1 T01000056
MALTA       |KM75 240555Z AUTO 00000KT 40SM 10/04 A3007 RMK AO1 T01000044
SCOBEY      |K9S2 240555Z AUTO 00000KT 25SM 09/M01 A3010 RMK AO1 T00941005
EKALAKA     |K97M 240555Z AUTO 11004KT 40SM 09/07 A3004 RMK AO1 T00940067






000
SXUS55 KMSO 240603
OSOMSO
MONTANA AWOS SUMMARY
NATIONAL WEATHER SERVICE MISSOULA MT
1202 AM MDT SUN MAY 24 2015

Montana AWOS Reports

ROUNDUP     |KRPX 240555Z AUTO 00000KT 40SM 11/06 A3001 RMK AO1 T01060056
LAUREL      |K6S8 240555Z AUTO 36004KT 40SM 11/06 A3005 RMK AO1 T01110061
TWIN BRIDGES|K7S1 240555Z AUTO 34013G19KT 40SM 10/06 A3004 RMK AO1 T01000056
MALTA       |KM75 240555Z AUTO 00000KT 40SM 10/04 A3007 RMK AO1 T01000044
SCOBEY      |K9S2 240555Z AUTO 00000KT 25SM 09/M01 A3010 RMK AO1 T00941005
EKALAKA     |K97M 240555Z AUTO 11004KT 40SM 09/07 A3004 RMK AO1 T00940067






000
SXUS55 KMSO 240543
OSOMSO
MONTANA AWOS SUMMARY
NATIONAL WEATHER SERVICE MISSOULA MT
1143 PM MDT SAT MAY 23 2015

Montana AWOS Reports

LAUREL      |K6S8 240535Z AUTO 00000KT 40SM 11/06 A3006 RMK AO1 T01110061
TWIN BRIDGES|K7S1 240535Z AUTO 34014KT 40SM 10/06 A3004 RMK AO1 T01000056
ROUNDUP     |KRPX 240535Z AUTO 00000KT 40SM 11/06 A3000 RMK AO1 T01110056
MALTA       |KM75 240535Z AUTO 00000KT 40SM 11/04 A3007 RMK AO1 T01060044






000
SXUS55 KMSO 240524
OSOMSO
MONTANA AWOS SUMMARY
NATIONAL WEATHER SERVICE MISSOULA MT
1123 PM MDT SAT MAY 23 2015

Montana AWOS Reports

LAUREL      |K6S8 240515Z AUTO 01004KT 40SM 11/06 A3006 RMK AO1 T01110061
TWIN BRIDGES|K7S1 240515Z AUTO 16014KT 070V250 40SM 10/06 A3004 RMK AO1 T01000056
ROUNDUP     |KRPX 240515Z AUTO 00000KT 40SM 12/06 A3000 RMK AO1 T01170061
MALTA       |KM75 240515Z AUTO 00000KT 40SM 11/04 A3007 RMK AO1 T01060044






000
SXUS55 KMSO 240524
OSOMSO
MONTANA AWOS SUMMARY
NATIONAL WEATHER SERVICE MISSOULA MT
1123 PM MDT SAT MAY 23 2015

Montana AWOS Reports

LAUREL      |K6S8 240515Z AUTO 01004KT 40SM 11/06 A3006 RMK AO1 T01110061
TWIN BRIDGES|K7S1 240515Z AUTO 16014KT 070V250 40SM 10/06 A3004 RMK AO1 T01000056
ROUNDUP     |KRPX 240515Z AUTO 00000KT 40SM 12/06 A3000 RMK AO1 T01170061
MALTA       |KM75 240515Z AUTO 00000KT 40SM 11/04 A3007 RMK AO1 T01060044






000
SXUS55 KMSO 240503
OSOMSO
MONTANA AWOS SUMMARY
NATIONAL WEATHER SERVICE MISSOULA MT
1103 PM MDT SAT MAY 23 2015

Montana AWOS Reports

LAUREL      |K6S8 240455Z AUTO 00000KT 40SM 11/06 A3006 RMK AO1 T01110061
TWIN BRIDGES|K7S1 240455Z AUTO 34010G18KT 40SM 10/06 A3005 RMK AO1 T01000056
ROUNDUP     |KRPX 240455Z AUTO 00000KT 40SM 12/06 A3000 RMK AO1 T01170056
MALTA       |KM75 240455Z AUTO 00000KT 40SM 12/05 A3007 RMK AO1 T01170050
SCOBEY      |K9S2 240455Z AUTO 00000KT 25SM 12/01 A3009 RMK AO1 T01170006
EKALAKA     |K97M 240455Z AUTO 08005KT 40SM 11/08 A3004 RMK AO1 T01110078






000
SXUS55 KMSO 240503
OSOMSO
MONTANA AWOS SUMMARY
NATIONAL WEATHER SERVICE MISSOULA MT
1103 PM MDT SAT MAY 23 2015

Montana AWOS Reports

LAUREL      |K6S8 240455Z AUTO 00000KT 40SM 11/06 A3006 RMK AO1 T01110061
TWIN BRIDGES|K7S1 240455Z AUTO 34010G18KT 40SM 10/06 A3005 RMK AO1 T01000056
ROUNDUP     |KRPX 240455Z AUTO 00000KT 40SM 12/06 A3000 RMK AO1 T01170056
MALTA       |KM75 240455Z AUTO 00000KT 40SM 12/05 A3007 RMK AO1 T01170050
SCOBEY      |K9S2 240455Z AUTO 00000KT 25SM 12/01 A3009 RMK AO1 T01170006
EKALAKA     |K97M 240455Z AUTO 08005KT 40SM 11/08 A3004 RMK AO1 T01110078






000
SXUS55 KMSO 240443
OSOMSO
MONTANA AWOS SUMMARY
NATIONAL WEATHER SERVICE MISSOULA MT
1043 PM MDT SAT MAY 23 2015

Montana AWOS Reports

LAUREL      |K6S8 240435Z AUTO 00000KT 40SM 11/07 A3005 RMK AO1 T01110067
TWIN BRIDGES|K7S1 240435Z AUTO 34014G19KT 40SM 10/06 A3005 RMK AO1 T01000056
ROUNDUP     |KRPX 240435Z AUTO 00000KT 40SM 12/06 A3001 RMK AO1 T01170056
MALTA       |KM75 240435Z AUTO 00000KT 40SM 12/05 A3006 RMK AO1 T01220050






000
SXUS55 KMSO 240423
OSOMSO
MONTANA AWOS SUMMARY
NATIONAL WEATHER SERVICE MISSOULA MT
1023 PM MDT SAT MAY 23 2015

Montana AWOS Reports

TWIN BRIDGES|K7S1 240415Z AUTO 34012G20KT 40SM 10/06 A3005 RMK AO1 T01000056
ROUNDUP     |KRPX 240415Z AUTO 06005KT 40SM 12/06 A3001 RMK AO1 T01220056
MALTA       |KM75 240415Z AUTO 00000KT 40SM 13/06 A3006 RMK AO1 T01280056
LAUREL      |K6S8 240415Z AUTO 00000KT 40SM 11/06 A3005 RMK AO1 T01110061






000
SXUS55 KMSO 240423
OSOMSO
MONTANA AWOS SUMMARY
NATIONAL WEATHER SERVICE MISSOULA MT
1023 PM MDT SAT MAY 23 2015

Montana AWOS Reports

TWIN BRIDGES|K7S1 240415Z AUTO 34012G20KT 40SM 10/06 A3005 RMK AO1 T01000056
ROUNDUP     |KRPX 240415Z AUTO 06005KT 40SM 12/06 A3001 RMK AO1 T01220056
MALTA       |KM75 240415Z AUTO 00000KT 40SM 13/06 A3006 RMK AO1 T01280056
LAUREL      |K6S8 240415Z AUTO 00000KT 40SM 11/06 A3005 RMK AO1 T01110061






000
SXUS55 KMSO 240413
OSOMSO
MONTANA AWOS SUMMARY
NATIONAL WEATHER SERVICE MISSOULA MT
1012 PM MDT SAT MAY 23 2015

Montana AWOS Reports

SCOBEY      |K9S2 240355Z AUTO 08004KT 25SM 12/01 A3009 RMK AO1 T01220006
EKALAKA     |K97M 240355Z AUTO 07006KT 40SM 11/08 A3004 RMK AO1 T01060078






000
SXUS55 KMSO 240403
OSOMSO
MONTANA AWOS SUMMARY
NATIONAL WEATHER SERVICE MISSOULA MT
1003 PM MDT SAT MAY 23 2015

Montana AWOS Reports

LAUREL      |K6S8 240355Z AUTO 00000KT 40SM 12/06 A3005 RMK AO1 T01170061
TWIN BRIDGES|K7S1 240355Z AUTO 34014G20KT 40SM 11/06 A3005 RMK AO1 T01060061
ROUNDUP     |KRPX 240355Z AUTO 08006KT 40SM 13/06 A3000 RMK AO1 T01280061
MALTA       |KM75 240355Z AUTO 00000KT 40SM 14/06 A3006 RMK AO1 T01390056






000
SXUS55 KMSO 240403
OSOMSO
MONTANA AWOS SUMMARY
NATIONAL WEATHER SERVICE MISSOULA MT
1003 PM MDT SAT MAY 23 2015

Montana AWOS Reports

LAUREL      |K6S8 240355Z AUTO 00000KT 40SM 12/06 A3005 RMK AO1 T01170061
TWIN BRIDGES|K7S1 240355Z AUTO 34014G20KT 40SM 11/06 A3005 RMK AO1 T01060061
ROUNDUP     |KRPX 240355Z AUTO 08006KT 40SM 13/06 A3000 RMK AO1 T01280061
MALTA       |KM75 240355Z AUTO 00000KT 40SM 14/06 A3006 RMK AO1 T01390056






000
SXUS55 KMSO 240343
OSOMSO
MONTANA AWOS SUMMARY
NATIONAL WEATHER SERVICE MISSOULA MT
942 PM MDT SAT MAY 23 2015

Montana AWOS Reports

LAUREL      |K6S8 240335Z AUTO 02004KT 40SM 12/07 A3005 RMK AO1 T01170067
TWIN BRIDGES|K7S1 240335Z AUTO 35016G20KT 40SM 11/06 A3004 RMK AO1 T01060061
ROUNDUP     |KRPX 240335Z AUTO 07007KT 40SM 13/06 A3000 RMK AO1 T01280061
MALTA       |KM75 240335Z AUTO 00000KT 40SM 14/06 A3005 RMK AO1 T01440056






000
SXUS55 KMSO 240323
OSOMSO
MONTANA AWOS SUMMARY
NATIONAL WEATHER SERVICE MISSOULA MT
923 PM MDT SAT MAY 23 2015

Montana AWOS Reports

SCOBEY      |K9S2 240255Z AUTO 08005KT 15SM 16/02 A3008 RMK AO1 T01560017
EKALAKA     |K97M 240255Z AUTO 07007KT 40SM 11/08 A3004 RMK AO1 T01060078
TWIN BRIDGES|K7S1 240315Z AUTO 16018G22KT 070V250 40SM 12/06 A3003 RMK AO1 T01170061
ROUNDUP     |KRPX 240315Z AUTO 06005KT 40SM 13/06 A2999 RMK AO1 T01330061
LAUREL      |K6S8 240315Z AUTO 04004KT 40SM 12/07 A3004 RMK AO1 T01170067
MALTA       |KM75 240315Z AUTO 00000KT 40SM 16/06 A3005 RMK AO1 T01560056






000
SXUS55 KMSO 240313
OSOMSO
MONTANA AWOS SUMMARY
NATIONAL WEATHER SERVICE MISSOULA MT
913 PM MDT SAT MAY 23 2015

Montana AWOS Reports

LAUREL      |K6S8 240255Z AUTO 00000KT 40SM 12/07 A3004 RMK AO1 T01220072






000
SXUS55 KMSO 240303
OSOMSO
MONTANA AWOS SUMMARY
NATIONAL WEATHER SERVICE MISSOULA MT
903 PM MDT SAT MAY 23 2015

Montana AWOS Reports

TWIN BRIDGES|K7S1 240255Z AUTO 34018G22KT 40SM 12/06 A3002 RMK AO1 T01220056
ROUNDUP     |KRPX 240255Z AUTO 07007KT 40SM 14/06 A2998 RMK AO1 T01390061
MALTA       |KM75 240255Z AUTO 00000KT 40SM 17/06 A3005 RMK AO1 T01720061






000
SXUS55 KMSO 240303
OSOMSO
MONTANA AWOS SUMMARY
NATIONAL WEATHER SERVICE MISSOULA MT
903 PM MDT SAT MAY 23 2015

Montana AWOS Reports

TWIN BRIDGES|K7S1 240255Z AUTO 34018G22KT 40SM 12/06 A3002 RMK AO1 T01220056
ROUNDUP     |KRPX 240255Z AUTO 07007KT 40SM 14/06 A2998 RMK AO1 T01390061
MALTA       |KM75 240255Z AUTO 00000KT 40SM 17/06 A3005 RMK AO1 T01720061






000
SXUS55 KMSO 240244
OSOMSO
MONTANA AWOS SUMMARY
NATIONAL WEATHER SERVICE MISSOULA MT
843 PM MDT SAT MAY 23 2015

Montana AWOS Reports

LAUREL      |K6S8 240235Z AUTO 06005KT 40SM 13/07 A3003 RMK AO1 T01330067






000
SXUS55 KMSO 240223
OSOMSO
MONTANA AWOS SUMMARY
NATIONAL WEATHER SERVICE MISSOULA MT
823 PM MDT SAT MAY 23 2015

Montana AWOS Reports

LAUREL      |K6S8 240215Z AUTO 00000KT 40SM 13/07 A3003 RMK AO1 T01330067
TWIN BRIDGES|K7S1 240215Z AUTO 34020KT 40SM 12/04 A3001 RMK AO1 T01220044
ROUNDUP     |KRPX 240215Z AUTO 00000KT 40SM 14/06 A2997 RMK AO1 T01440056
MALTA       |KM75 240215Z AUTO 00000KT 40SM 19/06 A3004 RMK AO1 T01940056






000
SXUS55 KMSO 240213
OSOMSO
MONTANA AWOS SUMMARY
NATIONAL WEATHER SERVICE MISSOULA MT
812 PM MDT SAT MAY 23 2015

Montana AWOS Reports

LAUREL      |K6S8 240155Z AUTO 00000KT 40SM 14/07 A3002 RMK AO1 T01390072
SCOBEY      |K9S2 240155Z AUTO 08004KT 40SM 19/02 A3008 RMK AO1 T01890022
EKALAKA     |K97M 240155Z AUTO 08006KT 40SM 11/08 A3005 RMK AO1 T01110078






000
SXUS55 KMSO 240203
OSOMSO
MONTANA AWOS SUMMARY
NATIONAL WEATHER SERVICE MISSOULA MT
803 PM MDT SAT MAY 23 2015

Montana AWOS Reports

TWIN BRIDGES|K7S1 240155Z AUTO 34019G24KT 40SM 13/04 A3000 RMK AO1 T01280044
ROUNDUP     |KRPX 240155Z AUTO 05006KT 40SM 15/05 A2997 RMK AO1 T01500050
MALTA       |KM75 240155Z AUTO 09005KT 40SM 21/05 A3004 RMK AO1 T02060050






000
SXUS55 KMSO 240143
OSOMSO
MONTANA AWOS SUMMARY
NATIONAL WEATHER SERVICE MISSOULA MT
743 PM MDT SAT MAY 23 2015

Montana AWOS Reports

LAUREL      |K6S8 240135Z AUTO 00000KT 40SM 14/07 A3002 RMK AO1 T01390067






000
SXUS55 KMSO 240123
OSOMSO
MONTANA AWOS SUMMARY
NATIONAL WEATHER SERVICE MISSOULA MT
722 PM MDT SAT MAY 23 2015

Montana AWOS Reports

TWIN BRIDGES|K7S1 240115Z AUTO 33020G25KT 40SM 13/06 A3000 RMK AO1 T01330056
ROUNDUP     |KRPX 240115Z AUTO 05007KT 40SM 16/06 A2996 RMK AO1 T01610056
LAUREL      |K6S8 240115Z AUTO 06005KT 40SM 14/07 A3002 RMK AO1 T01440072
MALTA       |KM75 240115Z AUTO 07008KT 40SM 22/04 A3003 RMK AO1 T02170044






000
SXUS55 KMSO 240113
OSOMSO
MONTANA AWOS SUMMARY
NATIONAL WEATHER SERVICE MISSOULA MT
713 PM MDT SAT MAY 23 2015

Montana AWOS Reports

SCOBEY      |K9S2 240055Z AUTO 09013KT 40SM 22/02 A3008 RMK AO1 T02170017
EKALAKA     |K97M 240055Z AUTO 06006KT 40SM 11/08 A3004 RMK AO1 T01110078
SCOBEY      |K9S2 240055Z AUTO 09013KT 40SM 22/02 A3008 RMK AO1 T02170017






000
SXUS55 KMSO 240103
OSOMSO
MONTANA AWOS SUMMARY
NATIONAL WEATHER SERVICE MISSOULA MT
702 PM MDT SAT MAY 23 2015

Montana AWOS Reports

LAUREL      |K6S8 240055Z AUTO 04006KT 40SM 14/07 A3001 RMK AO1 T01440067






000
SXUS55 KMSO 240103
OSOMSO
MONTANA AWOS SUMMARY
NATIONAL WEATHER SERVICE MISSOULA MT
702 PM MDT SAT MAY 23 2015

Montana AWOS Reports

LAUREL      |K6S8 240055Z AUTO 04006KT 40SM 14/07 A3001 RMK AO1 T01440067






000
SXUS55 KMSO 240043
OSOMSO
MONTANA AWOS SUMMARY
NATIONAL WEATHER SERVICE MISSOULA MT
643 PM MDT SAT MAY 23 2015

Montana AWOS Reports

LAUREL      |K6S8 240035Z AUTO 05005KT 40SM 14/07 A3001 RMK AO1 T01440072






000
SXUS55 KMSO 240023
OSOMSO
MONTANA AWOS SUMMARY
NATIONAL WEATHER SERVICE MISSOULA MT
622 PM MDT SAT MAY 23 2015

Montana AWOS Reports

ROUNDUP     |KRPX 240015Z AUTO 05006KT 40SM 17/04 A2995 RMK AO1 T01670044
LAUREL      |K6S8 240015Z AUTO 06007KT 40SM 15/07 A3001 RMK AO1 T01500072
TWIN BRIDGES|K7S1 240015Z AUTO 34020G29KT 40SM 14/04 A2999 RMK AO1 T01440039
MALTA       |KM75 240015Z AUTO 08008KT 40SM 22/05 A3003 RMK AO1 T02220050






000
SXUS55 KMSO 240004
OSOMSO
MONTANA AWOS SUMMARY
NATIONAL WEATHER SERVICE MISSOULA MT
603 PM MDT SAT MAY 23 2015

Montana AWOS Reports

LAUREL      |K6S8 232355Z AUTO 06008KT 40SM 16/07 A3001 RMK AO1 T01560067
TWIN BRIDGES|K7S1 232355Z AUTO 34020G26KT 310V010 40SM 15/04 A2999 RMK AO1 T01500044
MALTA       |KM75 232355Z AUTO 08012G19KT 40SM 22/04 A3003 RMK AO1 T02170044
SCOBEY      |K9S2 232355Z AUTO 09009G15KT 40SM 22/02 A3008 RMK AO1 T02170017
EKALAKA     |K97M 232355Z AUTO 08005KT 40SM 11/08 A3004 RMK AO1 T01110083






000
SXUS55 KMSO 240004
OSOMSO
MONTANA AWOS SUMMARY
NATIONAL WEATHER SERVICE MISSOULA MT
603 PM MDT SAT MAY 23 2015

Montana AWOS Reports

LAUREL      |K6S8 232355Z AUTO 06008KT 40SM 16/07 A3001 RMK AO1 T01560067
TWIN BRIDGES|K7S1 232355Z AUTO 34020G26KT 310V010 40SM 15/04 A2999 RMK AO1 T01500044
MALTA       |KM75 232355Z AUTO 08012G19KT 40SM 22/04 A3003 RMK AO1 T02170044
SCOBEY      |K9S2 232355Z AUTO 09009G15KT 40SM 22/02 A3008 RMK AO1 T02170017
EKALAKA     |K97M 232355Z AUTO 08005KT 40SM 11/08 A3004 RMK AO1 T01110083






000
SXUS55 KMSO 232353
OSOMSO
MONTANA AWOS SUMMARY
NATIONAL WEATHER SERVICE MISSOULA MT
553 PM MDT SAT MAY 23 2015

Montana AWOS Reports

LAUREL      |K6S8 232335Z AUTO 06007KT 40SM 16/06 A3001 RMK AO1 T01560061






000
SXUS55 KMSO 232353
OSOMSO
MONTANA AWOS SUMMARY
NATIONAL WEATHER SERVICE MISSOULA MT
553 PM MDT SAT MAY 23 2015

Montana AWOS Reports

LAUREL      |K6S8 232335Z AUTO 06007KT 40SM 16/06 A3001 RMK AO1 T01560061






000
SXUS55 KMSO 232343
OSOMSO
MONTANA AWOS SUMMARY
NATIONAL WEATHER SERVICE MISSOULA MT
543 PM MDT SAT MAY 23 2015

Montana AWOS Reports

TWIN BRIDGES|K7S1 232335Z AUTO 34018G25KT 40SM 15/04 A2999 RMK AO1 T01500044
ROUNDUP     |KRPX 232335Z AUTO 04010KT 40SM 18/04 A2995 RMK AO1 T01780044
MALTA       |KM75 232335Z AUTO 08013G17KT 40SM 23/04 A3002 RMK AO1 T02280044






000
SXUS55 KMSO 232343
OSOMSO
MONTANA AWOS SUMMARY
NATIONAL WEATHER SERVICE MISSOULA MT
543 PM MDT SAT MAY 23 2015

Montana AWOS Reports

TWIN BRIDGES|K7S1 232335Z AUTO 34018G25KT 40SM 15/04 A2999 RMK AO1 T01500044
ROUNDUP     |KRPX 232335Z AUTO 04010KT 40SM 18/04 A2995 RMK AO1 T01780044
MALTA       |KM75 232335Z AUTO 08013G17KT 40SM 23/04 A3002 RMK AO1 T02280044






000
SXUS55 KMSO 232323
OSOMSO
MONTANA AWOS SUMMARY
NATIONAL WEATHER SERVICE MISSOULA MT
522 PM MDT SAT MAY 23 2015

Montana AWOS Reports

TWIN BRIDGES|K7S1 232315Z AUTO 34020G24KT 40SM 16/04 A3000 RMK AO1 T01560044
ROUNDUP     |KRPX 232315Z AUTO 04009G13KT 40SM 18/04 A2994 RMK AO1 T01780039
MALTA       |KM75 232315Z AUTO 07011G21KT 40SM 23/04 A3002 RMK AO1 T02280044
LAUREL      |K6S8 232315Z AUTO 05006KT 40SM 16/06 A3000 RMK AO1 T01610056






000
SXUS55 KMSO 232323
OSOMSO
MONTANA AWOS SUMMARY
NATIONAL WEATHER SERVICE MISSOULA MT
522 PM MDT SAT MAY 23 2015

Montana AWOS Reports

TWIN BRIDGES|K7S1 232315Z AUTO 34020G24KT 40SM 16/04 A3000 RMK AO1 T01560044
ROUNDUP     |KRPX 232315Z AUTO 04009G13KT 40SM 18/04 A2994 RMK AO1 T01780039
MALTA       |KM75 232315Z AUTO 07011G21KT 40SM 23/04 A3002 RMK AO1 T02280044
LAUREL      |K6S8 232315Z AUTO 05006KT 40SM 16/06 A3000 RMK AO1 T01610056






000
SXUS55 KMSO 232303
OSOMSO
MONTANA AWOS SUMMARY
NATIONAL WEATHER SERVICE MISSOULA MT
503 PM MDT SAT MAY 23 2015

Montana AWOS Reports

LAUREL      |K6S8 232255Z AUTO 05004KT 40SM 16/06 A3000 RMK AO1 T01610056
SCOBEY      |K9S2 232255Z AUTO 10012G16KT 40SM 22/02 A3008 RMK AO1 T02170017
EKALAKA     |K97M 232255Z AUTO 08007KT 40SM 11/08 A3004 RMK AO1 T01060078
PLAINS      |KS34 232255Z AUTO 04013G22KT 15SM 27/04 A2999 RMK AO1 T02670039






000
SXUS55 KMSO 232303
OSOMSO
MONTANA AWOS SUMMARY
NATIONAL WEATHER SERVICE MISSOULA MT
503 PM MDT SAT MAY 23 2015

Montana AWOS Reports

LAUREL      |K6S8 232255Z AUTO 05004KT 40SM 16/06 A3000 RMK AO1 T01610056
SCOBEY      |K9S2 232255Z AUTO 10012G16KT 40SM 22/02 A3008 RMK AO1 T02170017
EKALAKA     |K97M 232255Z AUTO 08007KT 40SM 11/08 A3004 RMK AO1 T01060078
PLAINS      |KS34 232255Z AUTO 04013G22KT 15SM 27/04 A2999 RMK AO1 T02670039






000
SXUS55 KMSO 232243
OSOMSO
MONTANA AWOS SUMMARY
NATIONAL WEATHER SERVICE MISSOULA MT
443 PM MDT SAT MAY 23 2015

Montana AWOS Reports

LAUREL      |K6S8 232235Z AUTO 05005KT 40SM 17/05 A3000 RMK AO1 T01670050
TWIN BRIDGES|K7S1 232235Z AUTO 33021G28KT 300V360 40SM 17/04 A2999 RMK AO1 T01670044
MALTA       |KM75 232235Z AUTO 06012G21KT 40SM 23/04 A3002 RMK AO1 T02330039






000
SXUS55 KMSO 232223
OSOMSO
MONTANA AWOS SUMMARY
NATIONAL WEATHER SERVICE MISSOULA MT
423 PM MDT SAT MAY 23 2015

Montana AWOS Reports

LAUREL      |K6S8 232215Z AUTO 04006KT 40SM 17/04 A3000 RMK AO1 T01670044
TWIN BRIDGES|K7S1 232215Z AUTO 35023G31KT 320V020 40SM 17/04 A2997 RMK AO1 T01720044
ROUNDUP     |KRPX 232215Z AUTO 03011KT 40SM 18/03 A2994 RMK AO1 T01830033
MALTA       |KM75 232215Z AUTO 08014G22KT 40SM 23/04 A3002 RMK AO1 T02330044






000
SXUS55 KMSO 232223
OSOMSO
MONTANA AWOS SUMMARY
NATIONAL WEATHER SERVICE MISSOULA MT
423 PM MDT SAT MAY 23 2015

Montana AWOS Reports

LAUREL      |K6S8 232215Z AUTO 04006KT 40SM 17/04 A3000 RMK AO1 T01670044
TWIN BRIDGES|K7S1 232215Z AUTO 35023G31KT 320V020 40SM 17/04 A2997 RMK AO1 T01720044
ROUNDUP     |KRPX 232215Z AUTO 03011KT 40SM 18/03 A2994 RMK AO1 T01830033
MALTA       |KM75 232215Z AUTO 08014G22KT 40SM 23/04 A3002 RMK AO1 T02330044






000
SXUS55 KMSO 232203
OSOMSO
MONTANA AWOS SUMMARY
NATIONAL WEATHER SERVICE MISSOULA MT
403 PM MDT SAT MAY 23 2015

Montana AWOS Reports

LAUREL      |K6S8 232155Z AUTO 02005KT 40SM 17/04 A3000 RMK AO1 T01670044
MALTA       |KM75 232155Z AUTO 08010G17KT 40SM 23/06 A3003 RMK AO1 T02330061
SCOBEY      |K9S2 232155Z AUTO 09011G20KT 40SM 23/02 A3009 RMK AO1 T02280017
EKALAKA     |K97M 232155Z AUTO 09007KT 40SM 11/08 A3005 RMK AO1 T01060083
PLAINS      |KS34 232155Z AUTO 04008KT 40SM 24/03 A3001 RMK AO1 T02440033






000
SXUS55 KMSO 232203
OSOMSO
MONTANA AWOS SUMMARY
NATIONAL WEATHER SERVICE MISSOULA MT
403 PM MDT SAT MAY 23 2015

Montana AWOS Reports

LAUREL      |K6S8 232155Z AUTO 02005KT 40SM 17/04 A3000 RMK AO1 T01670044
MALTA       |KM75 232155Z AUTO 08010G17KT 40SM 23/06 A3003 RMK AO1 T02330061
SCOBEY      |K9S2 232155Z AUTO 09011G20KT 40SM 23/02 A3009 RMK AO1 T02280017
EKALAKA     |K97M 232155Z AUTO 09007KT 40SM 11/08 A3005 RMK AO1 T01060083
PLAINS      |KS34 232155Z AUTO 04008KT 40SM 24/03 A3001 RMK AO1 T02440033






000
SXUS55 KMSO 232143
OSOMSO
MONTANA AWOS SUMMARY
NATIONAL WEATHER SERVICE MISSOULA MT
343 PM MDT SAT MAY 23 2015

Montana AWOS Reports

LAUREL      |K6S8 232135Z AUTO 05007KT 40SM 17/04 A3000 RMK AO1 T01670044
TWIN BRIDGES|K7S1 232135Z AUTO 34021G30KT 310V010 40SM 17/05 A2998 RMK AO1 T01720050
MALTA       |KM75 232135Z AUTO 08012G18KT 40SM 23/06 A3003 RMK AO1 T02280056






000
SXUS55 KMSO 232123
OSOMSO
MONTANA AWOS SUMMARY
NATIONAL WEATHER SERVICE MISSOULA MT
323 PM MDT SAT MAY 23 2015

Montana AWOS Reports

LAUREL      |K6S8 232115Z AUTO 02006KT 40SM 17/05 A3000 RMK AO1 T01720050
TWIN BRIDGES|K7S1 232115Z AUTO 33022G28KT 40SM 17/05 A2999 RMK AO1 T01720050
ROUNDUP     |KRPX 232115Z AUTO 05010G17KT 40SM 19/02 A2993 RMK AO1 T01890022
MALTA       |KM75 232115Z AUTO 09012G21KT 40SM 23/04 A3003 RMK AO1 T02280044






000
SXUS55 KMSO 232113
OSOMSO
MONTANA AWOS SUMMARY
NATIONAL WEATHER SERVICE MISSOULA MT
313 PM MDT SAT MAY 23 2015

Montana AWOS Reports

PLAINS      |KS34 232055Z AUTO 03012G18KT 25SM 27/03 A3001 RMK AO1 T02720033






000
SXUS55 KMSO 232103
OSOMSO
MONTANA AWOS SUMMARY
NATIONAL WEATHER SERVICE MISSOULA MT
302 PM MDT SAT MAY 23 2015

Montana AWOS Reports

LAUREL      |K6S8 232055Z AUTO 02005KT 40SM 17/06 A3000 RMK AO1 T01720056
TWIN BRIDGES|K7S1 232055Z AUTO 34021G26KT 310V010 40SM 17/04 A2999 RMK AO1 T01670044
ROUNDUP     |KRPX 232055Z AUTO 03010G14KT 40SM 19/02 A2993 RMK AO1 T01940022
MALTA       |KM75 232055Z AUTO 07012G20KT 40SM 23/04 A3003 RMK AO1 T02280044
SCOBEY      |K9S2 232055Z AUTO 10017G21KT 40SM 23/03 A3009 RMK AO1 T02330028
EKALAKA     |K97M 232055Z AUTO 08007KT 40SM 09/07 A3006 RMK AO1 T00940072






000
SXUS55 KMSO 232103
OSOMSO
MONTANA AWOS SUMMARY
NATIONAL WEATHER SERVICE MISSOULA MT
302 PM MDT SAT MAY 23 2015

Montana AWOS Reports

LAUREL      |K6S8 232055Z AUTO 02005KT 40SM 17/06 A3000 RMK AO1 T01720056
TWIN BRIDGES|K7S1 232055Z AUTO 34021G26KT 310V010 40SM 17/04 A2999 RMK AO1 T01670044
ROUNDUP     |KRPX 232055Z AUTO 03010G14KT 40SM 19/02 A2993 RMK AO1 T01940022
MALTA       |KM75 232055Z AUTO 07012G20KT 40SM 23/04 A3003 RMK AO1 T02280044
SCOBEY      |K9S2 232055Z AUTO 10017G21KT 40SM 23/03 A3009 RMK AO1 T02330028
EKALAKA     |K97M 232055Z AUTO 08007KT 40SM 09/07 A3006 RMK AO1 T00940072






000
SXUS55 KMSO 232043
OSOMSO
MONTANA AWOS SUMMARY
NATIONAL WEATHER SERVICE MISSOULA MT
243 PM MDT SAT MAY 23 2015

Montana AWOS Reports

LAUREL      |K6S8 232035Z AUTO 02005KT 40SM 17/05 A3000 RMK AO1 T01670050
TWIN BRIDGES|K7S1 232035Z AUTO 34020G27KT 40SM 16/05 A2999 RMK AO1 T01610050
ROUNDUP     |KRPX 232035Z AUTO 04006KT 40SM 19/01 A2994 RMK AO1 T01890011
MALTA       |KM75 232035Z AUTO 06011G21KT 40SM 22/04 A3003 RMK AO1 T02220044






000
SXUS55 KMSO 232023
OSOMSO
MONTANA AWOS SUMMARY
NATIONAL WEATHER SERVICE MISSOULA MT
222 PM MDT SAT MAY 23 2015

Montana AWOS Reports

TWIN BRIDGES|K7S1 232015Z AUTO 34022G26KT 290V030 40SM 17/05 A2998 RMK AO1 T01670050
ROUNDUP     |KRPX 232015Z AUTO 05009G19KT 40SM 19/04 A2993 RMK AO1 T01940039
MALTA       |KM75 232015Z AUTO 05010G21KT 40SM 21/05 A3003 RMK AO1 T02110050
LAUREL      |K6S8 232015Z AUTO 04004KT 40SM 16/06 A3000 RMK AO1 T01610056






000
SXUS55 KMSO 232023
OSOMSO
MONTANA AWOS SUMMARY
NATIONAL WEATHER SERVICE MISSOULA MT
222 PM MDT SAT MAY 23 2015

Montana AWOS Reports

TWIN BRIDGES|K7S1 232015Z AUTO 34022G26KT 290V030 40SM 17/05 A2998 RMK AO1 T01670050
ROUNDUP     |KRPX 232015Z AUTO 05009G19KT 40SM 19/04 A2993 RMK AO1 T01940039
MALTA       |KM75 232015Z AUTO 05010G21KT 40SM 21/05 A3003 RMK AO1 T02110050
LAUREL      |K6S8 232015Z AUTO 04004KT 40SM 16/06 A3000 RMK AO1 T01610056






000
SXUS55 KMSO 232013
OSOMSO
MONTANA AWOS SUMMARY
NATIONAL WEATHER SERVICE MISSOULA MT
213 PM MDT SAT MAY 23 2015

Montana AWOS Reports

LAUREL      |K6S8 231955Z AUTO 02006KT 40SM 16/06 A3000 RMK AO1 T01610056
PLAINS      |KS34 231955Z AUTO 05012G17KT 15SM 27/03 A3000 RMK AO1 T02720033






000
SXUS55 KMSO 232003
OSOMSO
MONTANA AWOS SUMMARY
NATIONAL WEATHER SERVICE MISSOULA MT
202 PM MDT SAT MAY 23 2015

Montana AWOS Reports

TWIN BRIDGES|K7S1 231955Z AUTO 34020G29KT 40SM 16/05 A2999 RMK AO1 T01610050
ROUNDUP     |KRPX 231955Z AUTO 01009G14KT 40SM 18/04 A2994 RMK AO1 T01830039
MALTA       |KM75 231955Z AUTO 06009G15KT 40SM 21/05 A3004 RMK AO1 T02060050
SCOBEY      |K9S2 231955Z AUTO 07014G20KT 40SM 23/03 A3010 RMK AO1 T02280028
EKALAKA     |K97M 231955Z AUTO 10011KT 7SM 09/07 A3005 RMK AO1 T00890067






000
SXUS55 KMSO 231943
OSOMSO
MONTANA AWOS SUMMARY
NATIONAL WEATHER SERVICE MISSOULA MT
143 PM MDT SAT MAY 23 2015

Montana AWOS Reports

LAUREL      |K6S8 231935Z AUTO 01008KT 40SM 16/06 A2999 RMK AO1 T01610056






000
SXUS55 KMSO 231943
OSOMSO
MONTANA AWOS SUMMARY
NATIONAL WEATHER SERVICE MISSOULA MT
143 PM MDT SAT MAY 23 2015

Montana AWOS Reports

LAUREL      |K6S8 231935Z AUTO 01008KT 40SM 16/06 A2999 RMK AO1 T01610056






000
SXUS55 KMSO 231923
OSOMSO
MONTANA AWOS SUMMARY
NATIONAL WEATHER SERVICE MISSOULA MT
123 PM MDT SAT MAY 23 2015

Montana AWOS Reports

TWIN BRIDGES|K7S1 231915Z AUTO 34019G28KT 310V010 40SM 16/05 A2998 RMK AO1 T01610050
ROUNDUP     |KRPX 231915Z AUTO 02008KT 350V050 40SM 17/06 A2994 RMK AO1 T01720061
LAUREL      |K6S8 231915Z AUTO 03007KT 40SM 16/06 A3000 RMK AO1 T01610056
MALTA       |KM75 231915Z AUTO 07013G17KT 40SM 20/06 A3004 RMK AO1 T02000061






000
SXUS55 KMSO 231903
OSOMSO
MONTANA AWOS SUMMARY
NATIONAL WEATHER SERVICE MISSOULA MT
103 PM MDT SAT MAY 23 2015

Montana AWOS Reports

LAUREL      |K6S8 231855Z AUTO 03007KT 40SM 16/06 A3000 RMK AO1 T01610056
MALTA       |KM75 231855Z AUTO 07014G18KT 40SM 19/04 A3004 RMK AO1 T01940044
EKALAKA     |K97M 231855Z AUTO 10009G16KT 7SM 10/07 A3005 RMK AO1 T01000072






000
SXUS55 KMSO 231853
OSOMSO
MONTANA AWOS SUMMARY
NATIONAL WEATHER SERVICE MISSOULA MT
1253 PM MDT SAT MAY 23 2015

Montana AWOS Reports

LAUREL      |K6S8 231835Z AUTO 00000KT 40SM 17/06 A2999 RMK AO1 T01670061






000
SXUS55 KMSO 231843
OSOMSO
MONTANA AWOS SUMMARY
NATIONAL WEATHER SERVICE MISSOULA MT
1242 PM MDT SAT MAY 23 2015

Montana AWOS Reports

TWIN BRIDGES|K7S1 231835Z AUTO 34019G26KT 40SM 16/04 A2999 RMK AO1 T01610044
ROUNDUP     |KRPX 231835Z AUTO 03008KT 360V060 40SM 17/06 A2994 RMK AO1 T01720056
MALTA       |KM75 231835Z AUTO 06011G17KT 40SM 19/06 A3005 RMK AO1 T01940056






000
SXUS55 KMSO 231843
OSOMSO
MONTANA AWOS SUMMARY
NATIONAL WEATHER SERVICE MISSOULA MT
1242 PM MDT SAT MAY 23 2015

Montana AWOS Reports

TWIN BRIDGES|K7S1 231835Z AUTO 34019G26KT 40SM 16/04 A2999 RMK AO1 T01610044
ROUNDUP     |KRPX 231835Z AUTO 03008KT 360V060 40SM 17/06 A2994 RMK AO1 T01720056
MALTA       |KM75 231835Z AUTO 06011G17KT 40SM 19/06 A3005 RMK AO1 T01940056






000
SXUS55 KMSO 231823
OSOMSO
MONTANA AWOS SUMMARY
NATIONAL WEATHER SERVICE MISSOULA MT
1223 PM MDT SAT MAY 23 2015

Montana AWOS Reports

TWIN BRIDGES|K7S1 231815Z AUTO 34019G24KT 40SM 16/04 A2999 RMK AO1 T01610044
ROUNDUP     |KRPX 231815Z AUTO 01008KT 40SM 18/06 A2994 RMK AO1 T01780061
MALTA       |KM75 231815Z AUTO 07012G19KT 40SM 19/05 A3004 RMK AO1 T01890050
LAUREL      |K6S8 231815Z AUTO 07006KT 40SM 16/06 A2999 RMK AO1 T01610061






000
SXUS55 KMSO 231813
OSOMSO
MONTANA AWOS SUMMARY
NATIONAL WEATHER SERVICE MISSOULA MT
1212 PM MDT SAT MAY 23 2015

Montana AWOS Reports

PLAINS      |KS34 231755Z AUTO 05009G16KT 25SM 25/03 A3000 RMK AO1 T02500033
PLAINS      |KS34 231755Z AUTO 05009G16KT 25SM 25/03 A3000 RMK AO1 T02500033






000
SXUS55 KMSO 231804
OSOMSO
MONTANA AWOS SUMMARY
NATIONAL WEATHER SERVICE MISSOULA MT
1203 PM MDT SAT MAY 23 2015

Montana AWOS Reports

LAUREL      |K6S8 231755Z AUTO 05007KT 40SM 16/06 A3000 RMK AO1 T01610061
SCOBEY      |K9S2 231755Z AUTO 11016G21KT 40SM 22/02 A3010 RMK AO1 T02170022
EKALAKA     |K97M 231755Z AUTO 10011G16KT 10SM 11/08 A3004 RMK AO1 T01060078






000
SXUS55 KMSO 231743
OSOMSO
MONTANA AWOS SUMMARY
NATIONAL WEATHER SERVICE MISSOULA MT
1142 AM MDT SAT MAY 23 2015

Montana AWOS Reports

LAUREL      |K6S8 231735Z AUTO 05006KT 40SM 16/06 A2999 RMK AO1 T01610061
MALTA       |KM75 231735Z AUTO 05013G17KT 40SM 18/05 A3005 RMK AO1 T01830050






000
SXUS55 KMSO 231743
OSOMSO
MONTANA AWOS SUMMARY
NATIONAL WEATHER SERVICE MISSOULA MT
1142 AM MDT SAT MAY 23 2015

Montana AWOS Reports

LAUREL      |K6S8 231735Z AUTO 05006KT 40SM 16/06 A2999 RMK AO1 T01610061
MALTA       |KM75 231735Z AUTO 05013G17KT 40SM 18/05 A3005 RMK AO1 T01830050






000
SXUS55 KMSO 231723
OSOMSO
MONTANA AWOS SUMMARY
NATIONAL WEATHER SERVICE MISSOULA MT
1123 AM MDT SAT MAY 23 2015

Montana AWOS Reports

LAUREL      |K6S8 231715Z AUTO 04006KT 40SM 16/07 A3000 RMK AO1 T01610067
TWIN BRIDGES|K7S1 231715Z AUTO 34018G24KT 40SM 16/04 A2999 RMK AO1 T01610044
ROUNDUP     |KRPX 231715Z AUTO 03007KT 40SM 16/07 A2994 RMK AO1 T01560067
MALTA       |KM75 231715Z AUTO 07013G18KT 40SM 18/06 A3004 RMK AO1 T01830056






000
SXUS55 KMSO 231713
OSOMSO
MONTANA AWOS SUMMARY
NATIONAL WEATHER SERVICE MISSOULA MT
1113 AM MDT SAT MAY 23 2015

Montana AWOS Reports

PLAINS      |KS34 231655Z AUTO 00000KT 25SM 22/05 A3000 RMK AO1 T02170050
SCOBEY      |K9S2 231655Z AUTO 10011G20KT 40SM 21/02 A3010 RMK AO1 T02060022






000
SXUS55 KMSO 231713
OSOMSO
MONTANA AWOS SUMMARY
NATIONAL WEATHER SERVICE MISSOULA MT
1113 AM MDT SAT MAY 23 2015

Montana AWOS Reports

PLAINS      |KS34 231655Z AUTO 00000KT 25SM 22/05 A3000 RMK AO1 T02170050
SCOBEY      |K9S2 231655Z AUTO 10011G20KT 40SM 21/02 A3010 RMK AO1 T02060022






000
SXUS55 KMSO 231703
OSOMSO
MONTANA AWOS SUMMARY
NATIONAL WEATHER SERVICE MISSOULA MT
1103 AM MDT SAT MAY 23 2015

Montana AWOS Reports

LAUREL      |K6S8 231655Z AUTO 04005KT 40SM 15/07 A2999 RMK AO1 T01500067
TWIN BRIDGES|K7S1 231655Z AUTO 34017G23KT 40SM 17/04 A2998 RMK AO1 T01670044
ROUNDUP     |KRPX 231655Z AUTO 02009G14KT 40SM 16/07 A2994 RMK AO1 T01560072
MALTA       |KM75 231655Z AUTO 07015G19KT 40SM 18/05 A3004 RMK AO1 T01830050






000
SXUS55 KMSO 231644
OSOMSO
MONTANA AWOS SUMMARY
NATIONAL WEATHER SERVICE MISSOULA MT
1043 AM MDT SAT MAY 23 2015

Montana AWOS Reports

LAUREL      |K6S8 231635Z AUTO 04006KT 40SM 14/06 A2999 RMK AO1 T01440061






000
SXUS55 KMSO 231633
OSOMSO
MONTANA AWOS SUMMARY
NATIONAL WEATHER SERVICE MISSOULA MT
1033 AM MDT SAT MAY 23 2015

Montana AWOS Reports

SCOBEY      |K9S2 231555Z AUTO 09012G19KT 40SM 19/02 A3010 RMK AO1 T01940022
EKALAKA     |K97M 231555Z AUTO 10013G18KT 40SM 10/06 A3002 RMK AO1 T01000061






000
SXUS55 KMSO 231623
OSOMSO
MONTANA AWOS SUMMARY
NATIONAL WEATHER SERVICE MISSOULA MT
1023 AM MDT SAT MAY 23 2015

Montana AWOS Reports

TWIN BRIDGES|K7S1 231615Z AUTO 34018KT 40SM 16/04 A2998 RMK AO1 T01560044
ROUNDUP     |KRPX 231615Z AUTO 34007KT 40SM 14/07 A2994 RMK AO1 T01390072
LAUREL      |K6S8 231615Z AUTO 02007KT 40SM 15/07 A2999 RMK AO1 T01500067
MALTA       |KM75 231615Z AUTO 06012KT 40SM 17/06 A3004 RMK AO1 T01670056






000
SXUS55 KMSO 231603
OSOMSO
MONTANA AWOS SUMMARY
NATIONAL WEATHER SERVICE MISSOULA MT
1003 AM MDT SAT MAY 23 2015

Montana AWOS Reports

LAUREL      |K6S8 231555Z AUTO 04007KT 40SM 14/07 A2999 RMK AO1 T01440067
TWIN BRIDGES|K7S1 231555Z AUTO 35017G21KT 40SM 15/05 A2998 RMK AO1 T01500050
MALTA       |KM75 231555Z AUTO 05012KT 40SM 17/07 A3004 RMK AO1 T01670067






000
SXUS55 KMSO 231553
OSOMSO
MONTANA AWOS SUMMARY
NATIONAL WEATHER SERVICE MISSOULA MT
952 AM MDT SAT MAY 23 2015

Montana AWOS Reports

LAUREL      |K6S8 231535Z AUTO 02007KT 40SM 14/06 A2999 RMK AO1 T01390061






000
SXUS55 KMSO 231543
OSOMSO
MONTANA AWOS SUMMARY
NATIONAL WEATHER SERVICE MISSOULA MT
943 AM MDT SAT MAY 23 2015

Montana AWOS Reports

TWIN BRIDGES|K7S1 231535Z AUTO 34017G21KT 40SM 15/05 A2998 RMK AO1 T01500050
ROUNDUP     |KRPX 231535Z AUTO 02006KT 40SM 13/07 A2994 RMK AO1 T01330067
MALTA       |KM75 231535Z AUTO 06008KT 40SM 16/07 A3003 RMK AO1 T01610072






000
SXUS55 KMSO 231523
OSOMSO
MONTANA AWOS SUMMARY
NATIONAL WEATHER SERVICE MISSOULA MT
923 AM MDT SAT MAY 23 2015

Montana AWOS Reports

LAUREL      |K6S8 231515Z AUTO 00000KT 40SM 13/06 A2998 RMK AO1 T01280061






000
SXUS55 KMSO 231513
OSOMSO
MONTANA AWOS SUMMARY
NATIONAL WEATHER SERVICE MISSOULA MT
913 AM MDT SAT MAY 23 2015

Montana AWOS Reports

LAUREL      |K6S8 231455Z AUTO 01004KT 40SM 13/06 A2998 RMK AO1 T01280061
EKALAKA     |K97M 231455Z AUTO 11013G18KT 40SM 08/06 A3002 RMK AO1 T00830056






000
SXUS55 KMSO 231513
OSOMSO
MONTANA AWOS SUMMARY
NATIONAL WEATHER SERVICE MISSOULA MT
913 AM MDT SAT MAY 23 2015

Montana AWOS Reports

LAUREL      |K6S8 231455Z AUTO 01004KT 40SM 13/06 A2998 RMK AO1 T01280061
EKALAKA     |K97M 231455Z AUTO 11013G18KT 40SM 08/06 A3002 RMK AO1 T00830056






000
SXUS55 KMSO 231503
OSOMSO
MONTANA AWOS SUMMARY
NATIONAL WEATHER SERVICE MISSOULA MT
902 AM MDT SAT MAY 23 2015

Montana AWOS Reports

TWIN BRIDGES|K7S1 231455Z AUTO 34015G20KT 40SM 14/04 A2998 RMK AO1 T01390044
ROUNDUP     |KRPX 231455Z AUTO 00000KT 40SM 12/07 A2993 RMK AO1 T01220067
MALTA       |KM75 231455Z AUTO 05007KT 40SM 16/07 A3003 RMK AO1 T01560072
SCOBEY      |K9S2 231455Z AUTO 09014G21KT 40SM 18/02 A3009 RMK AO1 T01830017






000
SXUS55 KMSO 231503
OSOMSO
MONTANA AWOS SUMMARY
NATIONAL WEATHER SERVICE MISSOULA MT
902 AM MDT SAT MAY 23 2015

Montana AWOS Reports

TWIN BRIDGES|K7S1 231455Z AUTO 34015G20KT 40SM 14/04 A2998 RMK AO1 T01390044
ROUNDUP     |KRPX 231455Z AUTO 00000KT 40SM 12/07 A2993 RMK AO1 T01220067
MALTA       |KM75 231455Z AUTO 05007KT 40SM 16/07 A3003 RMK AO1 T01560072
SCOBEY      |K9S2 231455Z AUTO 09014G21KT 40SM 18/02 A3009 RMK AO1 T01830017






000
SXUS55 KMSO 231443
OSOMSO
MONTANA AWOS SUMMARY
NATIONAL WEATHER SERVICE MISSOULA MT
843 AM MDT SAT MAY 23 2015

Montana AWOS Reports

LAUREL      |K6S8 231435Z AUTO 02004KT 40SM 13/06 A2998 RMK AO1 T01280061






000
SXUS55 KMSO 231443
OSOMSO
MONTANA AWOS SUMMARY
NATIONAL WEATHER SERVICE MISSOULA MT
843 AM MDT SAT MAY 23 2015

Montana AWOS Reports

LAUREL      |K6S8 231435Z AUTO 02004KT 40SM 13/06 A2998 RMK AO1 T01280061






000
SXUS55 KMSO 231423
OSOMSO
MONTANA AWOS SUMMARY
NATIONAL WEATHER SERVICE MISSOULA MT
822 AM MDT SAT MAY 23 2015

Montana AWOS Reports

ROUNDUP     |KRPX 231415Z AUTO 02004KT 40SM 12/07 A2993 RMK AO1 T01170072
LAUREL      |K6S8 231415Z AUTO 00000KT 40SM 12/06 A2998 RMK AO1 T01170061
TWIN BRIDGES|K7S1 231415Z AUTO 34014G20KT 40SM 12/05 A2997 RMK AO1 T01220050
MALTA       |KM75 231415Z AUTO 04006KT 40SM 13/07 A3003 RMK AO1 T01330067






000
SXUS55 KMSO 231423
OSOMSO
MONTANA AWOS SUMMARY
NATIONAL WEATHER SERVICE MISSOULA MT
822 AM MDT SAT MAY 23 2015

Montana AWOS Reports

ROUNDUP     |KRPX 231415Z AUTO 02004KT 40SM 12/07 A2993 RMK AO1 T01170072
LAUREL      |K6S8 231415Z AUTO 00000KT 40SM 12/06 A2998 RMK AO1 T01170061
TWIN BRIDGES|K7S1 231415Z AUTO 34014G20KT 40SM 12/05 A2997 RMK AO1 T01220050
MALTA       |KM75 231415Z AUTO 04006KT 40SM 13/07 A3003 RMK AO1 T01330067






000
SXUS55 KMSO 231404
OSOMSO
MONTANA AWOS SUMMARY
NATIONAL WEATHER SERVICE MISSOULA MT
803 AM MDT SAT MAY 23 2015

Montana AWOS Reports

LAUREL      |K6S8 231355Z AUTO 00000KT 40SM 11/06 A2998 RMK AO1 T01110056
MALTA       |KM75 231355Z AUTO 03007KT 40SM 14/07 A3002 RMK AO1 T01390067
SCOBEY      |K9S2 231355Z AUTO 08010KT 40SM 14/03 A3009 RMK AO1 T01440028
EKALAKA     |K97M 231355Z AUTO 10010G14KT 40SM 07/05 A3002 RMK AO1 T00720050






000
SXUS55 KMSO 231343
OSOMSO
MONTANA AWOS SUMMARY
NATIONAL WEATHER SERVICE MISSOULA MT
743 AM MDT SAT MAY 23 2015

Montana AWOS Reports

LAUREL      |K6S8 231335Z AUTO 00000KT 40SM 11/06 A2998 RMK AO1 T01060056
TWIN BRIDGES|K7S1 231335Z AUTO 34013G18KT 40SM 11/05 A2997 RMK AO1 T01110050
ROUNDUP     |KRPX 231335Z AUTO 00000KT 40SM 11/07 A2993 RMK AO1 T01110072
MALTA       |KM75 231335Z AUTO 03007KT 40SM 14/07 A3002 RMK AO1 T01440072






000
SXUS55 KMSO 231323
OSOMSO
MONTANA AWOS SUMMARY
NATIONAL WEATHER SERVICE MISSOULA MT
722 AM MDT SAT MAY 23 2015

Montana AWOS Reports

LAUREL      |K6S8 231315Z AUTO 00000KT 40SM 11/06 A2998 RMK AO1 T01060061
TWIN BRIDGES|K7S1 231315Z AUTO 35012G16KT 40SM 10/04 A2997 RMK AO1 T01000044
ROUNDUP     |KRPX 231315Z AUTO 00000KT 40SM 11/07 A2992 RMK AO1 T01060067
MALTA       |KM75 231315Z AUTO 03007KT 40SM 14/07 A3002 RMK AO1 T01390067






000
SXUS55 KMSO 231303
OSOMSO
MONTANA AWOS SUMMARY
NATIONAL WEATHER SERVICE MISSOULA MT
702 AM MDT SAT MAY 23 2015

Montana AWOS Reports

LAUREL      |K6S8 231255Z AUTO 00000KT 40SM 11/06 A2998 RMK AO1 T01060056
TWIN BRIDGES|K7S1 231255Z AUTO 35011G16KT 40SM 10/04 A2997 RMK AO1 T01000044
MALTA       |KM75 231255Z AUTO 03005KT 40SM 14/07 A3002 RMK AO1 T01390067
SCOBEY      |K9S2 231255Z AUTO 00000KT 40SM 09/01 A3009 RMK AO1 T00890011
EKALAKA     |K97M 231255Z AUTO 12008KT 40SM 06/04 A3002 RMK AO1 T00610039






000
SXUS55 KMSO 231303
OSOMSO
MONTANA AWOS SUMMARY
NATIONAL WEATHER SERVICE MISSOULA MT
702 AM MDT SAT MAY 23 2015

Montana AWOS Reports

LAUREL      |K6S8 231255Z AUTO 00000KT 40SM 11/06 A2998 RMK AO1 T01060056
TWIN BRIDGES|K7S1 231255Z AUTO 35011G16KT 40SM 10/04 A2997 RMK AO1 T01000044
MALTA       |KM75 231255Z AUTO 03005KT 40SM 14/07 A3002 RMK AO1 T01390067
SCOBEY      |K9S2 231255Z AUTO 00000KT 40SM 09/01 A3009 RMK AO1 T00890011
EKALAKA     |K97M 231255Z AUTO 12008KT 40SM 06/04 A3002 RMK AO1 T00610039






000
SXUS55 KMSO 231243
OSOMSO
MONTANA AWOS SUMMARY
NATIONAL WEATHER SERVICE MISSOULA MT
643 AM MDT SAT MAY 23 2015

Montana AWOS Reports

LAUREL      |K6S8 231235Z AUTO 00000KT 40SM 11/06 A2997 RMK AO1 T01060056
TWIN BRIDGES|K7S1 231235Z AUTO 35010G14KT 40SM 09/04 A2997 RMK AO1 T00940044
ROUNDUP     |KRPX 231235Z AUTO 00000KT 40SM 10/06 A2992 RMK AO1 T01000061
MALTA       |KM75 231235Z AUTO 03007KT 40SM 14/07 A3002 RMK AO1 T01390072






000
SXUS55 KMSO 231243
OSOMSO
MONTANA AWOS SUMMARY
NATIONAL WEATHER SERVICE MISSOULA MT
643 AM MDT SAT MAY 23 2015

Montana AWOS Reports

LAUREL      |K6S8 231235Z AUTO 00000KT 40SM 11/06 A2997 RMK AO1 T01060056
TWIN BRIDGES|K7S1 231235Z AUTO 35010G14KT 40SM 09/04 A2997 RMK AO1 T00940044
ROUNDUP     |KRPX 231235Z AUTO 00000KT 40SM 10/06 A2992 RMK AO1 T01000061
MALTA       |KM75 231235Z AUTO 03007KT 40SM 14/07 A3002 RMK AO1 T01390072






000
SXUS55 KMSO 231223
OSOMSO
MONTANA AWOS SUMMARY
NATIONAL WEATHER SERVICE MISSOULA MT
623 AM MDT SAT MAY 23 2015

Montana AWOS Reports

TWIN BRIDGES|K7S1 231215Z AUTO 34008KT 40SM 09/04 A2997 RMK AO1 T00940044
ROUNDUP     |KRPX 231215Z AUTO 00000KT 40SM 10/06 A2992 RMK AO1 T01000061
MALTA       |KM75 231215Z AUTO 02005KT 40SM 13/07 A3001 RMK AO1 T01330072
LAUREL      |K6S8 231215Z AUTO 00000KT 40SM 11/06 A2997 RMK AO1 T01060056






000
SXUS55 KMSO 231223
OSOMSO
MONTANA AWOS SUMMARY
NATIONAL WEATHER SERVICE MISSOULA MT
623 AM MDT SAT MAY 23 2015

Montana AWOS Reports

TWIN BRIDGES|K7S1 231215Z AUTO 34008KT 40SM 09/04 A2997 RMK AO1 T00940044
ROUNDUP     |KRPX 231215Z AUTO 00000KT 40SM 10/06 A2992 RMK AO1 T01000061
MALTA       |KM75 231215Z AUTO 02005KT 40SM 13/07 A3001 RMK AO1 T01330072
LAUREL      |K6S8 231215Z AUTO 00000KT 40SM 11/06 A2997 RMK AO1 T01060056






000
SXUS55 KMSO 231213
OSOMSO
MONTANA AWOS SUMMARY
NATIONAL WEATHER SERVICE MISSOULA MT
613 AM MDT SAT MAY 23 2015

Montana AWOS Reports

EKALAKA     |K97M 231155Z AUTO 00000KT 40SM 05/03 A3002 RMK AO1 T00500033






000
SXUS55 KMSO 231213
OSOMSO
MONTANA AWOS SUMMARY
NATIONAL WEATHER SERVICE MISSOULA MT
613 AM MDT SAT MAY 23 2015

Montana AWOS Reports

EKALAKA     |K97M 231155Z AUTO 00000KT 40SM 05/03 A3002 RMK AO1 T00500033






000
SXUS55 KMSO 231203
OSOMSO
MONTANA AWOS SUMMARY
NATIONAL WEATHER SERVICE MISSOULA MT
603 AM MDT SAT MAY 23 2015

Montana AWOS Reports

LAUREL      |K6S8 231155Z AUTO 00000KT 40SM 11/06 A2996 RMK AO1 T01060056
TWIN BRIDGES|K7S1 231155Z AUTO 34007KT 40SM 10/04 A2997 RMK AO1 T01000044
ROUNDUP     |KRPX 231155Z AUTO 00000KT 40SM 10/06 A2992 RMK AO1 T01000056
MALTA       |KM75 231155Z AUTO 02005KT 40SM 13/07 A3001 RMK AO1 T01330072






000
SXUS55 KMSO 231143
OSOMSO
MONTANA AWOS SUMMARY
NATIONAL WEATHER SERVICE MISSOULA MT
543 AM MDT SAT MAY 23 2015

Montana AWOS Reports

LAUREL      |K6S8 231135Z AUTO 00000KT 40SM 11/06 A2996 RMK AO1 T01110061






000
SXUS55 KMSO 231143
OSOMSO
MONTANA AWOS SUMMARY
NATIONAL WEATHER SERVICE MISSOULA MT
543 AM MDT SAT MAY 23 2015

Montana AWOS Reports

LAUREL      |K6S8 231135Z AUTO 00000KT 40SM 11/06 A2996 RMK AO1 T01110061






000
SXUS55 KMSO 231123
OSOMSO
MONTANA AWOS SUMMARY
NATIONAL WEATHER SERVICE MISSOULA MT
523 AM MDT SAT MAY 23 2015

Montana AWOS Reports

TWIN BRIDGES|K7S1 231115Z AUTO 01004KT 40SM 09/04 A2997 RMK AO1 T00890044
ROUNDUP     |KRPX 231115Z AUTO 04004KT 40SM 11/06 A2991 RMK AO1 T01060061
MALTA       |KM75 231115Z AUTO 00000KT 40SM 13/07 A3000 RMK AO1 T01330067
LAUREL      |K6S8 231115Z AUTO 35004KT 40SM 11/06 A2996 RMK AO1 T01110061






000
SXUS55 KMSO 231113
OSOMSO
MONTANA AWOS SUMMARY
NATIONAL WEATHER SERVICE MISSOULA MT
513 AM MDT SAT MAY 23 2015

Montana AWOS Reports

LAUREL      |K6S8 231055Z AUTO 35004KT 40SM 11/06 A2996 RMK AO1 T01110061
SCOBEY      |K9S2 231055Z AUTO 00000KT 40SM 08/00 A3009 RMK AO1 T00830000
EKALAKA     |K97M 231055Z AUTO 12006KT 40SM 06/03 A3001 RMK AO1 T00560033






000
SXUS55 KMSO 231103
OSOMSO
MONTANA AWOS SUMMARY
NATIONAL WEATHER SERVICE MISSOULA MT
503 AM MDT SAT MAY 23 2015

Montana AWOS Reports

TWIN BRIDGES|K7S1 231055Z AUTO 01006KT 40SM 09/04 A2997 RMK AO1 T00890044
ROUNDUP     |KRPX 231055Z AUTO 00000KT 40SM 10/06 A2991 RMK AO1 T01000056
MALTA       |KM75 231055Z AUTO 04005KT 40SM 14/07 A2999 RMK AO1 T01390072






000
SXUS55 KMSO 231103
OSOMSO
MONTANA AWOS SUMMARY
NATIONAL WEATHER SERVICE MISSOULA MT
503 AM MDT SAT MAY 23 2015

Montana AWOS Reports

TWIN BRIDGES|K7S1 231055Z AUTO 01006KT 40SM 09/04 A2997 RMK AO1 T00890044
ROUNDUP     |KRPX 231055Z AUTO 00000KT 40SM 10/06 A2991 RMK AO1 T01000056
MALTA       |KM75 231055Z AUTO 04005KT 40SM 14/07 A2999 RMK AO1 T01390072






000
SXUS55 KMSO 231043
OSOMSO
MONTANA AWOS SUMMARY
NATIONAL WEATHER SERVICE MISSOULA MT
443 AM MDT SAT MAY 23 2015

Montana AWOS Reports

LAUREL      |K6S8 231035Z AUTO 40SM 11/06 A2995 RMK AO1 T01110061
MALTA       |KM75 231035Z AUTO 03004KT 40SM 14/07 A2999 RMK AO1 T01440072






000
SXUS55 KMSO 231043
OSOMSO
MONTANA AWOS SUMMARY
NATIONAL WEATHER SERVICE MISSOULA MT
443 AM MDT SAT MAY 23 2015

Montana AWOS Reports

LAUREL      |K6S8 231035Z AUTO 40SM 11/06 A2995 RMK AO1 T01110061
MALTA       |KM75 231035Z AUTO 03004KT 40SM 14/07 A2999 RMK AO1 T01440072






000
SXUS55 KMSO 231023
OSOMSO
MONTANA AWOS SUMMARY
NATIONAL WEATHER SERVICE MISSOULA MT
423 AM MDT SAT MAY 23 2015

Montana AWOS Reports

ROUNDUP     |KRPX 231015Z AUTO 00000KT 40SM 10/06 A2991 RMK AO1 T01000056
LAUREL      |K6S8 231015Z AUTO 00000KT 40SM 11/06 A2995 RMK AO1 T01110061
TWIN BRIDGES|K7S1 231015Z AUTO 34007KT 40SM 09/04 A2997 RMK AO1 T00940044
MALTA       |KM75 231015Z AUTO 00000KT 40SM 14/07 A2999 RMK AO1 T01440072






000
SXUS55 KMSO 231004
OSOMSO
MONTANA AWOS SUMMARY
NATIONAL WEATHER SERVICE MISSOULA MT
403 AM MDT SAT MAY 23 2015

Montana AWOS Reports

LAUREL      |K6S8 230955Z AUTO 00000KT 40SM 11/06 A2995 RMK AO1 T01060061
MALTA       |KM75 230955Z AUTO 03005KT 40SM 14/07 A2998 RMK AO1 T01440072






000
SXUS55 KMSO 230943
OSOMSO
MONTANA AWOS SUMMARY
NATIONAL WEATHER SERVICE MISSOULA MT
343 AM MDT SAT MAY 23 2015

Montana AWOS Reports

LAUREL      |K6S8 230935Z AUTO 00000KT 40SM 11/06 A2995 RMK AO1 T01060061
MALTA       |KM75 230935Z AUTO 03005KT 40SM 14/07 A2998 RMK AO1 T01440072






000
SXUS55 KMSO 230923
OSOMSO
MONTANA AWOS SUMMARY
NATIONAL WEATHER SERVICE MISSOULA MT
323 AM MDT SAT MAY 23 2015

Montana AWOS Reports

ROUNDUP     |KRPX 230915Z AUTO 00000KT 40SM 09/05 A2990 RMK AO1 T00940050
LAUREL      |K6S8 230915Z AUTO 00000KT 40SM 11/06 A2995 RMK AO1 T01060061
TWIN BRIDGES|K7S1 230915Z AUTO 34006KT 40SM 09/05 A2996 RMK AO1 T00940050
MALTA       |KM75 230915Z AUTO 03005KT 40SM 14/07 A2998 RMK AO1 T01440072






000
SXUS55 KMSO 230913
OSOMSO
MONTANA AWOS SUMMARY
NATIONAL WEATHER SERVICE MISSOULA MT
312 AM MDT SAT MAY 23 2015

Montana AWOS Reports

SCOBEY      |K9S2 230855Z AUTO 00000KT 40SM 11/00 A3007 RMK AO1 T01060000
EKALAKA     |K97M 230855Z AUTO 12005KT 40SM 06/03 A3001 RMK AO1 T00560028






000
SXUS55 KMSO 230904
OSOMSO
MONTANA AWOS SUMMARY
NATIONAL WEATHER SERVICE MISSOULA MT
303 AM MDT SAT MAY 23 2015

Montana AWOS Reports

LAUREL      |K6S8 230855Z AUTO 00000KT 40SM 11/06 A2994 RMK AO1 T01060061
ROUNDUP     |KRPX 230855Z AUTO 00000KT 40SM 11/05 A2990 RMK AO1 T01060050
MALTA       |KM75 230855Z AUTO 00000KT 40SM 14/07 A2998 RMK AO1 T01440072






000
SXUS55 KMSO 230904
OSOMSO
MONTANA AWOS SUMMARY
NATIONAL WEATHER SERVICE MISSOULA MT
303 AM MDT SAT MAY 23 2015

Montana AWOS Reports

LAUREL      |K6S8 230855Z AUTO 00000KT 40SM 11/06 A2994 RMK AO1 T01060061
ROUNDUP     |KRPX 230855Z AUTO 00000KT 40SM 11/05 A2990 RMK AO1 T01060050
MALTA       |KM75 230855Z AUTO 00000KT 40SM 14/07 A2998 RMK AO1 T01440072






000
SXUS55 KMSO 230844
OSOMSO
MONTANA AWOS SUMMARY
NATIONAL WEATHER SERVICE MISSOULA MT
243 AM MDT SAT MAY 23 2015

Montana AWOS Reports

LAUREL      |K6S8 230835Z AUTO 35004KT 40SM 11/06 A2994 RMK AO1 T01060061
TWIN BRIDGES|K7S1 230835Z AUTO 34009G13KT 40SM 11/05 A2995 RMK AO1 T01110050
ROUNDUP     |KRPX 230835Z AUTO 00000KT 40SM 11/05 A2990 RMK AO1 T01110050
MALTA       |KM75 230835Z AUTO 00000KT 40SM 15/07 A2997 RMK AO1 T01500072






000
SXUS55 KMSO 230844
OSOMSO
MONTANA AWOS SUMMARY
NATIONAL WEATHER SERVICE MISSOULA MT
243 AM MDT SAT MAY 23 2015

Montana AWOS Reports

LAUREL      |K6S8 230835Z AUTO 35004KT 40SM 11/06 A2994 RMK AO1 T01060061
TWIN BRIDGES|K7S1 230835Z AUTO 34009G13KT 40SM 11/05 A2995 RMK AO1 T01110050
ROUNDUP     |KRPX 230835Z AUTO 00000KT 40SM 11/05 A2990 RMK AO1 T01110050
MALTA       |KM75 230835Z AUTO 00000KT 40SM 15/07 A2997 RMK AO1 T01500072






000
SXUS55 KMSO 230823
OSOMSO
MONTANA AWOS SUMMARY
NATIONAL WEATHER SERVICE MISSOULA MT
223 AM MDT SAT MAY 23 2015

Montana AWOS Reports

TWIN BRIDGES|K7S1 230815Z AUTO 36008KT 40SM 11/05 A2995 RMK AO1 T01110050
ROUNDUP     |KRPX 230815Z AUTO 00000KT 40SM 12/05 A2989 RMK AO1 T01170050
LAUREL      |K6S8 230815Z AUTO 34004KT 40SM 11/06 A2994 RMK AO1 T01060061
MALTA       |KM75 230815Z AUTO 03005KT 40SM 15/07 A2997 RMK AO1 T01500072






000
SXUS55 KMSO 230813
OSOMSO
MONTANA AWOS SUMMARY
NATIONAL WEATHER SERVICE MISSOULA MT
212 AM MDT SAT MAY 23 2015

Montana AWOS Reports

SCOBEY      |K9S2 230755Z AUTO 13004KT 40SM 11/00 A3006 RMK AO1 T01110000






000
SXUS55 KMSO 230803
OSOMSO
MONTANA AWOS SUMMARY
NATIONAL WEATHER SERVICE MISSOULA MT
203 AM MDT SAT MAY 23 2015

Montana AWOS Reports

LAUREL      |K6S8 230755Z AUTO 00000KT 40SM 11/06 A2994 RMK AO1 T01060061
TWIN BRIDGES|K7S1 230755Z AUTO 35011KT 40SM 11/05 A2995 RMK AO1 T01110050
ROUNDUP     |KRPX 230755Z AUTO 00000KT 40SM 12/05 A2989 RMK AO1 T01170050
MALTA       |KM75 230755Z AUTO 00000KT 40SM 16/08 A2997 RMK AO1 T01560078
EKALAKA     |K97M 230755Z AUTO 11009KT 40SM 07/03 A2999 RMK AO1 T00670028






000
SXUS55 KMSO 230744
OSOMSO
MONTANA AWOS SUMMARY
NATIONAL WEATHER SERVICE MISSOULA MT
143 AM MDT SAT MAY 23 2015

Montana AWOS Reports

TWIN BRIDGES|K7S1 230735Z AUTO 36009G13KT 40SM 11/05 A2995 RMK AO1 T01060050
ROUNDUP     |KRPX 230735Z AUTO 00000KT 40SM 12/06 A2990 RMK AO1 T01220056
LAUREL      |K6S8 230735Z AUTO 35004KT 40SM 10/06 A2994 RMK AO1 T01000056
MALTA       |KM75 230735Z AUTO 00000KT 40SM 15/07 A2996 RMK AO1 T01500072






000
SXUS55 KMSO 230744
OSOMSO
MONTANA AWOS SUMMARY
NATIONAL WEATHER SERVICE MISSOULA MT
143 AM MDT SAT MAY 23 2015

Montana AWOS Reports

TWIN BRIDGES|K7S1 230735Z AUTO 36009G13KT 40SM 11/05 A2995 RMK AO1 T01060050
ROUNDUP     |KRPX 230735Z AUTO 00000KT 40SM 12/06 A2990 RMK AO1 T01220056
LAUREL      |K6S8 230735Z AUTO 35004KT 40SM 10/06 A2994 RMK AO1 T01000056
MALTA       |KM75 230735Z AUTO 00000KT 40SM 15/07 A2996 RMK AO1 T01500072






000
SXUS55 KMSO 230733
OSOMSO
MONTANA AWOS SUMMARY
NATIONAL WEATHER SERVICE MISSOULA MT
133 AM MDT SAT MAY 23 2015

Montana AWOS Reports

SCOBEY      |K9S2 230655Z AUTO 00000KT 40SM 12/M01 A3005 RMK AO1 T01221005
EKALAKA     |K97M 230655Z AUTO 11009KT 40SM 07/02 A3001 RMK AO1 T00670022






000
SXUS55 KMSO 230733
OSOMSO
MONTANA AWOS SUMMARY
NATIONAL WEATHER SERVICE MISSOULA MT
133 AM MDT SAT MAY 23 2015

Montana AWOS Reports

SCOBEY      |K9S2 230655Z AUTO 00000KT 40SM 12/M01 A3005 RMK AO1 T01221005
EKALAKA     |K97M 230655Z AUTO 11009KT 40SM 07/02 A3001 RMK AO1 T00670022






000
SXUS55 KMSO 230723
OSOMSO
MONTANA AWOS SUMMARY
NATIONAL WEATHER SERVICE MISSOULA MT
123 AM MDT SAT MAY 23 2015

Montana AWOS Reports

TWIN BRIDGES|K7S1 230715Z AUTO 34009G13KT 40SM 11/05 A2995 RMK AO1 T01110050
ROUNDUP     |KRPX 230715Z AUTO 00000KT 40SM 12/06 A2990 RMK AO1 T01220056
MALTA       |KM75 230715Z AUTO 00000KT 40SM 15/07 A2996 RMK AO1 T01500072
LAUREL      |K6S8 230715Z AUTO 00000KT 40SM 11/06 A2994 RMK AO1 T01110061






000
SXUS55 KMSO 230723
OSOMSO
MONTANA AWOS SUMMARY
NATIONAL WEATHER SERVICE MISSOULA MT
123 AM MDT SAT MAY 23 2015

Montana AWOS Reports

TWIN BRIDGES|K7S1 230715Z AUTO 34009G13KT 40SM 11/05 A2995 RMK AO1 T01110050
ROUNDUP     |KRPX 230715Z AUTO 00000KT 40SM 12/06 A2990 RMK AO1 T01220056
MALTA       |KM75 230715Z AUTO 00000KT 40SM 15/07 A2996 RMK AO1 T01500072
LAUREL      |K6S8 230715Z AUTO 00000KT 40SM 11/06 A2994 RMK AO1 T01110061






000
SXUS55 KMSO 230713
OSOMSO
MONTANA AWOS SUMMARY
NATIONAL WEATHER SERVICE MISSOULA MT
113 AM MDT SAT MAY 23 2015

Montana AWOS Reports

ROUNDUP     |KRPX 230655Z AUTO 00000KT 40SM 12/06 A2990 RMK AO1 T01220056
MALTA       |KM75 230655Z AUTO 00000KT 40SM 14/07 A2996 RMK AO1 T01390067






000
SXUS55 KMSO 230703
OSOMSO
MONTANA AWOS SUMMARY
NATIONAL WEATHER SERVICE MISSOULA MT
102 AM MDT SAT MAY 23 2015

Montana AWOS Reports

LAUREL      |K6S8 230655Z AUTO 02004KT 40SM 11/06 A2994 RMK AO1 T01110056
TWIN BRIDGES|K7S1 230655Z AUTO 35007KT 40SM 11/05 A2995 RMK AO1 T01110050






000
SXUS55 KMSO 230703
OSOMSO
MONTANA AWOS SUMMARY
NATIONAL WEATHER SERVICE MISSOULA MT
102 AM MDT SAT MAY 23 2015

Montana AWOS Reports

LAUREL      |K6S8 230655Z AUTO 02004KT 40SM 11/06 A2994 RMK AO1 T01110056
TWIN BRIDGES|K7S1 230655Z AUTO 35007KT 40SM 11/05 A2995 RMK AO1 T01110050






000
SXUS55 KMSO 230643
OSOMSO
MONTANA AWOS SUMMARY
NATIONAL WEATHER SERVICE MISSOULA MT
1243 AM MDT SAT MAY 23 2015

Montana AWOS Reports

ROUNDUP     |KRPX 230635Z AUTO 00000KT 40SM 13/06 A2990 RMK AO1 T01280056






000
SXUS55 KMSO 230643
OSOMSO
MONTANA AWOS SUMMARY
NATIONAL WEATHER SERVICE MISSOULA MT
1243 AM MDT SAT MAY 23 2015

Montana AWOS Reports

ROUNDUP     |KRPX 230635Z AUTO 00000KT 40SM 13/06 A2990 RMK AO1 T01280056






000
SXUS55 KMSO 230624
OSOMSO
MONTANA AWOS SUMMARY
NATIONAL WEATHER SERVICE MISSOULA MT
1223 AM MDT SAT MAY 23 2015

Montana AWOS Reports

LAUREL      |K6S8 230615Z AUTO 02004KT 40SM 12/06 A2994 RMK AO1 T01170061
TWIN BRIDGES|K7S1 230615Z AUTO 01005KT 40SM 11/04 A2995 RMK AO1 T01110039
ROUNDUP     |KRPX 230615Z AUTO 00000KT 40SM 13/06 A2990 RMK AO1 T01330056
MALTA       |KM75 230615Z AUTO 00000KT 40SM 14/07 A2996 RMK AO1 T01440072






000
SXUS55 KMSO 230613
OSOMSO
MONTANA AWOS SUMMARY
NATIONAL WEATHER SERVICE MISSOULA MT
1212 AM MDT SAT MAY 23 2015

Montana AWOS Reports

TWIN BRIDGES|K7S1 230555Z AUTO 04008KT 40SM 12/04 A2995 RMK AO1 T01170039
SCOBEY      |K9S2 230555Z AUTO 10008KT 40SM 12/M01 A3004 RMK AO1 T01171010
EKALAKA     |K97M 230555Z AUTO 12007KT 40SM 08/03 A3003 RMK AO1 T00780028






000
SXUS55 KMSO 230613
OSOMSO
MONTANA AWOS SUMMARY
NATIONAL WEATHER SERVICE MISSOULA MT
1212 AM MDT SAT MAY 23 2015

Montana AWOS Reports

TWIN BRIDGES|K7S1 230555Z AUTO 04008KT 40SM 12/04 A2995 RMK AO1 T01170039
SCOBEY      |K9S2 230555Z AUTO 10008KT 40SM 12/M01 A3004 RMK AO1 T01171010
EKALAKA     |K97M 230555Z AUTO 12007KT 40SM 08/03 A3003 RMK AO1 T00780028






000
SXUS55 KMSO 230603
OSOMSO
MONTANA AWOS SUMMARY
NATIONAL WEATHER SERVICE MISSOULA MT
1203 AM MDT SAT MAY 23 2015

Montana AWOS Reports

LAUREL      |K6S8 230555Z AUTO 00000KT 40SM 12/06 A2993 RMK AO1 T01220061
ROUNDUP     |KRPX 230555Z AUTO 00000KT 40SM 13/06 A2990 RMK AO1 T01330056
MALTA       |KM75 230555Z AUTO 00000KT 40SM 13/07 A2995 RMK AO1 T01330072






000
SXUS55 KMSO 230543
OSOMSO
MONTANA AWOS SUMMARY
NATIONAL WEATHER SERVICE MISSOULA MT
1143 PM MDT FRI MAY 22 2015

Montana AWOS Reports

TWIN BRIDGES|K7S1 230535Z AUTO 36010KT 40SM 12/05 A2994 RMK AO1 T01170050






000
SXUS55 KMSO 230523
OSOMSO
MONTANA AWOS SUMMARY
NATIONAL WEATHER SERVICE MISSOULA MT
1123 PM MDT FRI MAY 22 2015

Montana AWOS Reports

EKALAKA     |K97M 230455Z AUTO 12006KT 40SM 09/04 A3003 RMK AO1 T00940039
LAUREL      |K6S8 230515Z AUTO 00000KT 40SM 13/06 A2993 RMK AO1 T01330061
ROUNDUP     |KRPX 230515Z AUTO 00000KT 40SM 14/05 A2989 RMK AO1 T01390050
MALTA       |KM75 230515Z AUTO 00000KT 40SM 13/07 A2995 RMK AO1 T01280072
TWIN BRIDGES|K7S1 230515Z AUTO 36009KT 40SM 12/05 A2994 RMK AO1 T01170050






000
SXUS55 KMSO 230503
OSOMSO
MONTANA AWOS SUMMARY
NATIONAL WEATHER SERVICE MISSOULA MT
1103 PM MDT FRI MAY 22 2015

Montana AWOS Reports

ROUNDUP     |KRPX 230455Z AUTO 00000KT 40SM 14/06 A2989 RMK AO1 T01440056
MALTA       |KM75 230455Z AUTO 00000KT 40SM 13/07 A2995 RMK AO1 T01330072
TWIN BRIDGES|K7S1 230455Z AUTO 01010KT 40SM 12/05 A2994 RMK AO1 T01170050






000
SXUS55 KMSO 230503
OSOMSO
MONTANA AWOS SUMMARY
NATIONAL WEATHER SERVICE MISSOULA MT
1103 PM MDT FRI MAY 22 2015

Montana AWOS Reports

ROUNDUP     |KRPX 230455Z AUTO 00000KT 40SM 14/06 A2989 RMK AO1 T01440056
MALTA       |KM75 230455Z AUTO 00000KT 40SM 13/07 A2995 RMK AO1 T01330072
TWIN BRIDGES|K7S1 230455Z AUTO 01010KT 40SM 12/05 A2994 RMK AO1 T01170050






000
SXUS55 KMSO 230443
OSOMSO
MONTANA AWOS SUMMARY
NATIONAL WEATHER SERVICE MISSOULA MT
1043 PM MDT FRI MAY 22 2015

Montana AWOS Reports

LAUREL      |K6S8 230435Z AUTO 05005KT 40SM 14/06 A2994 RMK AO1 T01390061
ROUNDUP     |KRPX 230435Z AUTO 00000KT 40SM 15/06 A2988 RMK AO1 T01500061
MALTA       |KM75 230435Z AUTO 00000KT 40SM 14/07 A2995 RMK AO1 T01390072
TWIN BRIDGES|K7S1 230435Z AUTO 02008KT 40SM 12/05 A2994 RMK AO1 T01170050






000
SXUS55 KMSO 230423
OSOMSO
MONTANA AWOS SUMMARY
NATIONAL WEATHER SERVICE MISSOULA MT
1023 PM MDT FRI MAY 22 2015

Montana AWOS Reports

EKALAKA     |K97M 230355Z AUTO 12005KT 40SM 11/03 A3003 RMK AO1 T01060033
LAUREL      |K6S8 230415Z AUTO 06004KT 40SM 14/06 A2994 RMK AO1 T01440056
ROUNDUP     |KRPX 230415Z AUTO 00000KT 40SM 16/06 A2988 RMK AO1 T01560061
TWIN BRIDGES|K7S1 230415Z AUTO 36009KT 40SM 12/06 A2993 RMK AO1 T01220056
MALTA       |KM75 230415Z AUTO 00000KT 40SM 14/07 A2994 RMK AO1 T01440072






000
SXUS55 KMSO 230423
OSOMSO
MONTANA AWOS SUMMARY
NATIONAL WEATHER SERVICE MISSOULA MT
1023 PM MDT FRI MAY 22 2015

Montana AWOS Reports

EKALAKA     |K97M 230355Z AUTO 12005KT 40SM 11/03 A3003 RMK AO1 T01060033
LAUREL      |K6S8 230415Z AUTO 06004KT 40SM 14/06 A2994 RMK AO1 T01440056
ROUNDUP     |KRPX 230415Z AUTO 00000KT 40SM 16/06 A2988 RMK AO1 T01560061
TWIN BRIDGES|K7S1 230415Z AUTO 36009KT 40SM 12/06 A2993 RMK AO1 T01220056
MALTA       |KM75 230415Z AUTO 00000KT 40SM 14/07 A2994 RMK AO1 T01440072






000
SXUS55 KMSO 230413
OSOMSO
MONTANA AWOS SUMMARY
NATIONAL WEATHER SERVICE MISSOULA MT
1013 PM MDT FRI MAY 22 2015

Montana AWOS Reports

TWIN BRIDGES|K7S1 230355Z AUTO 16007KT 070V250 40SM 13/06 A2993 RMK AO1 T01280056






000
SXUS55 KMSO 230403
OSOMSO
MONTANA AWOS SUMMARY
NATIONAL WEATHER SERVICE MISSOULA MT
1003 PM MDT FRI MAY 22 2015

Montana AWOS Reports

LAUREL      |K6S8 230355Z AUTO 06006KT 40SM 15/06 A2993 RMK AO1 T01500061
ROUNDUP     |KRPX 230355Z AUTO 00000KT 40SM 16/07 A2988 RMK AO1 T01560067
MALTA       |KM75 230355Z AUTO 00000KT 40SM 15/08 A2994 RMK AO1 T01500078






000
SXUS55 KMSO 230343
OSOMSO
MONTANA AWOS SUMMARY
NATIONAL WEATHER SERVICE MISSOULA MT
943 PM MDT FRI MAY 22 2015

Montana AWOS Reports

TWIN BRIDGES|K7S1 230335Z AUTO 34010KT 40SM 13/05 A2993 RMK AO1 T01280050






000
SXUS55 KMSO 230323
OSOMSO
MONTANA AWOS SUMMARY
NATIONAL WEATHER SERVICE MISSOULA MT
923 PM MDT FRI MAY 22 2015

Montana AWOS Reports

TWIN BRIDGES|K7S1 230315Z AUTO 34010G14KT 40SM 13/05 A2993 RMK AO1 T01330050






000
SXUS55 KMSO 230313
OSOMSO
MONTANA AWOS SUMMARY
NATIONAL WEATHER SERVICE MISSOULA MT
912 PM MDT FRI MAY 22 2015

Montana AWOS Reports

TWIN BRIDGES|K7S1 230255Z AUTO 34012G16KT 40SM 13/05 A2992 RMK AO1 T01330050
SCOBEY      |K9S2 230255Z AUTO 11006KT 40SM 15/M01 A3002 RMK AO1 T01501010
EKALAKA     |K97M 230255Z AUTO 12006KT 40SM 12/04 A3002 RMK AO1 T01170044






000
SXUS55 KMSO 230303
OSOMSO
MONTANA AWOS SUMMARY
NATIONAL WEATHER SERVICE MISSOULA MT
903 PM MDT FRI MAY 22 2015

Montana AWOS Reports

LAUREL      |K6S8 230255Z AUTO 00000KT 40SM 16/06 A2992 RMK AO1 T01560061
ROUNDUP     |KRPX 230255Z AUTO 00000KT 40SM 16/07 A2986 RMK AO1 T01610067
MALTA       |KM75 230255Z AUTO 00000KT 40SM 18/08 A2993 RMK AO1 T01780078






000
SXUS55 KMSO 230303
OSOMSO
MONTANA AWOS SUMMARY
NATIONAL WEATHER SERVICE MISSOULA MT
903 PM MDT FRI MAY 22 2015

Montana AWOS Reports

LAUREL      |K6S8 230255Z AUTO 00000KT 40SM 16/06 A2992 RMK AO1 T01560061
ROUNDUP     |KRPX 230255Z AUTO 00000KT 40SM 16/07 A2986 RMK AO1 T01610067
MALTA       |KM75 230255Z AUTO 00000KT 40SM 18/08 A2993 RMK AO1 T01780078






000
SXUS55 KMSO 230243
OSOMSO
MONTANA AWOS SUMMARY
NATIONAL WEATHER SERVICE MISSOULA MT
842 PM MDT FRI MAY 22 2015

Montana AWOS Reports

LAUREL      |K6S8 230235Z AUTO 00000KT 40SM 16/07 A2991 RMK AO1 T01610067
ROUNDUP     |KRPX 230235Z AUTO 00000KT 40SM 17/07 A2985 RMK AO1 T01670067
MALTA       |KM75 230235Z AUTO 00000KT 40SM 19/08 A2993 RMK AO1 T01890078
TWIN BRIDGES|K7S1 230235Z AUTO 34013G19KT 40SM 13/05 A2992 RMK AO1 T01330050






000
SXUS55 KMSO 230223
OSOMSO
MONTANA AWOS SUMMARY
NATIONAL WEATHER SERVICE MISSOULA MT
823 PM MDT FRI MAY 22 2015

Montana AWOS Reports

LAUREL      |K6S8 230215Z AUTO 00000KT 40SM 17/07 A2990 RMK AO1 T01670067
ROUNDUP     |KRPX 230215Z AUTO 00000KT 40SM 17/07 A2985 RMK AO1 T01720067
MALTA       |KM75 230215Z AUTO 00000KT 40SM 19/07 A2993 RMK AO1 T01940067






000
SXUS55 KMSO 230223
OSOMSO
MONTANA AWOS SUMMARY
NATIONAL WEATHER SERVICE MISSOULA MT
823 PM MDT FRI MAY 22 2015

Montana AWOS Reports

LAUREL      |K6S8 230215Z AUTO 00000KT 40SM 17/07 A2990 RMK AO1 T01670067
ROUNDUP     |KRPX 230215Z AUTO 00000KT 40SM 17/07 A2985 RMK AO1 T01720067
MALTA       |KM75 230215Z AUTO 00000KT 40SM 19/07 A2993 RMK AO1 T01940067






000
SXUS55 KMSO 230203
OSOMSO
MONTANA AWOS SUMMARY
NATIONAL WEATHER SERVICE MISSOULA MT
803 PM MDT FRI MAY 22 2015

Montana AWOS Reports

LAUREL      |K6S8 230155Z AUTO 07006KT 40SM 17/07 A2990 RMK AO1 T01720067
MALTA       |KM75 230155Z AUTO 00000KT 40SM 20/07 A2993 RMK AO1 T02000072
TWIN BRIDGES|K7S1 230155Z AUTO 33017G21KT 40SM 14/05 A2991 RMK AO1 T01390050
SCOBEY      |K9S2 230155Z AUTO 11010G14KT 40SM 21/M01 A3001 RMK AO1 T02111005
EKALAKA     |K97M 230155Z AUTO 12007KT 40SM 13/04 A3001 RMK AO1 T01330044






000
SXUS55 KMSO 230203
OSOMSO
MONTANA AWOS SUMMARY
NATIONAL WEATHER SERVICE MISSOULA MT
803 PM MDT FRI MAY 22 2015

Montana AWOS Reports

LAUREL      |K6S8 230155Z AUTO 07006KT 40SM 17/07 A2990 RMK AO1 T01720067
MALTA       |KM75 230155Z AUTO 00000KT 40SM 20/07 A2993 RMK AO1 T02000072
TWIN BRIDGES|K7S1 230155Z AUTO 33017G21KT 40SM 14/05 A2991 RMK AO1 T01390050
SCOBEY      |K9S2 230155Z AUTO 11010G14KT 40SM 21/M01 A3001 RMK AO1 T02111005
EKALAKA     |K97M 230155Z AUTO 12007KT 40SM 13/04 A3001 RMK AO1 T01330044






000
SXUS55 KMSO 230143
OSOMSO
MONTANA AWOS SUMMARY
NATIONAL WEATHER SERVICE MISSOULA MT
743 PM MDT FRI MAY 22 2015

Montana AWOS Reports

LAUREL      |K6S8 230135Z AUTO 08007KT 40SM 18/07 A2989 RMK AO1 T01780072
ROUNDUP     |KRPX 230135Z AUTO 00000KT 40SM 18/07 A2984 RMK AO1 T01830067
MALTA       |KM75 230135Z AUTO 09007KT 40SM 20/07 A2992 RMK AO1 T02000067
TWIN BRIDGES|K7S1 230135Z AUTO 33019G25KT 40SM 14/05 A2991 RMK AO1 T01390050






000
SXUS55 KMSO 230133
OSOMSO
MONTANA AWOS SUMMARY
NATIONAL WEATHER SERVICE MISSOULA MT
733 PM MDT FRI MAY 22 2015

Montana AWOS Reports

TWIN BRIDGES|K7S1 230115Z AUTO 33021G28KT 40SM 16/06 A2990 RMK AO1 T01560061






000
SXUS55 KMSO 230133
OSOMSO
MONTANA AWOS SUMMARY
NATIONAL WEATHER SERVICE MISSOULA MT
733 PM MDT FRI MAY 22 2015

Montana AWOS Reports

TWIN BRIDGES|K7S1 230115Z AUTO 33021G28KT 40SM 16/06 A2990 RMK AO1 T01560061






000
SXUS55 KMSO 230123
OSOMSO
MONTANA AWOS SUMMARY
NATIONAL WEATHER SERVICE MISSOULA MT
723 PM MDT FRI MAY 22 2015

Montana AWOS Reports

LAUREL      |K6S8 230115Z AUTO 00000KT 40SM 17/08 A2989 RMK AO1 T01720078
ROUNDUP     |KRPX 230115Z AUTO 08008KT 40SM 18/06 A2984 RMK AO1 T01830061
MALTA       |KM75 230115Z AUTO 09005KT 40SM 21/07 A2992 RMK AO1 T02060067






000
SXUS55 KMSO 230123
OSOMSO
MONTANA AWOS SUMMARY
NATIONAL WEATHER SERVICE MISSOULA MT
723 PM MDT FRI MAY 22 2015

Montana AWOS Reports

LAUREL      |K6S8 230115Z AUTO 00000KT 40SM 17/08 A2989 RMK AO1 T01720078
ROUNDUP     |KRPX 230115Z AUTO 08008KT 40SM 18/06 A2984 RMK AO1 T01830061
MALTA       |KM75 230115Z AUTO 09005KT 40SM 21/07 A2992 RMK AO1 T02060067






000
SXUS55 KMSO 230103
OSOMSO
MONTANA AWOS SUMMARY
NATIONAL WEATHER SERVICE MISSOULA MT
703 PM MDT FRI MAY 22 2015

Montana AWOS Reports

LAUREL      |K6S8 230055Z AUTO 00000KT 40SM 18/09 A2989 RMK AO1 T01780089
ROUNDUP     |KRPX 230055Z AUTO 07007KT 40SM 19/06 A2984 RMK AO1 T01890061
MALTA       |KM75 230055Z AUTO 09010KT 40SM 21/07 A2992 RMK AO1 T02110067
TWIN BRIDGES|K7S1 230055Z AUTO 36011G15KT 40SM 18/03 A2990 RMK AO1 T01830028
SCOBEY      |K9S2 230055Z AUTO 11015KT 25SM 22/M01 A3000 RMK AO1 T02221010
EKALAKA     |K97M 230055Z AUTO 11012G16KT 40SM 15/05 A3000 RMK AO1 T01500050
TWIN BRIDGES|K7S1 230055Z AUTO 36011G15KT 40SM 18/03 A2990 RMK AO1 T01830028






000
SXUS55 KMSO 230103
OSOMSO
MONTANA AWOS SUMMARY
NATIONAL WEATHER SERVICE MISSOULA MT
703 PM MDT FRI MAY 22 2015

Montana AWOS Reports

LAUREL      |K6S8 230055Z AUTO 00000KT 40SM 18/09 A2989 RMK AO1 T01780089
ROUNDUP     |KRPX 230055Z AUTO 07007KT 40SM 19/06 A2984 RMK AO1 T01890061
MALTA       |KM75 230055Z AUTO 09010KT 40SM 21/07 A2992 RMK AO1 T02110067
TWIN BRIDGES|K7S1 230055Z AUTO 36011G15KT 40SM 18/03 A2990 RMK AO1 T01830028
SCOBEY      |K9S2 230055Z AUTO 11015KT 25SM 22/M01 A3000 RMK AO1 T02221010
EKALAKA     |K97M 230055Z AUTO 11012G16KT 40SM 15/05 A3000 RMK AO1 T01500050
TWIN BRIDGES|K7S1 230055Z AUTO 36011G15KT 40SM 18/03 A2990 RMK AO1 T01830028






000
SXUS55 KMSO 230044
OSOMSO
MONTANA AWOS SUMMARY
NATIONAL WEATHER SERVICE MISSOULA MT
643 PM MDT FRI MAY 22 2015

Montana AWOS Reports

LAUREL      |K6S8 230035Z AUTO 04004KT 40SM 19/08 A2989 RMK AO1 T01890083
ROUNDUP     |KRPX 230035Z AUTO 06006KT 40SM 19/07 A2984 RMK AO1 T01940067
MALTA       |KM75 230035Z AUTO 09009G14KT 40SM 22/07 A2992 RMK AO1 T02220067
TWIN BRIDGES|K7S1 230035Z AUTO 34009G14KT 40SM 18/04 A2989 RMK AO1 T01830039






000
SXUS55 KMSO 230023
OSOMSO
MONTANA AWOS SUMMARY
NATIONAL WEATHER SERVICE MISSOULA MT
622 PM MDT FRI MAY 22 2015

Montana AWOS Reports

LAUREL      |K6S8 230015Z AUTO 07007KT 40SM 19/07 A2989 RMK AO1 T01940067
ROUNDUP     |KRPX 230015Z AUTO 08004KT 40SM 19/06 A2984 RMK AO1 T01940056
MALTA       |KM75 230015Z AUTO 10008KT 40SM 22/07 A2992 RMK AO1 T02220072
TWIN BRIDGES|K7S1 230015Z AUTO 36010G16KT 40SM 18/03 A2990 RMK AO1 T01780033






000
SXUS55 KMSO 230023
OSOMSO
MONTANA AWOS SUMMARY
NATIONAL WEATHER SERVICE MISSOULA MT
622 PM MDT FRI MAY 22 2015

Montana AWOS Reports

LAUREL      |K6S8 230015Z AUTO 07007KT 40SM 19/07 A2989 RMK AO1 T01940067
ROUNDUP     |KRPX 230015Z AUTO 08004KT 40SM 19/06 A2984 RMK AO1 T01940056
MALTA       |KM75 230015Z AUTO 10008KT 40SM 22/07 A2992 RMK AO1 T02220072
TWIN BRIDGES|K7S1 230015Z AUTO 36010G16KT 40SM 18/03 A2990 RMK AO1 T01780033






000
SXUS55 KMSO 230013
OSOMSO
MONTANA AWOS SUMMARY
NATIONAL WEATHER SERVICE MISSOULA MT
613 PM MDT FRI MAY 22 2015

Montana AWOS Reports

TWIN BRIDGES|K7S1 222355Z AUTO 34014G18KT 40SM 18/04 A2989 RMK AO1 T01830039
SCOBEY      |K9S2 222355Z AUTO 10017KT 40SM 23/M01 A3000 RMK AO1 T02281005






000
SXUS55 KMSO 230013
OSOMSO
MONTANA AWOS SUMMARY
NATIONAL WEATHER SERVICE MISSOULA MT
613 PM MDT FRI MAY 22 2015

Montana AWOS Reports

TWIN BRIDGES|K7S1 222355Z AUTO 34014G18KT 40SM 18/04 A2989 RMK AO1 T01830039
SCOBEY      |K9S2 222355Z AUTO 10017KT 40SM 23/M01 A3000 RMK AO1 T02281005






000
SXUS55 KMSO 230003
OSOMSO
MONTANA AWOS SUMMARY
NATIONAL WEATHER SERVICE MISSOULA MT
602 PM MDT FRI MAY 22 2015

Montana AWOS Reports

LAUREL      |K6S8 222355Z AUTO 09009KT 40SM 20/07 A2989 RMK AO1 T02000072
ROUNDUP     |KRPX 222355Z AUTO 08007KT 40SM 19/06 A2984 RMK AO1 T01940061
MALTA       |KM75 222355Z AUTO 10009G16KT 40SM 22/07 A2992 RMK AO1 T02220072
EKALAKA     |K97M 222355Z AUTO 12012G17KT 40SM 16/05 A3000 RMK AO1 T01610050






000
SXUS55 KMSO 230003
OSOMSO
MONTANA AWOS SUMMARY
NATIONAL WEATHER SERVICE MISSOULA MT
602 PM MDT FRI MAY 22 2015

Montana AWOS Reports

LAUREL      |K6S8 222355Z AUTO 09009KT 40SM 20/07 A2989 RMK AO1 T02000072
ROUNDUP     |KRPX 222355Z AUTO 08007KT 40SM 19/06 A2984 RMK AO1 T01940061
MALTA       |KM75 222355Z AUTO 10009G16KT 40SM 22/07 A2992 RMK AO1 T02220072
EKALAKA     |K97M 222355Z AUTO 12012G17KT 40SM 16/05 A3000 RMK AO1 T01610050






000
SXUS55 KMSO 222343
OSOMSO
MONTANA AWOS SUMMARY
NATIONAL WEATHER SERVICE MISSOULA MT
543 PM MDT FRI MAY 22 2015

Montana AWOS Reports

TWIN BRIDGES|K7S1 222335Z AUTO 16012G17KT 070V250 40SM 18/03 A2990 RMK AO1 T01830033
MALTA       |KM75 222335Z AUTO 09011G18KT 40SM 23/07 A2992 RMK AO1 T02280072






000
SXUS55 KMSO 222343
OSOMSO
MONTANA AWOS SUMMARY
NATIONAL WEATHER SERVICE MISSOULA MT
543 PM MDT FRI MAY 22 2015

Montana AWOS Reports

TWIN BRIDGES|K7S1 222335Z AUTO 16012G17KT 070V250 40SM 18/03 A2990 RMK AO1 T01830033
MALTA       |KM75 222335Z AUTO 09011G18KT 40SM 23/07 A2992 RMK AO1 T02280072






000
SXUS55 KMSO 222333
OSOMSO
MONTANA AWOS SUMMARY
NATIONAL WEATHER SERVICE MISSOULA MT
532 PM MDT FRI MAY 22 2015

Montana AWOS Reports

TWIN BRIDGES|K7S1 222315Z AUTO 35013G17KT 40SM 19/03 A2990 RMK AO1 T01890033






000
SXUS55 KMSO 222333
OSOMSO
MONTANA AWOS SUMMARY
NATIONAL WEATHER SERVICE MISSOULA MT
532 PM MDT FRI MAY 22 2015

Montana AWOS Reports

TWIN BRIDGES|K7S1 222315Z AUTO 35013G17KT 40SM 19/03 A2990 RMK AO1 T01890033






000
SXUS55 KMSO 222323
OSOMSO
MONTANA AWOS SUMMARY
NATIONAL WEATHER SERVICE MISSOULA MT
522 PM MDT FRI MAY 22 2015

Montana AWOS Reports

LAUREL      |K6S8 222315Z AUTO 05006KT 40SM 20/06 A2989 RMK AO1 T02000061
ROUNDUP     |KRPX 222315Z AUTO 10005KT 40SM 20/06 A2983 RMK AO1 T02000061
MALTA       |KM75 222315Z AUTO 09011G15KT 40SM 22/07 A2992 RMK AO1 T02170067






000
SXUS55 KMSO 222323
OSOMSO
MONTANA AWOS SUMMARY
NATIONAL WEATHER SERVICE MISSOULA MT
522 PM MDT FRI MAY 22 2015

Montana AWOS Reports

LAUREL      |K6S8 222315Z AUTO 05006KT 40SM 20/06 A2989 RMK AO1 T02000061
ROUNDUP     |KRPX 222315Z AUTO 10005KT 40SM 20/06 A2983 RMK AO1 T02000061
MALTA       |KM75 222315Z AUTO 09011G15KT 40SM 22/07 A2992 RMK AO1 T02170067






000
SXUS55 KMSO 222303
OSOMSO
MONTANA AWOS SUMMARY
NATIONAL WEATHER SERVICE MISSOULA MT
502 PM MDT FRI MAY 22 2015

Montana AWOS Reports

LAUREL      |K6S8 222235Z AUTO 05004KT 40SM 20/06 A2989 RMK AO1 T02000061
ROUNDUP     |KRPX 222235Z AUTO 05004KT 40SM 21/07 A2983 RMK AO1 T02110067
MALTA       |KM75 222235Z AUTO 09013G19KT 40SM 23/07 A2992 RMK AO1 T02280072
LAUREL      |K6S8 222255Z AUTO 07008KT 40SM 20/06 A2989 RMK AO1 T02000061
ROUNDUP     |KRPX 222255Z AUTO 00000KT 40SM 20/06 A2983 RMK AO1 T02000061
TWIN BRIDGES|K7S1 222255Z AUTO 34015KT 40SM 18/04 A2990 RMK AO1 T01830039
MALTA       |KM75 222255Z AUTO 10011G19KT 40SM 23/07 A2992 RMK AO1 T02280072
EKALAKA     |K97M 222255Z AUTO 12015G23KT 40SM 18/04 A3000 RMK AO1 T01780044






000
SXUS55 KMSO 222223
OSOMSO
MONTANA AWOS SUMMARY
NATIONAL WEATHER SERVICE MISSOULA MT
423 PM MDT FRI MAY 22 2015

Montana AWOS Reports

LAUREL      |K6S8 222215Z AUTO 00000KT 40SM 20/06 A2989 RMK AO1 T02000061
ROUNDUP     |KRPX 222215Z AUTO 05006KT 40SM 21/06 A2983 RMK AO1 T02110061
MALTA       |KM75 222215Z AUTO 10014G20KT 40SM 23/08 A2992 RMK AO1 T02280078
TWIN BRIDGES|K7S1 222215Z AUTO 35016G22KT 310V030 40SM 18/04 A2990 RMK AO1 T01830039






000
SXUS55 KMSO 222213
OSOMSO
MONTANA AWOS SUMMARY
NATIONAL WEATHER SERVICE MISSOULA MT
413 PM MDT FRI MAY 22 2015

Montana AWOS Reports

TWIN BRIDGES|K7S1 222155Z AUTO 36017G22KT 40SM 19/04 A2989 RMK AO1 T01890039
EKALAKA     |K97M 222155Z AUTO 11017G22KT 40SM 17/04 A3001 RMK AO1 T01670044






000
SXUS55 KMSO 222213
OSOMSO
MONTANA AWOS SUMMARY
NATIONAL WEATHER SERVICE MISSOULA MT
413 PM MDT FRI MAY 22 2015

Montana AWOS Reports

TWIN BRIDGES|K7S1 222155Z AUTO 36017G22KT 40SM 19/04 A2989 RMK AO1 T01890039
EKALAKA     |K97M 222155Z AUTO 11017G22KT 40SM 17/04 A3001 RMK AO1 T01670044






000
SXUS55 KMSO 222203
OSOMSO
MONTANA AWOS SUMMARY
NATIONAL WEATHER SERVICE MISSOULA MT
402 PM MDT FRI MAY 22 2015

Montana AWOS Reports

LAUREL      |K6S8 222155Z AUTO 07005KT 40SM 21/07 A2989 RMK AO1 T02060067
ROUNDUP     |KRPX 222155Z AUTO 06007KT 40SM 20/06 A2984 RMK AO1 T02000061
MALTA       |KM75 222155Z AUTO 10012G18KT 40SM 24/07 A2992 RMK AO1 T02390072






000
SXUS55 KMSO 222143
OSOMSO
MONTANA AWOS SUMMARY
NATIONAL WEATHER SERVICE MISSOULA MT
343 PM MDT FRI MAY 22 2015

Montana AWOS Reports

EKALAKA     |K97M 222055Z AUTO 11016G21KT 40SM 19/04 A3002 RMK AO1 T01890039
LAUREL      |K6S8 222115Z AUTO 01004KT 40SM 20/08 A2991 RMK AO1 T02000078
TWIN BRIDGES|K7S1 222115Z AUTO 32013G17KT 40SM 21/03 A2990 RMK AO1 T02060033
ROUNDUP     |KRPX 222115Z AUTO 00000KT 40SM 19/06 A2985 RMK AO1 T01940056
MALTA       |KM75 222115Z AUTO 09013G19KT 40SM 24/07 A2992 RMK AO1 T02390072






000
SXUS55 KMSO 222113
OSOMSO
MONTANA AWOS SUMMARY
NATIONAL WEATHER SERVICE MISSOULA MT
313 PM MDT FRI MAY 22 2015

Montana AWOS Reports

EKALAKA     |K97M 222055Z AUTO 11016G21KT 40SM 19/04 A3002 RMK AO1 T01890039






000
SXUS55 KMSO 222103
OSOMSO
MONTANA AWOS SUMMARY
NATIONAL WEATHER SERVICE MISSOULA MT
303 PM MDT FRI MAY 22 2015

Montana AWOS Reports

TWIN BRIDGES|K7S1 222055Z AUTO 34011G16KT 40SM 21/02 A2990 RMK AO1 T02060017
MALTA       |KM75 222055Z AUTO 11016G21KT 40SM 23/07 A2993 RMK AO1 T02330072






000
SXUS55 KMSO 222103
OSOMSO
MONTANA AWOS SUMMARY
NATIONAL WEATHER SERVICE MISSOULA MT
303 PM MDT FRI MAY 22 2015

Montana AWOS Reports

TWIN BRIDGES|K7S1 222055Z AUTO 34011G16KT 40SM 21/02 A2990 RMK AO1 T02060017
MALTA       |KM75 222055Z AUTO 11016G21KT 40SM 23/07 A2993 RMK AO1 T02330072






000
SXUS55 KMSO 222043
OSOMSO
MONTANA AWOS SUMMARY
NATIONAL WEATHER SERVICE MISSOULA MT
243 PM MDT FRI MAY 22 2015

Montana AWOS Reports

LAUREL      |K6S8 222035Z AUTO 07004KT 40SM 19/06 A2992 RMK AO1 T01890056
ROUNDUP     |KRPX 222035Z AUTO 06008KT 40SM 19/07 A2986 RMK AO1 T01940067
MALTA       |KM75 222035Z AUTO 08008KT 40SM 23/07 A2994 RMK AO1 T02330072
TWIN BRIDGES|K7S1 222035Z AUTO 34007KT 40SM 20/02 A2991 RMK AO1 T02000017






000
SXUS55 KMSO 222043
OSOMSO
MONTANA AWOS SUMMARY
NATIONAL WEATHER SERVICE MISSOULA MT
243 PM MDT FRI MAY 22 2015

Montana AWOS Reports

LAUREL      |K6S8 222035Z AUTO 07004KT 40SM 19/06 A2992 RMK AO1 T01890056
ROUNDUP     |KRPX 222035Z AUTO 06008KT 40SM 19/07 A2986 RMK AO1 T01940067
MALTA       |KM75 222035Z AUTO 08008KT 40SM 23/07 A2994 RMK AO1 T02330072
TWIN BRIDGES|K7S1 222035Z AUTO 34007KT 40SM 20/02 A2991 RMK AO1 T02000017






000
SXUS55 KMSO 222023
OSOMSO
MONTANA AWOS SUMMARY
NATIONAL WEATHER SERVICE MISSOULA MT
223 PM MDT FRI MAY 22 2015

Montana AWOS Reports

LAUREL      |K6S8 222015Z AUTO 00000KT 40SM 18/07 A2993 RMK AO1 T01830072
ROUNDUP     |KRPX 222015Z AUTO 07008KT 40SM 19/07 A2986 RMK AO1 T01940067
MALTA       |KM75 222015Z AUTO 09014G20KT 40SM 23/07 A2994 RMK AO1 T02330072
TWIN BRIDGES|K7S1 222015Z AUTO 00000KT 40SM 18/03 A2991 RMK AO1 T01830028






000
SXUS55 KMSO 222013
OSOMSO
MONTANA AWOS SUMMARY
NATIONAL WEATHER SERVICE MISSOULA MT
212 PM MDT FRI MAY 22 2015

Montana AWOS Reports

PLAINS      |KS34 221955Z AUTO 05007KT 40SM 27/03 A2986 RMK AO1 T02670033
EKALAKA     |K97M 221955Z AUTO 10014G21KT 40SM 17/04 A3002 RMK AO1 T01670044






000
SXUS55 KMSO 222003
OSOMSO
MONTANA AWOS SUMMARY
NATIONAL WEATHER SERVICE MISSOULA MT
203 PM MDT FRI MAY 22 2015

Montana AWOS Reports

LAUREL      |K6S8 221955Z AUTO 05004KT 40SM 18/07 A2993 RMK AO1 T01830067
ROUNDUP     |KRPX 221955Z AUTO 05005KT 40SM 19/07 A2987 RMK AO1 T01890067
MALTA       |KM75 221955Z AUTO 09012G20KT 40SM 23/07 A2994 RMK AO1 T02280067






000
SXUS55 KMSO 222003
OSOMSO
MONTANA AWOS SUMMARY
NATIONAL WEATHER SERVICE MISSOULA MT
203 PM MDT FRI MAY 22 2015

Montana AWOS Reports

LAUREL      |K6S8 221955Z AUTO 05004KT 40SM 18/07 A2993 RMK AO1 T01830067
ROUNDUP     |KRPX 221955Z AUTO 05005KT 40SM 19/07 A2987 RMK AO1 T01890067
MALTA       |KM75 221955Z AUTO 09012G20KT 40SM 23/07 A2994 RMK AO1 T02280067






000
SXUS55 KMSO 221943
OSOMSO
MONTANA AWOS SUMMARY
NATIONAL WEATHER SERVICE MISSOULA MT
143 PM MDT FRI MAY 22 2015

Montana AWOS Reports

TWIN BRIDGES|K7S1 221935Z AUTO 01008KT 40SM 19/03 A2991 RMK AO1 T01890033






000
SXUS55 KMSO 221923
OSOMSO
MONTANA AWOS SUMMARY
NATIONAL WEATHER SERVICE MISSOULA MT
123 PM MDT FRI MAY 22 2015

Montana AWOS Reports

LAUREL      |K6S8 221915Z AUTO 00000KT 40SM 18/07 A2994 RMK AO1 T01780072
ROUNDUP     |KRPX 221915Z AUTO 02007KT 40SM 18/08 A2987 RMK AO1 T01830078
TWIN BRIDGES|K7S1 221915Z AUTO 16008KT 070V250 40SM 19/03 A2992 RMK AO1 T01890033
MALTA       |KM75 221915Z AUTO 08009G15KT 40SM 22/06 A2995 RMK AO1 T02220061






000
SXUS55 KMSO 221913
OSOMSO
MONTANA AWOS SUMMARY
NATIONAL WEATHER SERVICE MISSOULA MT
113 PM MDT FRI MAY 22 2015

Montana AWOS Reports

PLAINS      |KS34 221855Z AUTO 00000KT 40SM 24/06 A2988 RMK AO1 T02440061
EKALAKA     |K97M 221855Z AUTO 10014G20KT 40SM 16/04 A3003 RMK AO1 T01610044






000
SXUS55 KMSO 221903
OSOMSO
MONTANA AWOS SUMMARY
NATIONAL WEATHER SERVICE MISSOULA MT
102 PM MDT FRI MAY 22 2015

Montana AWOS Reports

LAUREL      |K6S8 221855Z AUTO 00000KT 40SM 17/07 A2994 RMK AO1 T01670072
ROUNDUP     |KRPX 221855Z AUTO 05006KT 40SM 17/07 A2988 RMK AO1 T01720067
MALTA       |KM75 221855Z AUTO 09010G19KT 40SM 21/07 A2996 RMK AO1 T02110067






000
SXUS55 KMSO 221903
OSOMSO
MONTANA AWOS SUMMARY
NATIONAL WEATHER SERVICE MISSOULA MT
102 PM MDT FRI MAY 22 2015

Montana AWOS Reports

LAUREL      |K6S8 221855Z AUTO 00000KT 40SM 17/07 A2994 RMK AO1 T01670072
ROUNDUP     |KRPX 221855Z AUTO 05006KT 40SM 17/07 A2988 RMK AO1 T01720067
MALTA       |KM75 221855Z AUTO 09010G19KT 40SM 21/07 A2996 RMK AO1 T02110067






000
SXUS55 KMSO 221844
OSOMSO
MONTANA AWOS SUMMARY
NATIONAL WEATHER SERVICE MISSOULA MT
1243 PM MDT FRI MAY 22 2015

Montana AWOS Reports

LAUREL      |K6S8 221835Z AUTO 00000KT 40SM 16/07 A2994 RMK AO1 T01610072
ROUNDUP     |KRPX 221835Z AUTO 00000KT 40SM 17/06 A2988 RMK AO1 T01670056
MALTA       |KM75 221835Z AUTO 11010G20KT 40SM 21/06 A2996 RMK AO1 T02110061
TWIN BRIDGES|K7S1 221835Z AUTO 33007KT 40SM 18/03 A2992 RMK AO1 T01780033






000
SXUS55 KMSO 221833
OSOMSO
MONTANA AWOS SUMMARY
NATIONAL WEATHER SERVICE MISSOULA MT
1232 PM MDT FRI MAY 22 2015

Montana AWOS Reports

TWIN BRIDGES|K7S1 221815Z AUTO 29005KT 40SM 17/04 A2993 RMK AO1 T01720044






000
SXUS55 KMSO 221833
OSOMSO
MONTANA AWOS SUMMARY
NATIONAL WEATHER SERVICE MISSOULA MT
1232 PM MDT FRI MAY 22 2015

Montana AWOS Reports

TWIN BRIDGES|K7S1 221815Z AUTO 29005KT 40SM 17/04 A2993 RMK AO1 T01720044






000
SXUS55 KMSO 221823
OSOMSO
MONTANA AWOS SUMMARY
NATIONAL WEATHER SERVICE MISSOULA MT
1222 PM MDT FRI MAY 22 2015

Montana AWOS Reports

LAUREL      |K6S8 221815Z AUTO 00000KT 40SM 16/06 A2995 RMK AO1 T01560061
ROUNDUP     |KRPX 221815Z AUTO 00000KT 40SM 17/06 A2988 RMK AO1 T01720061
MALTA       |KM75 221815Z AUTO 08012G20KT 40SM 21/07 A2997 RMK AO1 T02060067






000
SXUS55 KMSO 221823
OSOMSO
MONTANA AWOS SUMMARY
NATIONAL WEATHER SERVICE MISSOULA MT
1222 PM MDT FRI MAY 22 2015

Montana AWOS Reports

LAUREL      |K6S8 221815Z AUTO 00000KT 40SM 16/06 A2995 RMK AO1 T01560061
ROUNDUP     |KRPX 221815Z AUTO 00000KT 40SM 17/06 A2988 RMK AO1 T01720061
MALTA       |KM75 221815Z AUTO 08012G20KT 40SM 21/07 A2997 RMK AO1 T02060067






000
SXUS55 KMSO 221813
OSOMSO
MONTANA AWOS SUMMARY
NATIONAL WEATHER SERVICE MISSOULA MT
1213 PM MDT FRI MAY 22 2015

Montana AWOS Reports

EKALAKA     |K97M 221755Z AUTO 12013G25KT 40SM 17/05 A3004 RMK AO1 T01670050
PLAINS      |KS34 221755Z AUTO 00000KT 40SM 23/07 A2989 RMK AO1 T02280067






000
SXUS55 KMSO 221813
OSOMSO
MONTANA AWOS SUMMARY
NATIONAL WEATHER SERVICE MISSOULA MT
1213 PM MDT FRI MAY 22 2015

Montana AWOS Reports

EKALAKA     |K97M 221755Z AUTO 12013G25KT 40SM 17/05 A3004 RMK AO1 T01670050
PLAINS      |KS34 221755Z AUTO 00000KT 40SM 23/07 A2989 RMK AO1 T02280067






000
SXUS55 KMSO 221803
OSOMSO
MONTANA AWOS SUMMARY
NATIONAL WEATHER SERVICE MISSOULA MT
1203 PM MDT FRI MAY 22 2015

Montana AWOS Reports

LAUREL      |K6S8 221755Z AUTO 00000KT 40SM 16/07 A2995 RMK AO1 T01560067
ROUNDUP     |KRPX 221755Z AUTO 06006KT 40SM 17/07 A2989 RMK AO1 T01670067
MALTA       |KM75 221755Z AUTO 09015G20KT 40SM 21/06 A2997 RMK AO1 T02110056
TWIN BRIDGES|K7S1 221755Z AUTO 00000KT 40SM 17/05 A2994 RMK AO1 T01670050






000
SXUS55 KMSO 221803
OSOMSO
MONTANA AWOS SUMMARY
NATIONAL WEATHER SERVICE MISSOULA MT
1203 PM MDT FRI MAY 22 2015

Montana AWOS Reports

LAUREL      |K6S8 221755Z AUTO 00000KT 40SM 16/07 A2995 RMK AO1 T01560067
ROUNDUP     |KRPX 221755Z AUTO 06006KT 40SM 17/07 A2989 RMK AO1 T01670067
MALTA       |KM75 221755Z AUTO 09015G20KT 40SM 21/06 A2997 RMK AO1 T02110056
TWIN BRIDGES|K7S1 221755Z AUTO 00000KT 40SM 17/05 A2994 RMK AO1 T01670050






000
SXUS55 KMSO 221753
OSOMSO
MONTANA AWOS SUMMARY
NATIONAL WEATHER SERVICE MISSOULA MT
1153 AM MDT FRI MAY 22 2015

Montana AWOS Reports

TWIN BRIDGES|K7S1 221735Z AUTO 00000KT 40SM 17/04 A2994 RMK AO1 T01670044






000
SXUS55 KMSO 221753
OSOMSO
MONTANA AWOS SUMMARY
NATIONAL WEATHER SERVICE MISSOULA MT
1153 AM MDT FRI MAY 22 2015

Montana AWOS Reports

TWIN BRIDGES|K7S1 221735Z AUTO 00000KT 40SM 17/04 A2994 RMK AO1 T01670044






000
SXUS55 KMSO 221743
OSOMSO
MONTANA AWOS SUMMARY
NATIONAL WEATHER SERVICE MISSOULA MT
1143 AM MDT FRI MAY 22 2015

Montana AWOS Reports

LAUREL      |K6S8 221735Z AUTO 00000KT 40SM 16/07 A2995 RMK AO1 T01610072
ROUNDUP     |KRPX 221735Z AUTO 00000KT 40SM 16/06 A2989 RMK AO1 T01610061
MALTA       |KM75 221735Z AUTO 09012G17KT 40SM 21/06 A2997 RMK AO1 T02060061






000
SXUS55 KMSO 221743
OSOMSO
MONTANA AWOS SUMMARY
NATIONAL WEATHER SERVICE MISSOULA MT
1143 AM MDT FRI MAY 22 2015

Montana AWOS Reports

LAUREL      |K6S8 221735Z AUTO 00000KT 40SM 16/07 A2995 RMK AO1 T01610072
ROUNDUP     |KRPX 221735Z AUTO 00000KT 40SM 16/06 A2989 RMK AO1 T01610061
MALTA       |KM75 221735Z AUTO 09012G17KT 40SM 21/06 A2997 RMK AO1 T02060061






000
SXUS55 KMSO 221723
OSOMSO
MONTANA AWOS SUMMARY
NATIONAL WEATHER SERVICE MISSOULA MT
1122 AM MDT FRI MAY 22 2015

Montana AWOS Reports

ROUNDUP     |KRPX 221715Z AUTO 00000KT 40SM 16/06 A2989 RMK AO1 T01560056
MALTA       |KM75 221715Z AUTO 10015G21KT 40SM 20/06 A2997 RMK AO1 T02000061
LAUREL      |K6S8 221715Z AUTO 02004KT 40SM 15/06 A2995 RMK AO1 T01500061
TWIN BRIDGES|K7S1 221715Z AUTO 00000KT 40SM 16/04 A2994 RMK AO1 T01560044






000
SXUS55 KMSO 221723
OSOMSO
MONTANA AWOS SUMMARY
NATIONAL WEATHER SERVICE MISSOULA MT
1122 AM MDT FRI MAY 22 2015

Montana AWOS Reports

ROUNDUP     |KRPX 221715Z AUTO 00000KT 40SM 16/06 A2989 RMK AO1 T01560056
MALTA       |KM75 221715Z AUTO 10015G21KT 40SM 20/06 A2997 RMK AO1 T02000061
LAUREL      |K6S8 221715Z AUTO 02004KT 40SM 15/06 A2995 RMK AO1 T01500061
TWIN BRIDGES|K7S1 221715Z AUTO 00000KT 40SM 16/04 A2994 RMK AO1 T01560044






000
SXUS55 KMSO 221703
OSOMSO
MONTANA AWOS SUMMARY
NATIONAL WEATHER SERVICE MISSOULA MT
1102 AM MDT FRI MAY 22 2015

Montana AWOS Reports

TWIN BRIDGES|K7S1 221655Z AUTO 00000KT 40SM 16/05 A2995 RMK AO1 T01560050
EKALAKA     |K97M 221655Z AUTO 11014G23KT 40SM 17/05 A3004 RMK AO1 T01670050
PLAINS      |KS34 221655Z AUTO 00000KT 7SM 20/07 A2991 RMK AO1 T02000072






000
SXUS55 KMSO 221703
OSOMSO
MONTANA AWOS SUMMARY
NATIONAL WEATHER SERVICE MISSOULA MT
1102 AM MDT FRI MAY 22 2015

Montana AWOS Reports

TWIN BRIDGES|K7S1 221655Z AUTO 00000KT 40SM 16/05 A2995 RMK AO1 T01560050
EKALAKA     |K97M 221655Z AUTO 11014G23KT 40SM 17/05 A3004 RMK AO1 T01670050
PLAINS      |KS34 221655Z AUTO 00000KT 7SM 20/07 A2991 RMK AO1 T02000072






000
SXUS55 KMSO 221643
OSOMSO
MONTANA AWOS SUMMARY
NATIONAL WEATHER SERVICE MISSOULA MT
1043 AM MDT FRI MAY 22 2015

Montana AWOS Reports

MALTA       |KM75 221635Z AUTO 07016G20KT 40SM 19/04 A2998 RMK AO1 T01940039
TWIN BRIDGES|K7S1 221635Z AUTO 30004KT 25SM 15/05 A2995 RMK AO1 T01500050






000
SXUS55 KMSO 221623
OSOMSO
MONTANA AWOS SUMMARY
NATIONAL WEATHER SERVICE MISSOULA MT
1023 AM MDT FRI MAY 22 2015

Montana AWOS Reports

LAUREL      |K6S8 221615Z AUTO 00000KT 40SM 13/06 A2996 RMK AO1 T01330056
ROUNDUP     |KRPX 221615Z AUTO 06005KT 40SM 14/06 A2989 RMK AO1 T01390056
MALTA       |KM75 221615Z AUTO 09013G18KT 40SM 19/04 A2998 RMK AO1 T01940044






000
SXUS55 KMSO 221613
OSOMSO
MONTANA AWOS SUMMARY
NATIONAL WEATHER SERVICE MISSOULA MT
1012 AM MDT FRI MAY 22 2015

Montana AWOS Reports

EKALAKA     |K97M 221555Z AUTO 10016G20KT 40SM 17/05 A3004 RMK AO1 T01670050






000
SXUS55 KMSO 221613
OSOMSO
MONTANA AWOS SUMMARY
NATIONAL WEATHER SERVICE MISSOULA MT
1012 AM MDT FRI MAY 22 2015

Montana AWOS Reports

EKALAKA     |K97M 221555Z AUTO 10016G20KT 40SM 17/05 A3004 RMK AO1 T01670050






000
SXUS55 KMSO 221603
OSOMSO
MONTANA AWOS SUMMARY
NATIONAL WEATHER SERVICE MISSOULA MT
1002 AM MDT FRI MAY 22 2015

Montana AWOS Reports

LAUREL      |K6S8 221555Z AUTO 00000KT 40SM 13/06 A2995 RMK AO1 T01330061
ROUNDUP     |KRPX 221555Z AUTO 00000KT 40SM 13/05 A2989 RMK AO1 T01330050
MALTA       |KM75 221555Z AUTO 09013G20KT 40SM 19/05 A2998 RMK AO1 T01890050
TWIN BRIDGES|K7S1 221555Z AUTO 00000KT 15SM 13/06 A2996 RMK AO1 T01330056






000
SXUS55 KMSO 221553
OSOMSO
MONTANA AWOS SUMMARY
NATIONAL WEATHER SERVICE MISSOULA MT
953 AM MDT FRI MAY 22 2015

Montana AWOS Reports

TWIN BRIDGES|K7S1 221535Z AUTO 00000KT 40SM 12/05 A2996 RMK AO1 T01220050






000
SXUS55 KMSO 221553
OSOMSO
MONTANA AWOS SUMMARY
NATIONAL WEATHER SERVICE MISSOULA MT
953 AM MDT FRI MAY 22 2015

Montana AWOS Reports

TWIN BRIDGES|K7S1 221535Z AUTO 00000KT 40SM 12/05 A2996 RMK AO1 T01220050






000
SXUS55 KMSO 221543
OSOMSO
MONTANA AWOS SUMMARY
NATIONAL WEATHER SERVICE MISSOULA MT
943 AM MDT FRI MAY 22 2015

Montana AWOS Reports

LAUREL      |K6S8 221535Z AUTO 00000KT 40SM 13/06 A2996 RMK AO1 T01280061
ROUNDUP     |KRPX 221535Z AUTO 00000KT 40SM 13/04 A2990 RMK AO1 T01280044
MALTA       |KM75 221535Z AUTO 09013G19KT 40SM 18/06 A2998 RMK AO1 T01830056






000
SXUS55 KMSO 221523
OSOMSO
MONTANA AWOS SUMMARY
NATIONAL WEATHER SERVICE MISSOULA MT
922 AM MDT FRI MAY 22 2015

Montana AWOS Reports

TWIN BRIDGES|K7S1 221515Z AUTO 00000KT 40SM 11/06 A2996 RMK AO1 T01110056






000
SXUS55 KMSO 221503
OSOMSO
MONTANA AWOS SUMMARY
NATIONAL WEATHER SERVICE MISSOULA MT
903 AM MDT FRI MAY 22 2015

Montana AWOS Reports

LAUREL      |K6S8 221455Z AUTO 00000KT 25SM 12/05 A2995 RMK AO1 T01170050
ROUNDUP     |KRPX 221455Z AUTO 06005KT 40SM 12/04 A2990 RMK AO1 T01220039
MALTA       |KM75 221455Z AUTO 00000KT 40SM 16/05 A3000 RMK AO1 T01560050
TWIN BRIDGES|K7S1 221455Z AUTO 14004KT 40SM 11/05 A2996 RMK AO1 T01060050
TWIN BRIDGES|K7S1 221455Z AUTO 14004KT 40SM 11/05 A2996 RMK AO1 T01060050






000
SXUS55 KMSO 221453
OSOMSO
MONTANA AWOS SUMMARY
NATIONAL WEATHER SERVICE MISSOULA MT
853 AM MDT FRI MAY 22 2015

Montana AWOS Reports

TWIN BRIDGES|K7S1 221435Z AUTO 00000KT 40SM 11/05 A2996 RMK AO1 T01060050






000
SXUS55 KMSO 221443
OSOMSO
MONTANA AWOS SUMMARY
NATIONAL WEATHER SERVICE MISSOULA MT
842 AM MDT FRI MAY 22 2015

Montana AWOS Reports

LAUREL      |K6S8 221435Z AUTO 00000KT 40SM 11/06 A2996 RMK AO1 T01110056
ROUNDUP     |KRPX 221435Z AUTO 00000KT 40SM 11/03 A2990 RMK AO1 T01110033
MALTA       |KM75 221435Z AUTO 03007KT 40SM 14/04 A3000 RMK AO1 T01440039






000
SXUS55 KMSO 221423
OSOMSO
MONTANA AWOS SUMMARY
NATIONAL WEATHER SERVICE MISSOULA MT
823 AM MDT FRI MAY 22 2015

Montana AWOS Reports

TWIN BRIDGES|K7S1 221415Z AUTO 00000KT 40SM 10/05 A2997 RMK AO1 T01000050
MALTA       |KM75 221415Z AUTO 04007KT 40SM 13/04 A3001 RMK AO1 T01280039






000
SXUS55 KMSO 221403
OSOMSO
MONTANA AWOS SUMMARY
NATIONAL WEATHER SERVICE MISSOULA MT
803 AM MDT FRI MAY 22 2015

Montana AWOS Reports

TWIN BRIDGES|K7S1 221355Z AUTO 00000KT 40SM 09/04 A2997 RMK AO1 T00890044
EKALAKA     |K97M 221355Z AUTO 10008KT 40SM 13/05 A3004 RMK AO1 T01280050






000
SXUS55 KMSO 221353
OSOMSO
MONTANA AWOS SUMMARY
NATIONAL WEATHER SERVICE MISSOULA MT
752 AM MDT FRI MAY 22 2015

Montana AWOS Reports

TWIN BRIDGES|K7S1 221335Z AUTO 00000KT 40SM 08/04 A2997 RMK AO1 T00780039






000
SXUS55 KMSO 221343
OSOMSO
MONTANA AWOS SUMMARY
NATIONAL WEATHER SERVICE MISSOULA MT
742 AM MDT FRI MAY 22 2015

Montana AWOS Reports

LAUREL      |K6S8 221335Z AUTO 00000KT 40SM 08/04 A2996 RMK AO1 T00830044
ROUNDUP     |KRPX 221335Z AUTO 04004KT 40SM 09/02 A2990 RMK AO1 T00890017
MALTA       |KM75 221335Z AUTO 04007KT 40SM 11/03 A3001 RMK AO1 T01110028






000
SXUS55 KMSO 221323
OSOMSO
MONTANA AWOS SUMMARY
NATIONAL WEATHER SERVICE MISSOULA MT
723 AM MDT FRI MAY 22 2015

Montana AWOS Reports

LAUREL      |K6S8 221315Z AUTO 00000KT 40SM 08/04 A2996 RMK AO1 T00780044
ROUNDUP     |KRPX 221315Z AUTO 00000KT 40SM 07/01 A2990 RMK AO1 T00720011
MALTA       |KM75 221315Z AUTO 04008KT 40SM 11/02 A3001 RMK AO1 T01060022
TWIN BRIDGES|K7S1 221315Z AUTO 00000KT 40SM 07/04 A2997 RMK AO1 T00720039






000
SXUS55 KMSO 221303
OSOMSO
MONTANA AWOS SUMMARY
NATIONAL WEATHER SERVICE MISSOULA MT
703 AM MDT FRI MAY 22 2015

Montana AWOS Reports

LAUREL      |K6S8 221255Z AUTO 00000KT 40SM 07/04 A2996 RMK AO1 T00720039
ROUNDUP     |KRPX 221255Z AUTO 00000KT 40SM 06/00 A2990 RMK AO1 T00560000
MALTA       |KM75 221255Z AUTO 03005KT 40SM 09/02 A3000 RMK AO1 T00940022
EKALAKA     |K97M 221255Z AUTO 12008KT 40SM 11/03 A3004 RMK AO1 T01060033
TWIN BRIDGES|K7S1 221255Z AUTO 00000KT 40SM 07/03 A2997 RMK AO1 T00670033






000
SXUS55 KMSO 221243
OSOMSO
MONTANA AWOS SUMMARY
NATIONAL WEATHER SERVICE MISSOULA MT
643 AM MDT FRI MAY 22 2015

Montana AWOS Reports

LAUREL      |K6S8 221235Z AUTO 00000KT 40SM 06/03 A2996 RMK AO1 T00610028
ROUNDUP     |KRPX 221235Z AUTO 00000KT 40SM 06/M01 A2990 RMK AO1 T00561005
TWIN BRIDGES|K7S1 221235Z AUTO 00000KT 25SM 06/03 A2996 RMK AO1 T00610028
MALTA       |KM75 221235Z AUTO 03006KT 40SM 08/02 A3000 RMK AO1 T00780017






000
SXUS55 KMSO 221243
OSOMSO
MONTANA AWOS SUMMARY
NATIONAL WEATHER SERVICE MISSOULA MT
643 AM MDT FRI MAY 22 2015

Montana AWOS Reports

LAUREL      |K6S8 221235Z AUTO 00000KT 40SM 06/03 A2996 RMK AO1 T00610028
ROUNDUP     |KRPX 221235Z AUTO 00000KT 40SM 06/M01 A2990 RMK AO1 T00561005
TWIN BRIDGES|K7S1 221235Z AUTO 00000KT 25SM 06/03 A2996 RMK AO1 T00610028
MALTA       |KM75 221235Z AUTO 03006KT 40SM 08/02 A3000 RMK AO1 T00780017






000
SXUS55 KMSO 221223
OSOMSO
MONTANA AWOS SUMMARY
NATIONAL WEATHER SERVICE MISSOULA MT
623 AM MDT FRI MAY 22 2015

Montana AWOS Reports

LAUREL      |K6S8 221215Z AUTO 00000KT 40SM 06/03 A2996 RMK AO1 T00610028
ROUNDUP     |KRPX 221215Z AUTO 00000KT 40SM 06/M01 A2990 RMK AO1 T00561005
MALTA       |KM75 221215Z AUTO 00000KT 40SM 06/01 A3000 RMK AO1 T00610011
TWIN BRIDGES|K7S1 221215Z AUTO 00000KT 40SM 06/03 A2996 RMK AO1 T00610028






000
SXUS55 KMSO 221223
OSOMSO
MONTANA AWOS SUMMARY
NATIONAL WEATHER SERVICE MISSOULA MT
623 AM MDT FRI MAY 22 2015

Montana AWOS Reports

LAUREL      |K6S8 221215Z AUTO 00000KT 40SM 06/03 A2996 RMK AO1 T00610028
ROUNDUP     |KRPX 221215Z AUTO 00000KT 40SM 06/M01 A2990 RMK AO1 T00561005
MALTA       |KM75 221215Z AUTO 00000KT 40SM 06/01 A3000 RMK AO1 T00610011
TWIN BRIDGES|K7S1 221215Z AUTO 00000KT 40SM 06/03 A2996 RMK AO1 T00610028






000
SXUS55 KMSO 221203
OSOMSO
MONTANA AWOS SUMMARY
NATIONAL WEATHER SERVICE MISSOULA MT
603 AM MDT FRI MAY 22 2015

Montana AWOS Reports

LAUREL      |K6S8 221155Z AUTO 00000KT 40SM 06/03 A2995 RMK AO1 T00610028
TWIN BRIDGES|K7S1 221155Z AUTO 00000KT 40SM 07/03 A2996 RMK AO1 T00720033
ROUNDUP     |KRPX 221155Z AUTO 00000KT 40SM 06/M01 A2990 RMK AO1 T00561005
MALTA       |KM75 221155Z AUTO 00000KT 40SM 05/01 A3000 RMK AO1 T00500006
EKALAKA     |K97M 221155Z AUTO 13006KT 40SM 09/02 A3005 RMK AO1 T00940022






000
SXUS55 KMSO 221203
OSOMSO
MONTANA AWOS SUMMARY
NATIONAL WEATHER SERVICE MISSOULA MT
603 AM MDT FRI MAY 22 2015

Montana AWOS Reports

LAUREL      |K6S8 221155Z AUTO 00000KT 40SM 06/03 A2995 RMK AO1 T00610028
TWIN BRIDGES|K7S1 221155Z AUTO 00000KT 40SM 07/03 A2996 RMK AO1 T00720033
ROUNDUP     |KRPX 221155Z AUTO 00000KT 40SM 06/M01 A2990 RMK AO1 T00561005
MALTA       |KM75 221155Z AUTO 00000KT 40SM 05/01 A3000 RMK AO1 T00500006
EKALAKA     |K97M 221155Z AUTO 13006KT 40SM 09/02 A3005 RMK AO1 T00940022






000
SXUS55 KMSO 221143
OSOMSO
MONTANA AWOS SUMMARY
NATIONAL WEATHER SERVICE MISSOULA MT
543 AM MDT FRI MAY 22 2015

Montana AWOS Reports

LAUREL      |K6S8 221135Z AUTO 00000KT 40SM 07/03 A2995 RMK AO1 T00670028
ROUNDUP     |KRPX 221135Z AUTO 00000KT 40SM 05/M01 A2990 RMK AO1 T00501010
MALTA       |KM75 221135Z AUTO 00000KT 40SM 05/00 A3000 RMK AO1 T00500000
TWIN BRIDGES|K7S1 221135Z AUTO 00000KT 40SM 08/03 A2997 RMK AO1 T00780033






000
SXUS55 KMSO 221143
OSOMSO
MONTANA AWOS SUMMARY
NATIONAL WEATHER SERVICE MISSOULA MT
543 AM MDT FRI MAY 22 2015

Montana AWOS Reports

LAUREL      |K6S8 221135Z AUTO 00000KT 40SM 07/03 A2995 RMK AO1 T00670028
ROUNDUP     |KRPX 221135Z AUTO 00000KT 40SM 05/M01 A2990 RMK AO1 T00501010
MALTA       |KM75 221135Z AUTO 00000KT 40SM 05/00 A3000 RMK AO1 T00500000
TWIN BRIDGES|K7S1 221135Z AUTO 00000KT 40SM 08/03 A2997 RMK AO1 T00780033






000
SXUS55 KMSO 221123
OSOMSO
MONTANA AWOS SUMMARY
NATIONAL WEATHER SERVICE MISSOULA MT
523 AM MDT FRI MAY 22 2015

Montana AWOS Reports

LAUREL      |K6S8 221115Z AUTO 30004KT 40SM 07/02 A2995 RMK AO1 T00670022
ROUNDUP     |KRPX 221115Z AUTO 00000KT 40SM 06/M01 A2990 RMK AO1 T00561005
MALTA       |KM75 221115Z AUTO 00000KT 40SM 05/M01 A3000 RMK AO1 T00501005
TWIN BRIDGES|K7S1 221115Z AUTO 00000KT 40SM 08/03 A2997 RMK AO1 T00780033






000
SXUS55 KMSO 221123
OSOMSO
MONTANA AWOS SUMMARY
NATIONAL WEATHER SERVICE MISSOULA MT
523 AM MDT FRI MAY 22 2015

Montana AWOS Reports

LAUREL      |K6S8 221115Z AUTO 30004KT 40SM 07/02 A2995 RMK AO1 T00670022
ROUNDUP     |KRPX 221115Z AUTO 00000KT 40SM 06/M01 A2990 RMK AO1 T00561005
MALTA       |KM75 221115Z AUTO 00000KT 40SM 05/M01 A3000 RMK AO1 T00501005
TWIN BRIDGES|K7S1 221115Z AUTO 00000KT 40SM 08/03 A2997 RMK AO1 T00780033






000
SXUS55 KMSO 221113
OSOMSO
MONTANA AWOS SUMMARY
NATIONAL WEATHER SERVICE MISSOULA MT
513 AM MDT FRI MAY 22 2015

Montana AWOS Reports

EKALAKA     |K97M 221055Z AUTO 13007KT 40SM 08/01 A3005 RMK AO1 T00830011






000
SXUS55 KMSO 221113
OSOMSO
MONTANA AWOS SUMMARY
NATIONAL WEATHER SERVICE MISSOULA MT
513 AM MDT FRI MAY 22 2015

Montana AWOS Reports

EKALAKA     |K97M 221055Z AUTO 13007KT 40SM 08/01 A3005 RMK AO1 T00830011






000
SXUS55 KMSO 221103
OSOMSO
MONTANA AWOS SUMMARY
NATIONAL WEATHER SERVICE MISSOULA MT
503 AM MDT FRI MAY 22 2015

Montana AWOS Reports

LAUREL      |K6S8 221055Z AUTO 00000KT 40SM 07/03 A2995 RMK AO1 T00720028
ROUNDUP     |KRPX 221055Z AUTO 00000KT 40SM 06/M01 A2990 RMK AO1 T00561005
MALTA       |KM75 221055Z AUTO 00000KT 40SM 07/00 A2999 RMK AO1 T00670000
TWIN BRIDGES|K7S1 221055Z AUTO 00000KT 40SM 07/03 A2997 RMK AO1 T00670028






000
SXUS55 KMSO 221043
OSOMSO
MONTANA AWOS SUMMARY
NATIONAL WEATHER SERVICE MISSOULA MT
443 AM MDT FRI MAY 22 2015

Montana AWOS Reports

LAUREL      |K6S8 221035Z AUTO 00000KT 40SM 08/03 A2995 RMK AO1 T00780028
ROUNDUP     |KRPX 221035Z AUTO 00000KT 40SM 06/00 A2990 RMK AO1 T00610000
MALTA       |KM75 221035Z AUTO 00000KT 40SM 08/01 A2999 RMK AO1 T00780006
TWIN BRIDGES|K7S1 221035Z AUTO 00000KT 40SM 07/03 A2997 RMK AO1 T00670028






000
SXUS55 KMSO 221043
OSOMSO
MONTANA AWOS SUMMARY
NATIONAL WEATHER SERVICE MISSOULA MT
443 AM MDT FRI MAY 22 2015

Montana AWOS Reports

LAUREL      |K6S8 221035Z AUTO 00000KT 40SM 08/03 A2995 RMK AO1 T00780028
ROUNDUP     |KRPX 221035Z AUTO 00000KT 40SM 06/00 A2990 RMK AO1 T00610000
MALTA       |KM75 221035Z AUTO 00000KT 40SM 08/01 A2999 RMK AO1 T00780006
TWIN BRIDGES|K7S1 221035Z AUTO 00000KT 40SM 07/03 A2997 RMK AO1 T00670028






000
SXUS55 KMSO 221023
OSOMSO
MONTANA AWOS SUMMARY
NATIONAL WEATHER SERVICE MISSOULA MT
422 AM MDT FRI MAY 22 2015

Montana AWOS Reports

LAUREL      |K6S8 221015Z AUTO 00000KT 40SM 08/03 A2995 RMK AO1 T00780028
ROUNDUP     |KRPX 221015Z AUTO 00000KT 40SM 06/00 A2990 RMK AO1 T00610000
MALTA       |KM75 221015Z AUTO 00000KT 40SM 08/01 A3000 RMK AO1 T00830006
TWIN BRIDGES|K7S1 221015Z AUTO 00000KT 40SM 07/03 A2997 RMK AO1 T00720033






000
SXUS55 KMSO 221023
OSOMSO
MONTANA AWOS SUMMARY
NATIONAL WEATHER SERVICE MISSOULA MT
422 AM MDT FRI MAY 22 2015

Montana AWOS Reports

LAUREL      |K6S8 221015Z AUTO 00000KT 40SM 08/03 A2995 RMK AO1 T00780028
ROUNDUP     |KRPX 221015Z AUTO 00000KT 40SM 06/00 A2990 RMK AO1 T00610000
MALTA       |KM75 221015Z AUTO 00000KT 40SM 08/01 A3000 RMK AO1 T00830006
TWIN BRIDGES|K7S1 221015Z AUTO 00000KT 40SM 07/03 A2997 RMK AO1 T00720033






000
SXUS55 KMSO 221003
OSOMSO
MONTANA AWOS SUMMARY
NATIONAL WEATHER SERVICE MISSOULA MT
403 AM MDT FRI MAY 22 2015

Montana AWOS Reports

EKALAKA     |K97M 220955Z AUTO 12009KT 40SM 08/00 A3005 RMK AO1 T00780000
TWIN BRIDGES|K7S1 220955Z AUTO 00000KT 40SM 08/03 A2996 RMK AO1 T00780033






000
SXUS55 KMSO 220943
OSOMSO
MONTANA AWOS SUMMARY
NATIONAL WEATHER SERVICE MISSOULA MT
343 AM MDT FRI MAY 22 2015

Montana AWOS Reports

TWIN BRIDGES|K7S1 220935Z AUTO 00000KT 40SM 07/03 A2996 RMK AO1 T00720028






000
SXUS55 KMSO 220924
OSOMSO
MONTANA AWOS SUMMARY
NATIONAL WEATHER SERVICE MISSOULA MT
323 AM MDT FRI MAY 22 2015

Montana AWOS Reports

LAUREL      |K6S8 220915Z AUTO 00000KT 40SM 08/03 A2994 RMK AO1 T00830033
ROUNDUP     |KRPX 220915Z AUTO 00000KT 40SM 07/01 A2990 RMK AO1 T00720006
TWIN BRIDGES|K7S1 220915Z AUTO 00000KT 40SM 07/02 A2996 RMK AO1 T00670022
MALTA       |KM75 220915Z AUTO 00000KT 40SM 09/00 A3000 RMK AO1 T00940000






000
SXUS55 KMSO 220913
OSOMSO
MONTANA AWOS SUMMARY
NATIONAL WEATHER SERVICE MISSOULA MT
313 AM MDT FRI MAY 22 2015

Montana AWOS Reports

EKALAKA     |K97M 220855Z AUTO 12007KT 40SM 08/M01 A3004 RMK AO1 T00831005






000
SXUS55 KMSO 220913
OSOMSO
MONTANA AWOS SUMMARY
NATIONAL WEATHER SERVICE MISSOULA MT
313 AM MDT FRI MAY 22 2015

Montana AWOS Reports

EKALAKA     |K97M 220855Z AUTO 12007KT 40SM 08/M01 A3004 RMK AO1 T00831005






000
SXUS55 KMSO 220903
OSOMSO
MONTANA AWOS SUMMARY
NATIONAL WEATHER SERVICE MISSOULA MT
302 AM MDT FRI MAY 22 2015

Montana AWOS Reports

LAUREL      |K6S8 220855Z AUTO 00000KT 40SM 08/03 A2994 RMK AO1 T00830033
TWIN BRIDGES|K7S1 220855Z AUTO 00000KT 40SM 07/03 A2996 RMK AO1 T00720028
ROUNDUP     |KRPX 220855Z AUTO 00000KT 40SM 07/02 A2990 RMK AO1 T00720017
MALTA       |KM75 220855Z AUTO 04005KT 40SM 09/00 A3000 RMK AO1 T00940000






000
SXUS55 KMSO 220903
OSOMSO
MONTANA AWOS SUMMARY
NATIONAL WEATHER SERVICE MISSOULA MT
302 AM MDT FRI MAY 22 2015

Montana AWOS Reports

LAUREL      |K6S8 220855Z AUTO 00000KT 40SM 08/03 A2994 RMK AO1 T00830033
TWIN BRIDGES|K7S1 220855Z AUTO 00000KT 40SM 07/03 A2996 RMK AO1 T00720028
ROUNDUP     |KRPX 220855Z AUTO 00000KT 40SM 07/02 A2990 RMK AO1 T00720017
MALTA       |KM75 220855Z AUTO 04005KT 40SM 09/00 A3000 RMK AO1 T00940000






000
SXUS55 KMSO 220843
OSOMSO
MONTANA AWOS SUMMARY
NATIONAL WEATHER SERVICE MISSOULA MT
243 AM MDT FRI MAY 22 2015

Montana AWOS Reports

LAUREL      |K6S8 220835Z AUTO 00000KT 40SM 08/03 A2994 RMK AO1 T00780028
TWIN BRIDGES|K7S1 220835Z AUTO 00000KT 40SM 08/03 A2996 RMK AO1 T00830028
ROUNDUP     |KRPX 220835Z AUTO 00000KT 40SM 08/02 A2991 RMK AO1 T00780022
MALTA       |KM75 220835Z AUTO 06005KT 40SM 11/00 A3000 RMK AO1 T01110000






000
SXUS55 KMSO 220843
OSOMSO
MONTANA AWOS SUMMARY
NATIONAL WEATHER SERVICE MISSOULA MT
243 AM MDT FRI MAY 22 2015

Montana AWOS Reports

LAUREL      |K6S8 220835Z AUTO 00000KT 40SM 08/03 A2994 RMK AO1 T00780028
TWIN BRIDGES|K7S1 220835Z AUTO 00000KT 40SM 08/03 A2996 RMK AO1 T00830028
ROUNDUP     |KRPX 220835Z AUTO 00000KT 40SM 08/02 A2991 RMK AO1 T00780022
MALTA       |KM75 220835Z AUTO 06005KT 40SM 11/00 A3000 RMK AO1 T01110000






000
SXUS55 KMSO 220823
OSOMSO
MONTANA AWOS SUMMARY
NATIONAL WEATHER SERVICE MISSOULA MT
223 AM MDT FRI MAY 22 2015

Montana AWOS Reports

LAUREL      |K6S8 220815Z AUTO 00000KT 40SM 08/02 A2995 RMK AO1 T00830022
ROUNDUP     |KRPX 220815Z AUTO 00000KT 40SM 08/02 A2991 RMK AO1 T00830022
MALTA       |KM75 220815Z AUTO 10005KT 40SM 12/M01 A3000 RMK AO1 T01221005
TWIN BRIDGES|K7S1 220815Z AUTO 02004KT 40SM 10/04 A2996 RMK AO1 T01000039






000
SXUS55 KMSO 220803
OSOMSO
MONTANA AWOS SUMMARY
NATIONAL WEATHER SERVICE MISSOULA MT
203 AM MDT FRI MAY 22 2015

Montana AWOS Reports

TWIN BRIDGES|K7S1 220755Z AUTO 02006KT 40SM 11/04 A2996 RMK AO1 T01060039
MALTA       |KM75 220755Z AUTO 11007KT 40SM 12/M01 A3000 RMK AO1 T01171005
EKALAKA     |K97M 220755Z AUTO 12007KT 40SM 09/M01 A3007 RMK AO1 T00891010






000
SXUS55 KMSO 220743
OSOMSO
MONTANA AWOS SUMMARY
NATIONAL WEATHER SERVICE MISSOULA MT
142 AM MDT FRI MAY 22 2015

Montana AWOS Reports

TWIN BRIDGES|K7S1 220735Z AUTO 01005KT 40SM 11/04 A2996 RMK AO1 T01060039
MALTA       |KM75 220735Z AUTO 09008KT 40SM 11/00 A3000 RMK AO1 T01110000






000
SXUS55 KMSO 220743
OSOMSO
MONTANA AWOS SUMMARY
NATIONAL WEATHER SERVICE MISSOULA MT
142 AM MDT FRI MAY 22 2015

Montana AWOS Reports

TWIN BRIDGES|K7S1 220735Z AUTO 01005KT 40SM 11/04 A2996 RMK AO1 T01060039
MALTA       |KM75 220735Z AUTO 09008KT 40SM 11/00 A3000 RMK AO1 T01110000






000
SXUS55 KMSO 220723
OSOMSO
MONTANA AWOS SUMMARY
NATIONAL WEATHER SERVICE MISSOULA MT
123 AM MDT FRI MAY 22 2015

Montana AWOS Reports

LAUREL      |K6S8 220715Z AUTO 00000KT 40SM 09/02 A2995 RMK AO1 T00940022
ROUNDUP     |KRPX 220715Z AUTO 00000KT 40SM 10/03 A2991 RMK AO1 T01000028
MALTA       |KM75 220715Z AUTO 09006KT 40SM 11/00 A3000 RMK AO1 T01060000
TWIN BRIDGES|K7S1 220715Z AUTO 01007KT 40SM 11/04 A2996 RMK AO1 T01110044






000
SXUS55 KMSO 220713
OSOMSO
MONTANA AWOS SUMMARY
NATIONAL WEATHER SERVICE MISSOULA MT
112 AM MDT FRI MAY 22 2015

Montana AWOS Reports

EKALAKA     |K97M 220655Z AUTO 13008KT 40SM 09/M03 A3007 RMK AO1 T00891027






000
SXUS55 KMSO 220713
OSOMSO
MONTANA AWOS SUMMARY
NATIONAL WEATHER SERVICE MISSOULA MT
112 AM MDT FRI MAY 22 2015

Montana AWOS Reports

EKALAKA     |K97M 220655Z AUTO 13008KT 40SM 09/M03 A3007 RMK AO1 T00891027






000
SXUS55 KMSO 220703
OSOMSO
MONTANA AWOS SUMMARY
NATIONAL WEATHER SERVICE MISSOULA MT
103 AM MDT FRI MAY 22 2015

Montana AWOS Reports

TWIN BRIDGES|K7S1 220655Z AUTO 36006KT 40SM 12/04 A2996 RMK AO1 T01170044
ROUNDUP     |KRPX 220655Z AUTO 00000KT 40SM 11/03 A2992 RMK AO1 T01060028
MALTA       |KM75 220655Z AUTO 07005KT 40SM 09/00 A3001 RMK AO1 T00940000
LAUREL      |K6S8 220655Z AUTO 00000KT 40SM 10/03 A2995 RMK AO1 T01000028






000
SXUS55 KMSO 220703
OSOMSO
MONTANA AWOS SUMMARY
NATIONAL WEATHER SERVICE MISSOULA MT
103 AM MDT FRI MAY 22 2015

Montana AWOS Reports

TWIN BRIDGES|K7S1 220655Z AUTO 36006KT 40SM 12/04 A2996 RMK AO1 T01170044
ROUNDUP     |KRPX 220655Z AUTO 00000KT 40SM 11/03 A2992 RMK AO1 T01060028
MALTA       |KM75 220655Z AUTO 07005KT 40SM 09/00 A3001 RMK AO1 T00940000
LAUREL      |K6S8 220655Z AUTO 00000KT 40SM 10/03 A2995 RMK AO1 T01000028






000
SXUS55 KMSO 220653
OSOMSO
MONTANA AWOS SUMMARY
NATIONAL WEATHER SERVICE MISSOULA MT
1253 AM MDT FRI MAY 22 2015

Montana AWOS Reports

MALTA       |KM75 220635Z AUTO 00000KT 40SM 09/01 A3001 RMK AO1 T00940006






000
SXUS55 KMSO 220653
OSOMSO
MONTANA AWOS SUMMARY
NATIONAL WEATHER SERVICE MISSOULA MT
1253 AM MDT FRI MAY 22 2015

Montana AWOS Reports

MALTA       |KM75 220635Z AUTO 00000KT 40SM 09/01 A3001 RMK AO1 T00940006






000
SXUS55 KMSO 220643
OSOMSO
MONTANA AWOS SUMMARY
NATIONAL WEATHER SERVICE MISSOULA MT
1242 AM MDT FRI MAY 22 2015

Montana AWOS Reports

LAUREL      |K6S8 220635Z AUTO 00000KT 40SM 10/03 A2995 RMK AO1 T01000028
TWIN BRIDGES|K7S1 220635Z AUTO 01008KT 40SM 11/04 A2996 RMK AO1 T01110039
ROUNDUP     |KRPX 220635Z AUTO 00000KT 40SM 10/03 A2992 RMK AO1 T01000028






000
SXUS55 KMSO 220643
OSOMSO
MONTANA AWOS SUMMARY
NATIONAL WEATHER SERVICE MISSOULA MT
1242 AM MDT FRI MAY 22 2015

Montana AWOS Reports

LAUREL      |K6S8 220635Z AUTO 00000KT 40SM 10/03 A2995 RMK AO1 T01000028
TWIN BRIDGES|K7S1 220635Z AUTO 01008KT 40SM 11/04 A2996 RMK AO1 T01110039
ROUNDUP     |KRPX 220635Z AUTO 00000KT 40SM 10/03 A2992 RMK AO1 T01000028






000
SXUS55 KMSO 220623
OSOMSO
MONTANA AWOS SUMMARY
NATIONAL WEATHER SERVICE MISSOULA MT
1222 AM MDT FRI MAY 22 2015

Montana AWOS Reports

LAUREL      |K6S8 220615Z AUTO 00000KT 40SM 11/02 A2995 RMK AO1 T01060022
LAUREL      |K6S8 220615Z AUTO 00000KT 40SM 11/02 A2995 RMK AO1 T01060022
TWIN BRIDGES|K7S1 220615Z AUTO 01006KT 40SM 11/04 A2996 RMK AO1 T01060039
ROUNDUP     |KRPX 220615Z AUTO 00000KT 40SM 11/02 A2992 RMK AO1 T01060022
MALTA       |KM75 220615Z AUTO 00000KT 40SM 09/01 A3001 RMK AO1 T00940006






000
SXUS55 KMSO 220603
OSOMSO
MONTANA AWOS SUMMARY
NATIONAL WEATHER SERVICE MISSOULA MT
1202 AM MDT FRI MAY 22 2015

Montana AWOS Reports

LAUREL      |K6S8 220555Z AUTO 00000KT 40SM 11/02 A2996 RMK AO1 T01110022
TWIN BRIDGES|K7S1 220555Z AUTO 01007KT 40SM 11/04 A2996 RMK AO1 T01110044
ROUNDUP     |KRPX 220555Z AUTO 00000KT 40SM 11/03 A2992 RMK AO1 T01110028
MALTA       |KM75 220555Z AUTO 00000KT 40SM 09/00 A3001 RMK AO1 T00940000






000
SXUS55 KMSO 220603
OSOMSO
MONTANA AWOS SUMMARY
NATIONAL WEATHER SERVICE MISSOULA MT
1202 AM MDT FRI MAY 22 2015

Montana AWOS Reports

LAUREL      |K6S8 220555Z AUTO 00000KT 40SM 11/02 A2996 RMK AO1 T01110022
TWIN BRIDGES|K7S1 220555Z AUTO 01007KT 40SM 11/04 A2996 RMK AO1 T01110044
ROUNDUP     |KRPX 220555Z AUTO 00000KT 40SM 11/03 A2992 RMK AO1 T01110028
MALTA       |KM75 220555Z AUTO 00000KT 40SM 09/00 A3001 RMK AO1 T00940000






000
SXUS55 KMSO 220553
OSOMSO
MONTANA AWOS SUMMARY
NATIONAL WEATHER SERVICE MISSOULA MT
1153 PM MDT THU MAY 21 2015

Montana AWOS Reports

LAUREL      |K6S8 220535Z AUTO 00000KT 40SM 11/02 A2996 RMK AO1 T01110022
ROUNDUP     |KRPX 220535Z AUTO 00000KT 40SM 12/03 A2992 RMK AO1 T01170028






000
SXUS55 KMSO 220543
OSOMSO
MONTANA AWOS SUMMARY
NATIONAL WEATHER SERVICE MISSOULA MT
1143 PM MDT THU MAY 21 2015

Montana AWOS Reports

TWIN BRIDGES|K7S1 220535Z AUTO 36009KT 40SM 12/04 A2995 RMK AO1 T01170044
MALTA       |KM75 220535Z AUTO 04004KT 40SM 09/01 A3001 RMK AO1 T00940006






000
SXUS55 KMSO 220543
OSOMSO
MONTANA AWOS SUMMARY
NATIONAL WEATHER SERVICE MISSOULA MT
1143 PM MDT THU MAY 21 2015

Montana AWOS Reports

TWIN BRIDGES|K7S1 220535Z AUTO 36009KT 40SM 12/04 A2995 RMK AO1 T01170044
MALTA       |KM75 220535Z AUTO 04004KT 40SM 09/01 A3001 RMK AO1 T00940006






000
SXUS55 KMSO 220533
OSOMSO
MONTANA AWOS SUMMARY
NATIONAL WEATHER SERVICE MISSOULA MT
1132 PM MDT THU MAY 21 2015

Montana AWOS Reports

EKALAKA     |K97M 220455Z AUTO 13007KT 40SM 08/M03 A3009 RMK AO1 T00831027






000
SXUS55 KMSO 220533
OSOMSO
MONTANA AWOS SUMMARY
NATIONAL WEATHER SERVICE MISSOULA MT
1132 PM MDT THU MAY 21 2015

Montana AWOS Reports

EKALAKA     |K97M 220455Z AUTO 13007KT 40SM 08/M03 A3009 RMK AO1 T00831027






000
SXUS55 KMSO 220523
OSOMSO
MONTANA AWOS SUMMARY
NATIONAL WEATHER SERVICE MISSOULA MT
1123 PM MDT THU MAY 21 2015

Montana AWOS Reports

MALTA       |KM75 220515Z AUTO 00000KT 40SM 08/01 A3001 RMK AO1 T00830006
LAUREL      |K6S8 220515Z AUTO 00000KT 40SM 12/03 A2996 RMK AO1 T01170028
TWIN BRIDGES|K7S1 220515Z AUTO 35011KT 40SM 12/04 A2996 RMK AO1 T01220044
ROUNDUP     |KRPX 220515Z AUTO 00000KT 40SM 12/03 A2993 RMK AO1 T01220028






000
SXUS55 KMSO 220523
OSOMSO
MONTANA AWOS SUMMARY
NATIONAL WEATHER SERVICE MISSOULA MT
1123 PM MDT THU MAY 21 2015

Montana AWOS Reports

MALTA       |KM75 220515Z AUTO 00000KT 40SM 08/01 A3001 RMK AO1 T00830006
LAUREL      |K6S8 220515Z AUTO 00000KT 40SM 12/03 A2996 RMK AO1 T01170028
TWIN BRIDGES|K7S1 220515Z AUTO 35011KT 40SM 12/04 A2996 RMK AO1 T01220044
ROUNDUP     |KRPX 220515Z AUTO 00000KT 40SM 12/03 A2993 RMK AO1 T01220028






000
SXUS55 KMSO 220513
OSOMSO
MONTANA AWOS SUMMARY
NATIONAL WEATHER SERVICE MISSOULA MT
1113 PM MDT THU MAY 21 2015

Montana AWOS Reports

LAUREL      |K6S8 220455Z AUTO 00000KT 40SM 12/02 A2997 RMK AO1 T01170022
TWIN BRIDGES|K7S1 220455Z AUTO 35008KT 40SM 13/04 A2996 RMK AO1 T01280039
ROUNDUP     |KRPX 220455Z AUTO 00000KT 40SM 12/03 A2993 RMK AO1 T01220028






000
SXUS55 KMSO 220513
OSOMSO
MONTANA AWOS SUMMARY
NATIONAL WEATHER SERVICE MISSOULA MT
1113 PM MDT THU MAY 21 2015

Montana AWOS Reports

LAUREL      |K6S8 220455Z AUTO 00000KT 40SM 12/02 A2997 RMK AO1 T01170022
TWIN BRIDGES|K7S1 220455Z AUTO 35008KT 40SM 13/04 A2996 RMK AO1 T01280039
ROUNDUP     |KRPX 220455Z AUTO 00000KT 40SM 12/03 A2993 RMK AO1 T01220028






000
SXUS55 KMSO 220503
OSOMSO
MONTANA AWOS SUMMARY
NATIONAL WEATHER SERVICE MISSOULA MT
1102 PM MDT THU MAY 21 2015

Montana AWOS Reports

MALTA       |KM75 220455Z AUTO 00000KT 40SM 09/01 A3001 RMK AO1 T00890011






000
SXUS55 KMSO 220443
OSOMSO
MONTANA AWOS SUMMARY
NATIONAL WEATHER SERVICE MISSOULA MT
1043 PM MDT THU MAY 21 2015

Montana AWOS Reports

LAUREL      |K6S8 220435Z AUTO 00000KT 40SM 12/02 A2997 RMK AO1 T01220022
TWIN BRIDGES|K7S1 220435Z AUTO 36007KT 40SM 13/04 A2996 RMK AO1 T01280044
MALTA       |KM75 220435Z AUTO 00000KT 40SM 09/01 A3001 RMK AO1 T00940006
ROUNDUP     |KRPX 220435Z AUTO 00000KT 40SM 13/03 A2993 RMK AO1 T01280028






000
SXUS55 KMSO 220443
OSOMSO
MONTANA AWOS SUMMARY
NATIONAL WEATHER SERVICE MISSOULA MT
1043 PM MDT THU MAY 21 2015

Montana AWOS Reports

LAUREL      |K6S8 220435Z AUTO 00000KT 40SM 12/02 A2997 RMK AO1 T01220022
TWIN BRIDGES|K7S1 220435Z AUTO 36007KT 40SM 13/04 A2996 RMK AO1 T01280044
MALTA       |KM75 220435Z AUTO 00000KT 40SM 09/01 A3001 RMK AO1 T00940006
ROUNDUP     |KRPX 220435Z AUTO 00000KT 40SM 13/03 A2993 RMK AO1 T01280028






000
SXUS55 KMSO 220423
OSOMSO
MONTANA AWOS SUMMARY
NATIONAL WEATHER SERVICE MISSOULA MT
1023 PM MDT THU MAY 21 2015

Montana AWOS Reports

LAUREL      |K6S8 220415Z AUTO 03004KT 40SM 13/03 A2997 RMK AO1 T01280028
TWIN BRIDGES|K7S1 220415Z AUTO 01007KT 40SM 13/04 A2996 RMK AO1 T01280044
MALTA       |KM75 220415Z AUTO 00000KT 40SM 11/01 A3001 RMK AO1 T01060011
ROUNDUP     |KRPX 220415Z AUTO 00000KT 40SM 13/02 A2993 RMK AO1 T01330022






000
SXUS55 KMSO 220423
OSOMSO
MONTANA AWOS SUMMARY
NATIONAL WEATHER SERVICE MISSOULA MT
1023 PM MDT THU MAY 21 2015

Montana AWOS Reports

LAUREL      |K6S8 220415Z AUTO 03004KT 40SM 13/03 A2997 RMK AO1 T01280028
TWIN BRIDGES|K7S1 220415Z AUTO 01007KT 40SM 13/04 A2996 RMK AO1 T01280044
MALTA       |KM75 220415Z AUTO 00000KT 40SM 11/01 A3001 RMK AO1 T01060011
ROUNDUP     |KRPX 220415Z AUTO 00000KT 40SM 13/02 A2993 RMK AO1 T01330022






000
SXUS55 KMSO 220403
OSOMSO
MONTANA AWOS SUMMARY
NATIONAL WEATHER SERVICE MISSOULA MT
1003 PM MDT THU MAY 21 2015

Montana AWOS Reports

LAUREL      |K6S8 220355Z AUTO 03006KT 40SM 13/03 A2998 RMK AO1 T01330033
TWIN BRIDGES|K7S1 220355Z AUTO 01005KT 40SM 13/04 A2996 RMK AO1 T01280044
ROUNDUP     |KRPX 220355Z AUTO 00000KT 40SM 14/03 A2993 RMK AO1 T01390028
MALTA       |KM75 220355Z AUTO 00000KT 40SM 12/02 A3001 RMK AO1 T01170017
EKALAKA     |K97M 220355Z AUTO 13005KT 40SM 09/M03 A3009 RMK AO1 T00891027






000
SXUS55 KMSO 220343
OSOMSO
MONTANA AWOS SUMMARY
NATIONAL WEATHER SERVICE MISSOULA MT
943 PM MDT THU MAY 21 2015

Montana AWOS Reports

LAUREL      |K6S8 220335Z AUTO 03007KT 40SM 14/03 A2998 RMK AO1 T01390033
ROUNDUP     |KRPX 220335Z AUTO 00000KT 40SM 13/02 A2993 RMK AO1 T01330022
MALTA       |KM75 220335Z AUTO 00000KT 40SM 13/01 A3000 RMK AO1 T01280011






000
SXUS55 KMSO 220323
OSOMSO
MONTANA AWOS SUMMARY
NATIONAL WEATHER SERVICE MISSOULA MT
923 PM MDT THU MAY 21 2015

Montana AWOS Reports

LAUREL      |K6S8 220315Z AUTO 04006KT 40SM 14/03 A2998 RMK AO1 T01440033
TWIN BRIDGES|K7S1 220315Z AUTO 36005KT 40SM 14/05 A2996 RMK AO1 T01390050
ROUNDUP     |KRPX 220315Z AUTO 00000KT 40SM 14/02 A2993 RMK AO1 T01390022
MALTA       |KM75 220315Z AUTO 00000KT 40SM 14/02 A3000 RMK AO1 T01440017






000
SXUS55 KMSO 220313
OSOMSO
MONTANA AWOS SUMMARY
NATIONAL WEATHER SERVICE MISSOULA MT
912 PM MDT THU MAY 21 2015

Montana AWOS Reports

EKALAKA     |K97M 220255Z AUTO 13005KT 40SM 11/M02 A3008 RMK AO1 T01061021






000
SXUS55 KMSO 220313
OSOMSO
MONTANA AWOS SUMMARY
NATIONAL WEATHER SERVICE MISSOULA MT
912 PM MDT THU MAY 21 2015

Montana AWOS Reports

EKALAKA     |K97M 220255Z AUTO 13005KT 40SM 11/M02 A3008 RMK AO1 T01061021






000
SXUS55 KMSO 220303
OSOMSO
MONTANA AWOS SUMMARY
NATIONAL WEATHER SERVICE MISSOULA MT
903 PM MDT THU MAY 21 2015

Montana AWOS Reports

LAUREL      |K6S8 220255Z AUTO 05005KT 40SM 15/04 A2997 RMK AO1 T01500039
TWIN BRIDGES|K7S1 220255Z AUTO 00000KT 40SM 14/04 A2996 RMK AO1 T01440039
ROUNDUP     |KRPX 220255Z AUTO 00000KT 40SM 15/02 A2992 RMK AO1 T01500022
MALTA       |KM75 220255Z AUTO 00000KT 40SM 16/01 A3000 RMK AO1 T01610006






000
SXUS55 KMSO 220303
OSOMSO
MONTANA AWOS SUMMARY
NATIONAL WEATHER SERVICE MISSOULA MT
903 PM MDT THU MAY 21 2015

Montana AWOS Reports

LAUREL      |K6S8 220255Z AUTO 05005KT 40SM 15/04 A2997 RMK AO1 T01500039
TWIN BRIDGES|K7S1 220255Z AUTO 00000KT 40SM 14/04 A2996 RMK AO1 T01440039
ROUNDUP     |KRPX 220255Z AUTO 00000KT 40SM 15/02 A2992 RMK AO1 T01500022
MALTA       |KM75 220255Z AUTO 00000KT 40SM 16/01 A3000 RMK AO1 T01610006






000
SXUS55 KMSO 220253
OSOMSO
MONTANA AWOS SUMMARY
NATIONAL WEATHER SERVICE MISSOULA MT
852 PM MDT THU MAY 21 2015

Montana AWOS Reports

ROUNDUP     |KRPX 220235Z AUTO 00000KT 40SM 16/02 A2992 RMK AO1 T01610022






000
SXUS55 KMSO 220243
OSOMSO
MONTANA AWOS SUMMARY
NATIONAL WEATHER SERVICE MISSOULA MT
842 PM MDT THU MAY 21 2015

Montana AWOS Reports

LAUREL      |K6S8 220235Z AUTO 06008KT 40SM 16/03 A2997 RMK AO1 T01610033
TWIN BRIDGES|K7S1 220235Z AUTO 08005KT 40SM 14/03 A2995 RMK AO1 T01440028
MALTA       |KM75 220235Z AUTO 00000KT 25SM 18/01 A2999 RMK AO1 T01780011






000
SXUS55 KMSO 220223
OSOMSO
MONTANA AWOS SUMMARY
NATIONAL WEATHER SERVICE MISSOULA MT
823 PM MDT THU MAY 21 2015

Montana AWOS Reports

LAUREL      |K6S8 220215Z AUTO 07008KT 40SM 17/03 A2997 RMK AO1 T01670033
TWIN BRIDGES|K7S1 220215Z AUTO 09008KT 40SM 15/03 A2995 RMK AO1 T01500033
ROUNDUP     |KRPX 220215Z AUTO 00000KT 40SM 16/02 A2992 RMK AO1 T01610022
MALTA       |KM75 220215Z AUTO 00000KT 40SM 19/02 A2999 RMK AO1 T01940017






000
SXUS55 KMSO 220203
OSOMSO
MONTANA AWOS SUMMARY
NATIONAL WEATHER SERVICE MISSOULA MT
803 PM MDT THU MAY 21 2015

Montana AWOS Reports

LAUREL      |K6S8 220155Z AUTO 06006KT 40SM 17/03 A2996 RMK AO1 T01720033
TWIN BRIDGES|K7S1 220155Z AUTO 11008KT 40SM 15/03 A2995 RMK AO1 T01500033
ROUNDUP     |KRPX 220155Z AUTO 00000KT 40SM 17/02 A2992 RMK AO1 T01670017
MALTA       |KM75 220155Z AUTO 09005KT 40SM 20/00 A2999 RMK AO1 T02000000
EKALAKA     |K97M 220155Z AUTO 11010G14KT 40SM 14/M03 A3007 RMK AO1 T01441027






000
SXUS55 KMSO 220143
OSOMSO
MONTANA AWOS SUMMARY
NATIONAL WEATHER SERVICE MISSOULA MT
743 PM MDT THU MAY 21 2015

Montana AWOS Reports

LAUREL      |K6S8 220135Z AUTO 05006KT 40SM 18/03 A2996 RMK AO1 T01780033
TWIN BRIDGES|K7S1 220135Z AUTO 11009G16KT 40SM 15/03 A2995 RMK AO1 T01500033
ROUNDUP     |KRPX 220135Z AUTO 11004KT 40SM 18/02 A2991 RMK AO1 T01780017
MALTA       |KM75 220135Z AUTO 11006KT 40SM 21/01 A2999 RMK AO1 T02060006






000
SXUS55 KMSO 220123
OSOMSO
MONTANA AWOS SUMMARY
NATIONAL WEATHER SERVICE MISSOULA MT
723 PM MDT THU MAY 21 2015

Montana AWOS Reports

LAUREL      |K6S8 220115Z AUTO 06010KT 40SM 18/03 A2996 RMK AO1 T01830033
TWIN BRIDGES|K7S1 220115Z AUTO 08006KT 40SM 17/03 A2994 RMK AO1 T01670033
MALTA       |KM75 220115Z AUTO 09010G19KT 40SM 21/01 A2999 RMK AO1 T02110006
ROUNDUP     |KRPX 220115Z AUTO 11005KT 40SM 18/02 A2991 RMK AO1 T01830017






000
SXUS55 KMSO 220103
OSOMSO
MONTANA AWOS SUMMARY
NATIONAL WEATHER SERVICE MISSOULA MT
703 PM MDT THU MAY 21 2015

Montana AWOS Reports

ROUNDUP     |KRPX 220055Z AUTO 07008KT 40SM 19/01 A2991 RMK AO1 T01890011
EKALAKA     |K97M 220055Z AUTO 10014G20KT 40SM 17/M04 A3007 RMK AO1 T01671038
TWIN BRIDGES|K7S1 220055Z AUTO 00000KT 40SM 17/02 A2994 RMK AO1 T01670017






000
SXUS55 KMSO 220043
OSOMSO
MONTANA AWOS SUMMARY
NATIONAL WEATHER SERVICE MISSOULA MT
643 PM MDT THU MAY 21 2015

Montana AWOS Reports

LAUREL      |K6S8 220035Z AUTO 05009G14KT 40SM 18/03 A2996 RMK AO1 T01830028
TWIN BRIDGES|K7S1 220035Z AUTO 05005KT 40SM 17/03 A2994 RMK AO1 T01670028
MALTA       |KM75 220035Z AUTO 11011G15KT 40SM 22/00 A2999 RMK AO1 T02170000






000
SXUS55 KMSO 220043
OSOMSO
MONTANA AWOS SUMMARY
NATIONAL WEATHER SERVICE MISSOULA MT
643 PM MDT THU MAY 21 2015

Montana AWOS Reports

LAUREL      |K6S8 220035Z AUTO 05009G14KT 40SM 18/03 A2996 RMK AO1 T01830028
TWIN BRIDGES|K7S1 220035Z AUTO 05005KT 40SM 17/03 A2994 RMK AO1 T01670028
MALTA       |KM75 220035Z AUTO 11011G15KT 40SM 22/00 A2999 RMK AO1 T02170000






000
SXUS55 KMSO 220024
OSOMSO
MONTANA AWOS SUMMARY
NATIONAL WEATHER SERVICE MISSOULA MT
623 PM MDT THU MAY 21 2015

Montana AWOS Reports

EKALAKA     |K97M 212355Z AUTO 10011G19KT 40SM 18/M03 A3007 RMK AO1 T01781032
LAUREL      |K6S8 220015Z AUTO 08008KT 40SM 19/03 A2997 RMK AO1 T01890033
TWIN BRIDGES|K7S1 220015Z AUTO 05013G20KT 40SM 17/03 A2994 RMK AO1 T01670033
ROUNDUP     |KRPX 220015Z AUTO 08011G15KT 40SM 19/00 A2991 RMK AO1 T01940000
MALTA       |KM75 220015Z AUTO 09010G21KT 40SM 22/00 A2999 RMK AO1 T02170000






000
SXUS55 KMSO 220024
OSOMSO
MONTANA AWOS SUMMARY
NATIONAL WEATHER SERVICE MISSOULA MT
623 PM MDT THU MAY 21 2015

Montana AWOS Reports

EKALAKA     |K97M 212355Z AUTO 10011G19KT 40SM 18/M03 A3007 RMK AO1 T01781032
LAUREL      |K6S8 220015Z AUTO 08008KT 40SM 19/03 A2997 RMK AO1 T01890033
TWIN BRIDGES|K7S1 220015Z AUTO 05013G20KT 40SM 17/03 A2994 RMK AO1 T01670033
ROUNDUP     |KRPX 220015Z AUTO 08011G15KT 40SM 19/00 A2991 RMK AO1 T01940000
MALTA       |KM75 220015Z AUTO 09010G21KT 40SM 22/00 A2999 RMK AO1 T02170000






000
SXUS55 KMSO 220004
OSOMSO
MONTANA AWOS SUMMARY
NATIONAL WEATHER SERVICE MISSOULA MT
603 PM MDT THU MAY 21 2015

Montana AWOS Reports

LAUREL      |K6S8 212355Z AUTO 06008KT 40SM 19/03 A2997 RMK AO1 T01890028
TWIN BRIDGES|K7S1 212355Z AUTO 08009G13KT 40SM 17/04 A2994 RMK AO1 T01720039
ROUNDUP     |KRPX 212355Z AUTO 08009G13KT 40SM 20/00 A2992 RMK AO1 T02000000
MALTA       |KM75 212355Z AUTO 11012G19KT 40SM 22/M01 A3000 RMK AO1 T02171005






000
SXUS55 KMSO 220004
OSOMSO
MONTANA AWOS SUMMARY
NATIONAL WEATHER SERVICE MISSOULA MT
603 PM MDT THU MAY 21 2015

Montana AWOS Reports

LAUREL      |K6S8 212355Z AUTO 06008KT 40SM 19/03 A2997 RMK AO1 T01890028
TWIN BRIDGES|K7S1 212355Z AUTO 08009G13KT 40SM 17/04 A2994 RMK AO1 T01720039
ROUNDUP     |KRPX 212355Z AUTO 08009G13KT 40SM 20/00 A2992 RMK AO1 T02000000
MALTA       |KM75 212355Z AUTO 11012G19KT 40SM 22/M01 A3000 RMK AO1 T02171005






000
SXUS55 KMSO 212343
OSOMSO
MONTANA AWOS SUMMARY
NATIONAL WEATHER SERVICE MISSOULA MT
543 PM MDT THU MAY 21 2015

Montana AWOS Reports

LAUREL      |K6S8 212335Z AUTO 07008KT 40SM 19/03 A2998 RMK AO1 T01890033
TWIN BRIDGES|K7S1 212335Z AUTO 01008KT 40SM 18/03 A2994 RMK AO1 T01780033
ROUNDUP     |KRPX 212335Z AUTO 09010G15KT 40SM 20/00 A2992 RMK AO1 T02000000
MALTA       |KM75 212335Z AUTO 09011G16KT 40SM 22/01 A3000 RMK AO1 T02220006






000
SXUS55 KMSO 212333
OSOMSO
MONTANA AWOS SUMMARY
NATIONAL WEATHER SERVICE MISSOULA MT
533 PM MDT THU MAY 21 2015

Montana AWOS Reports

MALTA       |KM75 212315Z AUTO 10012G22KT 40SM 22/00 A3001 RMK AO1 T02220000






000
SXUS55 KMSO 212333
OSOMSO
MONTANA AWOS SUMMARY
NATIONAL WEATHER SERVICE MISSOULA MT
533 PM MDT THU MAY 21 2015

Montana AWOS Reports

MALTA       |KM75 212315Z AUTO 10012G22KT 40SM 22/00 A3001 RMK AO1 T02220000






000
SXUS55 KMSO 212323
OSOMSO
MONTANA AWOS SUMMARY
NATIONAL WEATHER SERVICE MISSOULA MT
523 PM MDT THU MAY 21 2015

Montana AWOS Reports

TWIN BRIDGES|K7S1 212315Z AUTO 03010G17KT 40SM 18/03 A2995 RMK AO1 T01830028
LAUREL      |K6S8 212315Z AUTO 06009G16KT 40SM 19/03 A2998 RMK AO1 T01940033
ROUNDUP     |KRPX 212315Z AUTO 08008KT 40SM 20/00 A2993 RMK AO1 T02000000






000
SXUS55 KMSO 212323
OSOMSO
MONTANA AWOS SUMMARY
NATIONAL WEATHER SERVICE MISSOULA MT
523 PM MDT THU MAY 21 2015

Montana AWOS Reports

TWIN BRIDGES|K7S1 212315Z AUTO 03010G17KT 40SM 18/03 A2995 RMK AO1 T01830028
LAUREL      |K6S8 212315Z AUTO 06009G16KT 40SM 19/03 A2998 RMK AO1 T01940033
ROUNDUP     |KRPX 212315Z AUTO 08008KT 40SM 20/00 A2993 RMK AO1 T02000000






000
SXUS55 KMSO 212313
OSOMSO
MONTANA AWOS SUMMARY
NATIONAL WEATHER SERVICE MISSOULA MT
513 PM MDT THU MAY 21 2015

Montana AWOS Reports

EKALAKA     |K97M 212255Z AUTO 09014G18KT 40SM 18/M03 A3009 RMK AO1 T01831027






000
SXUS55 KMSO 212303
OSOMSO
MONTANA AWOS SUMMARY
NATIONAL WEATHER SERVICE MISSOULA MT
503 PM MDT THU MAY 21 2015

Montana AWOS Reports

TWIN BRIDGES|K7S1 212255Z AUTO 12007KT 40SM 17/02 A2995 RMK AO1 T01720017
MALTA       |KM75 212255Z AUTO 09013G24KT 40SM 22/00 A3002 RMK AO1 T02170000
LAUREL      |K6S8 212255Z AUTO 07008KT 40SM 19/03 A2998 RMK AO1 T01940033
ROUNDUP     |KRPX 212255Z AUTO 06006KT 40SM 19/01 A2993 RMK AO1 T01940006






000
SXUS55 KMSO 212244
OSOMSO
MONTANA AWOS SUMMARY
NATIONAL WEATHER SERVICE MISSOULA MT
443 PM MDT THU MAY 21 2015

Montana AWOS Reports

LAUREL      |K6S8 212235Z AUTO 05008KT 40SM 19/03 A2999 RMK AO1 T01940033
TWIN BRIDGES|K7S1 212235Z AUTO 16012G17KT 40SM 17/03 A2995 RMK AO1 T01720033
ROUNDUP     |KRPX 212235Z AUTO 10010G15KT 40SM 20/00 A2993 RMK AO1 T02000000






000
SXUS55 KMSO 212244
OSOMSO
MONTANA AWOS SUMMARY
NATIONAL WEATHER SERVICE MISSOULA MT
443 PM MDT THU MAY 21 2015

Montana AWOS Reports

LAUREL      |K6S8 212235Z AUTO 05008KT 40SM 19/03 A2999 RMK AO1 T01940033
TWIN BRIDGES|K7S1 212235Z AUTO 16012G17KT 40SM 17/03 A2995 RMK AO1 T01720033
ROUNDUP     |KRPX 212235Z AUTO 10010G15KT 40SM 20/00 A2993 RMK AO1 T02000000






000
SXUS55 KMSO 212233
OSOMSO
MONTANA AWOS SUMMARY
NATIONAL WEATHER SERVICE MISSOULA MT
433 PM MDT THU MAY 21 2015

Montana AWOS Reports

ROUNDUP     |KRPX 212215Z AUTO 08010G16KT 40SM 20/01 A2994 RMK AO1 T02000006






000
SXUS55 KMSO 212233
OSOMSO
MONTANA AWOS SUMMARY
NATIONAL WEATHER SERVICE MISSOULA MT
433 PM MDT THU MAY 21 2015

Montana AWOS Reports

ROUNDUP     |KRPX 212215Z AUTO 08010G16KT 40SM 20/01 A2994 RMK AO1 T02000006






000
SXUS55 KMSO 212223
OSOMSO
MONTANA AWOS SUMMARY
NATIONAL WEATHER SERVICE MISSOULA MT
423 PM MDT THU MAY 21 2015

Montana AWOS Reports

LAUREL      |K6S8 212215Z AUTO 00000KT 40SM 19/03 A3000 RMK AO1 T01940033
TWIN BRIDGES|K7S1 212215Z AUTO 34005KT 40SM 19/02 A2995 RMK AO1 T01890017
MALTA       |KM75 212215Z AUTO 12017G22KT 40SM 22/00 A3003 RMK AO1 T02170000






000
SXUS55 KMSO 212223
OSOMSO
MONTANA AWOS SUMMARY
NATIONAL WEATHER SERVICE MISSOULA MT
423 PM MDT THU MAY 21 2015

Montana AWOS Reports

LAUREL      |K6S8 212215Z AUTO 00000KT 40SM 19/03 A3000 RMK AO1 T01940033
TWIN BRIDGES|K7S1 212215Z AUTO 34005KT 40SM 19/02 A2995 RMK AO1 T01890017
MALTA       |KM75 212215Z AUTO 12017G22KT 40SM 22/00 A3003 RMK AO1 T02170000






000
SXUS55 KMSO 212213
OSOMSO
MONTANA AWOS SUMMARY
NATIONAL WEATHER SERVICE MISSOULA MT
412 PM MDT THU MAY 21 2015

Montana AWOS Reports

EKALAKA     |K97M 212155Z AUTO 12010G17KT 40SM 18/M04 A3010 RMK AO1 T01831038






000
SXUS55 KMSO 212203
OSOMSO
MONTANA AWOS SUMMARY
NATIONAL WEATHER SERVICE MISSOULA MT
403 PM MDT THU MAY 21 2015

Montana AWOS Reports

LAUREL      |K6S8 212155Z AUTO 05005KT 40SM 19/03 A3000 RMK AO1 T01890028
TWIN BRIDGES|K7S1 212155Z AUTO 00000KT 40SM 19/02 A2995 RMK AO1 T01940022
ROUNDUP     |KRPX 212155Z AUTO 10006KT 40SM 20/00 A2994 RMK AO1 T02000000
MALTA       |KM75 212155Z AUTO 09010G20KT 40SM 22/01 A3003 RMK AO1 T02170006






000
SXUS55 KMSO 212143
OSOMSO
MONTANA AWOS SUMMARY
NATIONAL WEATHER SERVICE MISSOULA MT
343 PM MDT THU MAY 21 2015

Montana AWOS Reports

LAUREL      |K6S8 212135Z AUTO 05008KT 40SM 19/02 A3001 RMK AO1 T01890022
TWIN BRIDGES|K7S1 212135Z AUTO 35004KT 40SM 18/01 A2995 RMK AO1 T01830011
ROUNDUP     |KRPX 212135Z AUTO 11007KT 40SM 20/00 A2995 RMK AO1 T02000000
MALTA       |KM75 212135Z AUTO 11013G21KT 40SM 22/01 A3004 RMK AO1 T02170011






000
SXUS55 KMSO 212133
OSOMSO
MONTANA AWOS SUMMARY
NATIONAL WEATHER SERVICE MISSOULA MT
332 PM MDT THU MAY 21 2015

Montana AWOS Reports

ROUNDUP     |KRPX 212115Z AUTO 13005KT 40SM 19/01 A2996 RMK AO1 T01890006






000
SXUS55 KMSO 212133
OSOMSO
MONTANA AWOS SUMMARY
NATIONAL WEATHER SERVICE MISSOULA MT
332 PM MDT THU MAY 21 2015

Montana AWOS Reports

ROUNDUP     |KRPX 212115Z AUTO 13005KT 40SM 19/01 A2996 RMK AO1 T01890006






000
SXUS55 KMSO 212124
OSOMSO
MONTANA AWOS SUMMARY
NATIONAL WEATHER SERVICE MISSOULA MT
323 PM MDT THU MAY 21 2015

Montana AWOS Reports

LAUREL      |K6S8 212115Z AUTO 06004KT 40SM 18/02 A3002 RMK AO1 T01830017
TWIN BRIDGES|K7S1 212115Z AUTO 05004KT 40SM 19/01 A2996 RMK AO1 T01890006
MALTA       |KM75 212115Z AUTO 12015G22KT 40SM 22/00 A3004 RMK AO1 T02170000






000
SXUS55 KMSO 212124
OSOMSO
MONTANA AWOS SUMMARY
NATIONAL WEATHER SERVICE MISSOULA MT
323 PM MDT THU MAY 21 2015

Montana AWOS Reports

LAUREL      |K6S8 212115Z AUTO 06004KT 40SM 18/02 A3002 RMK AO1 T01830017
TWIN BRIDGES|K7S1 212115Z AUTO 05004KT 40SM 19/01 A2996 RMK AO1 T01890006
MALTA       |KM75 212115Z AUTO 12015G22KT 40SM 22/00 A3004 RMK AO1 T02170000






000
SXUS55 KMSO 212103
OSOMSO
MONTANA AWOS SUMMARY
NATIONAL WEATHER SERVICE MISSOULA MT
303 PM MDT THU MAY 21 2015

Montana AWOS Reports

LAUREL      |K6S8 212055Z AUTO 08008KT 40SM 18/02 A3002 RMK AO1 T01830017
TWIN BRIDGES|K7S1 212055Z AUTO 08007KT 40SM 18/02 A2996 RMK AO1 T01830017
ROUNDUP     |KRPX 212055Z AUTO 12007KT 40SM 19/00 A2996 RMK AO1 T01940000
MALTA       |KM75 212055Z AUTO 11016G21KT 40SM 21/M01 A3005 RMK AO1 T02111005
EKALAKA     |K97M 212055Z AUTO 10016G21KT 40SM 18/M03 A3012 RMK AO1 T01831027






000
SXUS55 KMSO 212043
OSOMSO
MONTANA AWOS SUMMARY
NATIONAL WEATHER SERVICE MISSOULA MT
243 PM MDT THU MAY 21 2015

Montana AWOS Reports

ROUNDUP     |KRPX 212035Z AUTO 00000KT 40SM 19/00 A2997 RMK AO1 T01890000






000
SXUS55 KMSO 212043
OSOMSO
MONTANA AWOS SUMMARY
NATIONAL WEATHER SERVICE MISSOULA MT
243 PM MDT THU MAY 21 2015

Montana AWOS Reports

ROUNDUP     |KRPX 212035Z AUTO 00000KT 40SM 19/00 A2997 RMK AO1 T01890000






000
SXUS55 KMSO 212033
OSOMSO
MONTANA AWOS SUMMARY
NATIONAL WEATHER SERVICE MISSOULA MT
233 PM MDT THU MAY 21 2015

Montana AWOS Reports

ROUNDUP     |KRPX 212015Z AUTO 08006KT 40SM 18/00 A2998 RMK AO1 T01830000






000
SXUS55 KMSO 212023
OSOMSO
MONTANA AWOS SUMMARY
NATIONAL WEATHER SERVICE MISSOULA MT
223 PM MDT THU MAY 21 2015

Montana AWOS Reports

LAUREL      |K6S8 212015Z AUTO 05004KT 40SM 18/03 A3003 RMK AO1 T01780033
TWIN BRIDGES|K7S1 212015Z AUTO 01013KT 40SM 18/03 A2998 RMK AO1 T01780028
MALTA       |KM75 212015Z AUTO 13015G22KT 40SM 21/M01 A3007 RMK AO1 T02061005






000
SXUS55 KMSO 212023
OSOMSO
MONTANA AWOS SUMMARY
NATIONAL WEATHER SERVICE MISSOULA MT
223 PM MDT THU MAY 21 2015

Montana AWOS Reports

LAUREL      |K6S8 212015Z AUTO 05004KT 40SM 18/03 A3003 RMK AO1 T01780033
TWIN BRIDGES|K7S1 212015Z AUTO 01013KT 40SM 18/03 A2998 RMK AO1 T01780028
MALTA       |KM75 212015Z AUTO 13015G22KT 40SM 21/M01 A3007 RMK AO1 T02061005






000
SXUS55 KMSO 212003
OSOMSO
MONTANA AWOS SUMMARY
NATIONAL WEATHER SERVICE MISSOULA MT
202 PM MDT THU MAY 21 2015

Montana AWOS Reports

LAUREL      |K6S8 211955Z AUTO 04009G15KT 40SM 18/04 A3004 RMK AO1 T01830039
TWIN BRIDGES|K7S1 211955Z AUTO 03013KT 40SM 17/02 A2998 RMK AO1 T01720022
ROUNDUP     |KRPX 211955Z AUTO 00000KT 40SM 18/M01 A2999 RMK AO1 T01831010
MALTA       |KM75 211955Z AUTO 10013G20KT 40SM 21/01 A3007 RMK AO1 T02060006
EKALAKA     |K97M 211955Z AUTO 11014G20KT 40SM 18/M04 A3013 RMK AO1 T01781043






000
SXUS55 KMSO 211943
OSOMSO
MONTANA AWOS SUMMARY
NATIONAL WEATHER SERVICE MISSOULA MT
143 PM MDT THU MAY 21 2015

Montana AWOS Reports

LAUREL      |K6S8 211935Z AUTO 04005KT 40SM 17/04 A3004 RMK AO1 T01720039
TWIN BRIDGES|K7S1 211935Z AUTO 05014G23KT 40SM 15/03 A2999 RMK AO1 T01500033
ROUNDUP     |KRPX 211935Z AUTO 00000KT 40SM 18/M01 A2999 RMK AO1 T01781010
MALTA       |KM75 211935Z AUTO 11010G24KT 40SM 20/00 A3008 RMK AO1 T02000000






000
SXUS55 KMSO 211943
OSOMSO
MONTANA AWOS SUMMARY
NATIONAL WEATHER SERVICE MISSOULA MT
143 PM MDT THU MAY 21 2015

Montana AWOS Reports

LAUREL      |K6S8 211935Z AUTO 04005KT 40SM 17/04 A3004 RMK AO1 T01720039
TWIN BRIDGES|K7S1 211935Z AUTO 05014G23KT 40SM 15/03 A2999 RMK AO1 T01500033
ROUNDUP     |KRPX 211935Z AUTO 00000KT 40SM 18/M01 A2999 RMK AO1 T01781010
MALTA       |KM75 211935Z AUTO 11010G24KT 40SM 20/00 A3008 RMK AO1 T02000000






000
SXUS55 KMSO 211924
OSOMSO
MONTANA AWOS SUMMARY
NATIONAL WEATHER SERVICE MISSOULA MT
123 PM MDT THU MAY 21 2015

Montana AWOS Reports

LAUREL      |K6S8 211915Z AUTO 00000KT 40SM 17/04 A3005 RMK AO1 T01670039
TWIN BRIDGES|K7S1 211915Z AUTO 34006KT 40SM 17/03 A2999 RMK AO1 T01670028
ROUNDUP     |KRPX 211915Z AUTO 00000KT 40SM 18/M01 A3000 RMK AO1 T01781010
MALTA       |KM75 211915Z AUTO 10018G25KT 40SM 20/00 A3008 RMK AO1 T02000000






000
SXUS55 KMSO 211904
OSOMSO
MONTANA AWOS SUMMARY
NATIONAL WEATHER SERVICE MISSOULA MT
103 PM MDT THU MAY 21 2015

Montana AWOS Reports

LAUREL      |K6S8 211855Z AUTO 00000KT 40SM 16/04 A3006 RMK AO1 T01610039
TWIN BRIDGES|K7S1 211855Z AUTO 27006KT 40SM 17/03 A2999 RMK AO1 T01670033
ROUNDUP     |KRPX 211855Z AUTO 00000KT 40SM 17/M01 A3000 RMK AO1 T01721010
MALTA       |KM75 211855Z AUTO 09015G23KT 40SM 20/01 A3009 RMK AO1 T02000006
EKALAKA     |K97M 211855Z AUTO 08015G19KT 40SM 17/M03 A3015 RMK AO1 T01721032






000
SXUS55 KMSO 211904
OSOMSO
MONTANA AWOS SUMMARY
NATIONAL WEATHER SERVICE MISSOULA MT
103 PM MDT THU MAY 21 2015

Montana AWOS Reports

LAUREL      |K6S8 211855Z AUTO 00000KT 40SM 16/04 A3006 RMK AO1 T01610039
TWIN BRIDGES|K7S1 211855Z AUTO 27006KT 40SM 17/03 A2999 RMK AO1 T01670033
ROUNDUP     |KRPX 211855Z AUTO 00000KT 40SM 17/M01 A3000 RMK AO1 T01721010
MALTA       |KM75 211855Z AUTO 09015G23KT 40SM 20/01 A3009 RMK AO1 T02000006
EKALAKA     |K97M 211855Z AUTO 08015G19KT 40SM 17/M03 A3015 RMK AO1 T01721032






000
SXUS55 KMSO 211853
OSOMSO
MONTANA AWOS SUMMARY
NATIONAL WEATHER SERVICE MISSOULA MT
1253 PM MDT THU MAY 21 2015

Montana AWOS Reports

ROUNDUP     |KRPX 211835Z AUTO 00000KT 40SM 17/M02 A3000 RMK AO1 T01721016
LAUREL      |K6S8 211835Z AUTO 00000KT 40SM 16/05 A3007 RMK AO1 T01560050






000
SXUS55 KMSO 211853
OSOMSO
MONTANA AWOS SUMMARY
NATIONAL WEATHER SERVICE MISSOULA MT
1253 PM MDT THU MAY 21 2015

Montana AWOS Reports

ROUNDUP     |KRPX 211835Z AUTO 00000KT 40SM 17/M02 A3000 RMK AO1 T01721016
LAUREL      |K6S8 211835Z AUTO 00000KT 40SM 16/05 A3007 RMK AO1 T01560050






000
SXUS55 KMSO 211843
OSOMSO
MONTANA AWOS SUMMARY
NATIONAL WEATHER SERVICE MISSOULA MT
1242 PM MDT THU MAY 21 2015

Montana AWOS Reports

TWIN BRIDGES|K7S1 211835Z AUTO 34007KT 40SM 16/03 A3000 RMK AO1 T01610033
MALTA       |KM75 211835Z AUTO 12017G25KT 40SM 19/01 A3009 RMK AO1 T01940006






000
SXUS55 KMSO 211843
OSOMSO
MONTANA AWOS SUMMARY
NATIONAL WEATHER SERVICE MISSOULA MT
1242 PM MDT THU MAY 21 2015

Montana AWOS Reports

TWIN BRIDGES|K7S1 211835Z AUTO 34007KT 40SM 16/03 A3000 RMK AO1 T01610033
MALTA       |KM75 211835Z AUTO 12017G25KT 40SM 19/01 A3009 RMK AO1 T01940006






000
SXUS55 KMSO 211823
OSOMSO
MONTANA AWOS SUMMARY
NATIONAL WEATHER SERVICE MISSOULA MT
1223 PM MDT THU MAY 21 2015

Montana AWOS Reports

LAUREL      |K6S8 211815Z AUTO 00000KT 40SM 14/03 A3007 RMK AO1 T01440033
TWIN BRIDGES|K7S1 211815Z AUTO 34007KT 40SM 16/03 A3000 RMK AO1 T01610033
MALTA       |KM75 211815Z AUTO 11013G23KT 40SM 19/01 A3010 RMK AO1 T01890006
ROUNDUP     |KRPX 211815Z AUTO 07009G14KT 40SM 17/00 A3001 RMK AO1 T01670000






000
SXUS55 KMSO 211823
OSOMSO
MONTANA AWOS SUMMARY
NATIONAL WEATHER SERVICE MISSOULA MT
1223 PM MDT THU MAY 21 2015

Montana AWOS Reports

LAUREL      |K6S8 211815Z AUTO 00000KT 40SM 14/03 A3007 RMK AO1 T01440033
TWIN BRIDGES|K7S1 211815Z AUTO 34007KT 40SM 16/03 A3000 RMK AO1 T01610033
MALTA       |KM75 211815Z AUTO 11013G23KT 40SM 19/01 A3010 RMK AO1 T01890006
ROUNDUP     |KRPX 211815Z AUTO 07009G14KT 40SM 17/00 A3001 RMK AO1 T01670000






000
SXUS55 KMSO 211813
OSOMSO
MONTANA AWOS SUMMARY
NATIONAL WEATHER SERVICE MISSOULA MT
1212 PM MDT THU MAY 21 2015

Montana AWOS Reports

EKALAKA     |K97M 211755Z AUTO 10010G18KT 40SM 16/M02 A3017 RMK AO1 T01561016






000
SXUS55 KMSO 211803
OSOMSO
MONTANA AWOS SUMMARY
NATIONAL WEATHER SERVICE MISSOULA MT
1203 PM MDT THU MAY 21 2015

Montana AWOS Reports

LAUREL      |K6S8 211755Z AUTO 04004KT 40SM 14/04 A3008 RMK AO1 T01440044
TWIN BRIDGES|K7S1 211755Z AUTO 29007KT 40SM 16/03 A3001 RMK AO1 T01610033
MALTA       |KM75 211755Z AUTO 12017G25KT 40SM 19/01 A3010 RMK AO1 T01890006
ROUNDUP     |KRPX 211755Z AUTO 11009KT 40SM 16/01 A3001 RMK AO1 T01610006






000
SXUS55 KMSO 211803
OSOMSO
MONTANA AWOS SUMMARY
NATIONAL WEATHER SERVICE MISSOULA MT
1203 PM MDT THU MAY 21 2015

Montana AWOS Reports

LAUREL      |K6S8 211755Z AUTO 04004KT 40SM 14/04 A3008 RMK AO1 T01440044
TWIN BRIDGES|K7S1 211755Z AUTO 29007KT 40SM 16/03 A3001 RMK AO1 T01610033
MALTA       |KM75 211755Z AUTO 12017G25KT 40SM 19/01 A3010 RMK AO1 T01890006
ROUNDUP     |KRPX 211755Z AUTO 11009KT 40SM 16/01 A3001 RMK AO1 T01610006






000
SXUS55 KMSO 211743
OSOMSO
MONTANA AWOS SUMMARY
NATIONAL WEATHER SERVICE MISSOULA MT
1143 AM MDT THU MAY 21 2015

Montana AWOS Reports

LAUREL      |K6S8 211735Z AUTO 00000KT 40SM 14/04 A3008 RMK AO1 T01390039
ROUNDUP     |KRPX 211735Z AUTO 07005KT 40SM 16/01 A3001 RMK AO1 T01560006
MALTA       |KM75 211735Z AUTO 10014G22KT 40SM 18/01 A3010 RMK AO1 T01830006






000
SXUS55 KMSO 211733
OSOMSO
MONTANA AWOS SUMMARY
NATIONAL WEATHER SERVICE MISSOULA MT
1133 AM MDT THU MAY 21 2015

Montana AWOS Reports

EKALAKA     |K97M 211655Z AUTO 10012KT 40SM 14/M01 A3018 RMK AO1 T01391010






    US Dept of Commerce
    National Oceanic and Atmospheric Administration
    National Weather Service
    1325 East West Highway
    Silver Spring, MD 20910
    Page Author: NWS Internet Services Team
Disclaimer
Information Quality
Credits
Glossary
Privacy Policy
Freedom of Information Act (FOIA)
About Us
Career Opportunities